<?xml version='1.0' encoding='UTF-8'?><gpx version="1.1" creator="JPX - https://github.com/jenetics/jpx" xmlns="http://www.topografix.com/GPX/1/1"><trk><trkseg><trkpt lat="43.972047543155064" lon="12.720020401771874"><ele>1.0</ele><time>2026-04-26T09:57:22Z</time></trkpt><trkpt lat="43.97198384705998" lon="12.719989596932791"><ele>0.9999999999999999</ele><time>2026-04-26T09:57:25Z</time></trkpt><trkpt lat="43.971909405053076" lon="12.719956179537812"><ele>1.0</ele><time>2026-04-26T09:57:28Z</time></trkpt><trkpt lat="43.97184179041735" lon="12.719926889942121"><ele>1.0</ele><time>2026-04-26T09:57:31Z</time></trkpt><trkpt lat="43.97177952271545" lon="12.719902702391952"><ele>0.9999999999999999</ele><time>2026-04-26T09:57:34Z</time></trkpt><trkpt lat="43.97171288331381" lon="12.719873993280858"><ele>1.0</ele><time>2026-04-26T09:57:37Z</time></trkpt><trkpt lat="43.9716496159318" lon="12.719850296118798"><ele>1.0</ele><time>2026-04-26T09:57:40Z</time></trkpt><trkpt lat="43.971566547663066" lon="12.71981293923331"><ele>1.0</ele><time>2026-04-26T09:57:44Z</time></trkpt><trkpt lat="43.971483416760364" lon="12.719777802641982"><ele>0.9999999999999999</ele><time>2026-04-26T09:57:47Z</time></trkpt><trkpt lat="43.97142145356722" lon="12.71973767811119"><ele>1.0</ele><time>2026-04-26T09:57:49Z</time></trkpt><trkpt lat="43.97135711879508" lon="12.719715439138993"><ele>1.0</ele><time>2026-04-26T09:57:51Z</time></trkpt><trkpt lat="43.97129600957085" lon="12.719693107289702"><ele>0.9999999999999999</ele><time>2026-04-26T09:57:53Z</time></trkpt><trkpt lat="43.97121073448398" lon="12.719644838421162"><ele>1.0</ele><time>2026-04-26T09:57:56Z</time></trkpt><trkpt lat="43.97114834369146" lon="12.719623815767324"><ele>1.0</ele><time>2026-04-26T09:57:58Z</time></trkpt><trkpt lat="43.971076332534686" lon="12.719601578590884"><ele>1.0</ele><time>2026-04-26T09:58:00Z</time></trkpt><trkpt lat="43.971016489470856" lon="12.719565412347507"><ele>0.9999999999999999</ele><time>2026-04-26T09:58:02Z</time></trkpt><trkpt lat="43.97095129038431" lon="12.719530738954118"><ele>1.0</ele><time>2026-04-26T09:58:04Z</time></trkpt><trkpt lat="43.970884769214294" lon="12.719504973859195"><ele>1.0</ele><time>2026-04-26T09:58:06Z</time></trkpt><trkpt lat="43.97081576812304" lon="12.719477407985645"><ele>0.9999999999999999</ele><time>2026-04-26T09:58:08Z</time></trkpt><trkpt lat="43.970749835067956" lon="12.71944097821866"><ele>1.0</ele><time>2026-04-26T09:58:10Z</time></trkpt><trkpt lat="43.97067613750847" lon="12.719412311250505"><ele>1.0</ele><time>2026-04-26T09:58:12Z</time></trkpt><trkpt lat="43.97060624137199" lon="12.719383652658607"><ele>0.8333333333333333</ele><time>2026-04-26T09:58:14Z</time></trkpt><trkpt lat="43.97054295612425" lon="12.719326901159576"><ele>0.6666666666666666</ele><time>2026-04-26T09:58:16Z</time></trkpt><trkpt lat="43.97045985983829" lon="12.71928129185952"><ele>0.5</ele><time>2026-04-26T09:58:19Z</time></trkpt><trkpt lat="43.97039276060619" lon="12.719250101193"><ele>0.3333333333333333</ele><time>2026-04-26T09:58:20.999Z</time></trkpt><trkpt lat="43.970322719992275" lon="12.719204666723739"><ele>0.16666666666666666</ele><time>2026-04-26T09:58:22.999Z</time></trkpt><trkpt lat="43.97025086667067" lon="12.719160082112575"><ele>0.0</ele><time>2026-04-26T09:58:24.999Z</time></trkpt><trkpt lat="43.97017944039721" lon="12.719113159972354"><ele>0.0</ele><time>2026-04-26T09:58:26.999Z</time></trkpt><trkpt lat="43.97010595862283" lon="12.719074055874383"><ele>0.0</ele><time>2026-04-26T09:58:28.999Z</time></trkpt><trkpt lat="43.97002872933465" lon="12.719030345276346"><ele>0.0</ele><time>2026-04-26T09:58:30.999Z</time></trkpt><trkpt lat="43.96995544849354" lon="12.718980316152305"><ele>0.0</ele><time>2026-04-26T09:58:32.999Z</time></trkpt><trkpt lat="43.96988547281688" lon="12.71893176017006"><ele>0.0</ele><time>2026-04-26T09:58:34.999Z</time></trkpt><trkpt lat="43.96981517198215" lon="12.718891401402715"><ele>0.0</ele><time>2026-04-26T09:58:36.999Z</time></trkpt><trkpt lat="43.96974735980925" lon="12.7188499078052"><ele>0.16666666666666666</ele><time>2026-04-26T09:58:38.999Z</time></trkpt><trkpt lat="43.96967678168746" lon="12.71880167992918"><ele>0.3333333333333333</ele><time>2026-04-26T09:58:40.999Z</time></trkpt><trkpt lat="43.969569870329956" lon="12.71874651092643"><ele>0.5</ele><time>2026-04-26T09:58:42.999Z</time></trkpt><trkpt lat="43.96950074763585" lon="12.718696808786817"><ele>0.6666666666666666</ele><time>2026-04-26T09:58:43.999Z</time></trkpt><trkpt lat="43.96942482869044" lon="12.718647383323484"><ele>0.8333333333333333</ele><time>2026-04-26T09:58:44.999Z</time></trkpt><trkpt lat="43.96934990126247" lon="12.718600955317434"><ele>1.0</ele><time>2026-04-26T09:58:45.999Z</time></trkpt><trkpt lat="43.96929111418092" lon="12.718541630619221"><ele>1.2000000000000002</ele><time>2026-04-26T09:58:46.999Z</time></trkpt><trkpt lat="43.96923137697334" lon="12.718486837783015"><ele>1.4000000000000001</ele><time>2026-04-26T09:58:47.999Z</time></trkpt><trkpt lat="43.96915548405187" lon="12.718450959521741"><ele>1.6</ele><time>2026-04-26T09:58:48.999Z</time></trkpt><trkpt lat="43.969065911347265" lon="12.718354146887222"><ele>1.8</ele><time>2026-04-26T09:58:50.999Z</time></trkpt><trkpt lat="43.96899255309724" lon="12.71826973969799"><ele>2.0</ele><time>2026-04-26T09:58:52.999Z</time></trkpt><trkpt lat="43.96891298263074" lon="12.718175697068167"><ele>2.1666666666666665</ele><time>2026-04-26T09:58:54.999Z</time></trkpt><trkpt lat="43.96884248738088" lon="12.718090008922106"><ele>2.333333333333333</ele><time>2026-04-26T09:58:56.999Z</time></trkpt><trkpt lat="43.968791703965735" lon="12.718026797051394"><ele>2.5</ele><time>2026-04-26T09:58:59.999Z</time></trkpt><trkpt lat="43.968720812888805" lon="12.717943923968896"><ele>2.6666666666666665</ele><time>2026-04-26T09:59:02.999Z</time></trkpt><trkpt lat="43.968629457645996" lon="12.717888360724277"><ele>2.8333333333333335</ele><time>2026-04-26T09:59:04.999Z</time></trkpt><trkpt lat="43.96856045194178" lon="12.717824388144422"><ele>3.0</ele><time>2026-04-26T09:59:05.999Z</time></trkpt><trkpt lat="43.96849979513792" lon="12.717762530138797"><ele>3.0</ele><time>2026-04-26T09:59:06.999Z</time></trkpt><trkpt lat="43.96843674871456" lon="12.717693755987781"><ele>3.0</ele><time>2026-04-26T09:59:07.999Z</time></trkpt><trkpt lat="43.968371579405336" lon="12.717619684869641"><ele>3.0</ele><time>2026-04-26T09:59:08.999Z</time></trkpt><trkpt lat="43.968317253693755" lon="12.717547549301893"><ele>3.0</ele><time>2026-04-26T09:59:09.999Z</time></trkpt><trkpt lat="43.968257703830986" lon="12.717480617570594"><ele>3.0</ele><time>2026-04-26T09:59:10.999Z</time></trkpt><trkpt lat="43.96820369905493" lon="12.71742140792519"><ele>3.0</ele><time>2026-04-26T09:59:11.999Z</time></trkpt><trkpt lat="43.96812308243719" lon="12.71735138285236"><ele>3.1666666666666665</ele><time>2026-04-26T09:59:13.999Z</time></trkpt><trkpt lat="43.968037085734466" lon="12.717321921555238"><ele>3.333333333333333</ele><time>2026-04-26T09:59:15.999Z</time></trkpt><trkpt lat="43.96796498949348" lon="12.717317375740029"><ele>3.5</ele><time>2026-04-26T09:59:17.999Z</time></trkpt><trkpt lat="43.96786281830643" lon="12.717297184729425"><ele>3.6666666666666665</ele><time>2026-04-26T09:59:19.999Z</time></trkpt><trkpt lat="43.96776861353511" lon="12.71726449777677"><ele>3.833333333333333</ele><time>2026-04-26T09:59:21.999Z</time></trkpt><trkpt lat="43.967690394577765" lon="12.717207382236523"><ele>4.0</ele><time>2026-04-26T09:59:23.999Z</time></trkpt><trkpt lat="43.96762763494761" lon="12.717133336931786"><ele>3.9999999999999996</ele><time>2026-04-26T09:59:25.999Z</time></trkpt><trkpt lat="43.967565646041855" lon="12.717035468770451"><ele>4.0</ele><time>2026-04-26T09:59:29Z</time></trkpt><trkpt lat="43.967489421408665" lon="12.716987516933163"><ele>4.0</ele><time>2026-04-26T09:59:31Z</time></trkpt><trkpt lat="43.96742869455371" lon="12.716908358122446"><ele>4.0</ele><time>2026-04-26T09:59:33Z</time></trkpt><trkpt lat="43.96738453822102" lon="12.716822653000127"><ele>3.9999999999999996</ele><time>2026-04-26T09:59:35Z</time></trkpt><trkpt lat="43.96730528832354" lon="12.716758855821507"><ele>4.0</ele><time>2026-04-26T09:59:37Z</time></trkpt><trkpt lat="43.96726090624401" lon="12.716669209322367"><ele>3.4999999999999996</ele><time>2026-04-26T09:59:39Z</time></trkpt><trkpt lat="43.96719910646561" lon="12.716630140339959"><ele>3.0</ele><time>2026-04-26T09:59:41Z</time></trkpt><trkpt lat="43.96712211896023" lon="12.716580062604583"><ele>2.5</ele><time>2026-04-26T09:59:43Z</time></trkpt><trkpt lat="43.96705215324172" lon="12.716512307395044"><ele>2.0</ele><time>2026-04-26T09:59:45Z</time></trkpt><trkpt lat="43.96698317208903" lon="12.716449084271373"><ele>1.5</ele><time>2026-04-26T09:59:47Z</time></trkpt><trkpt lat="43.966922916591244" lon="12.71636951784645"><ele>1.0</ele><time>2026-04-26T09:59:49Z</time></trkpt><trkpt lat="43.966857728657544" lon="12.71629559114384"><ele>0.9999999999999999</ele><time>2026-04-26T09:59:51Z</time></trkpt><trkpt lat="43.966793375561004" lon="12.716220891360246"><ele>1.0</ele><time>2026-04-26T09:59:53Z</time></trkpt><trkpt lat="43.966725208174495" lon="12.716141024004607"><ele>1.0</ele><time>2026-04-26T09:59:55Z</time></trkpt><trkpt lat="43.96667661001223" lon="12.716051926982107"><ele>1.0</ele><time>2026-04-26T09:59:57Z</time></trkpt><trkpt lat="43.96662013414196" lon="12.715959633663758"><ele>0.9999999999999999</ele><time>2026-04-26T09:59:59Z</time></trkpt><trkpt lat="43.9665589943467" lon="12.715879074844356"><ele>1.0</ele><time>2026-04-26T10:00:01Z</time></trkpt><trkpt lat="43.96649650511279" lon="12.715788682374939"><ele>1.2000000000000002</ele><time>2026-04-26T10:00:03Z</time></trkpt><trkpt lat="43.966443014859564" lon="12.715685857005413"><ele>1.4000000000000001</ele><time>2026-04-26T10:00:05Z</time></trkpt><trkpt lat="43.96640192846632" lon="12.715576119348265"><ele>1.6</ele><time>2026-04-26T10:00:07Z</time></trkpt><trkpt lat="43.966356634352216" lon="12.715493518456073"><ele>1.8</ele><time>2026-04-26T10:00:09Z</time></trkpt><trkpt lat="43.96625587822871" lon="12.71543168653893"><ele>2.0</ele><time>2026-04-26T10:00:11Z</time></trkpt><trkpt lat="43.966209854172" lon="12.715300318031442"><ele>1.9999999999999998</ele><time>2026-04-26T10:00:13Z</time></trkpt><trkpt lat="43.96616055556537" lon="12.715193455311105"><ele>2.0</ele><time>2026-04-26T10:00:15Z</time></trkpt><trkpt lat="43.96611075564934" lon="12.715090183174764"><ele>2.0</ele><time>2026-04-26T10:00:17Z</time></trkpt><trkpt lat="43.966057981214476" lon="12.714986941356257"><ele>2.0</ele><time>2026-04-26T10:00:19Z</time></trkpt><trkpt lat="43.96599644504024" lon="12.714890798539466"><ele>1.9999999999999998</ele><time>2026-04-26T10:00:21Z</time></trkpt><trkpt lat="43.96595481687144" lon="12.7147991148415"><ele>2.0</ele><time>2026-04-26T10:00:23Z</time></trkpt><trkpt lat="43.965911792559844" lon="12.714682303154536"><ele>1.8</ele><time>2026-04-26T10:00:25Z</time></trkpt><trkpt lat="43.96584706454985" lon="12.714594873599234"><ele>1.6</ele><time>2026-04-26T10:00:27Z</time></trkpt><trkpt lat="43.9657871312963" lon="12.714496536648165"><ele>1.4000000000000001</ele><time>2026-04-26T10:00:29Z</time></trkpt><trkpt lat="43.96572394087174" lon="12.714409575060166"><ele>1.2000000000000002</ele><time>2026-04-26T10:00:31Z</time></trkpt><trkpt lat="43.96567273842242" lon="12.714301102385173"><ele>1.0</ele><time>2026-04-26T10:00:33Z</time></trkpt><trkpt lat="43.96561902326935" lon="12.714204468488715"><ele>1.3333333333333333</ele><time>2026-04-26T10:00:35Z</time></trkpt><trkpt lat="43.96557633587416" lon="12.714093604140034"><ele>1.6666666666666665</ele><time>2026-04-26T10:00:37Z</time></trkpt><trkpt lat="43.96555807431446" lon="12.714000403965901"><ele>2.0</ele><time>2026-04-26T10:00:39Z</time></trkpt><trkpt lat="43.965512442294205" lon="12.71389514822889"><ele>2.3333333333333335</ele><time>2026-04-26T10:00:41Z</time></trkpt><trkpt lat="43.96546018772787" lon="12.713807290188704"><ele>2.6666666666666665</ele><time>2026-04-26T10:00:43Z</time></trkpt><trkpt lat="43.96542657200357" lon="12.71369957931137"><ele>3.0</ele><time>2026-04-26T10:00:45Z</time></trkpt><trkpt lat="43.965392918367854" lon="12.713592809518605"><ele>3.1666666666666665</ele><time>2026-04-26T10:00:47Z</time></trkpt><trkpt lat="43.965346844466794" lon="12.713495956821763"><ele>3.333333333333333</ele><time>2026-04-26T10:00:49Z</time></trkpt><trkpt lat="43.96529402540577" lon="12.713409426077703"><ele>3.5</ele><time>2026-04-26T10:00:51Z</time></trkpt><trkpt lat="43.9652436779141" lon="12.713323193768153"><ele>3.6666666666666665</ele><time>2026-04-26T10:00:53Z</time></trkpt><trkpt lat="43.96520223337425" lon="12.713230034642262"><ele>3.833333333333333</ele><time>2026-04-26T10:00:55Z</time></trkpt><trkpt lat="43.96516691068251" lon="12.713130163299105"><ele>4.0</ele><time>2026-04-26T10:00:57Z</time></trkpt><trkpt lat="43.965140850501676" lon="12.71302764307496"><ele>4.0</ele><time>2026-04-26T10:00:59Z</time></trkpt><trkpt lat="43.96511659345654" lon="12.712927671083296"><ele>4.0</ele><time>2026-04-26T10:01:01Z</time></trkpt><trkpt lat="43.96507749397545" lon="12.712815419195481"><ele>4.0</ele><time>2026-04-26T10:01:03Z</time></trkpt><trkpt lat="43.965022146227554" lon="12.71261572675634"><ele>4.0</ele><time>2026-04-26T10:01:06Z</time></trkpt><trkpt lat="43.96502618655285" lon="12.712491218185095"><ele>4.0</ele><time>2026-04-26T10:01:08Z</time></trkpt><trkpt lat="43.96499213059144" lon="12.712390532009067"><ele>4.166666666666666</ele><time>2026-04-26T10:01:10Z</time></trkpt><trkpt lat="43.96495587782191" lon="12.712300256069854"><ele>4.333333333333333</ele><time>2026-04-26T10:01:12Z</time></trkpt><trkpt lat="43.96492417325954" lon="12.712203131748666"><ele>4.5</ele><time>2026-04-26T10:01:14Z</time></trkpt><trkpt lat="43.96489103608196" lon="12.712105430393088"><ele>4.666666666666667</ele><time>2026-04-26T10:01:16Z</time></trkpt><trkpt lat="43.96486647280801" lon="12.712006907673477"><ele>4.833333333333334</ele><time>2026-04-26T10:01:18Z</time></trkpt><trkpt lat="43.96482798787893" lon="12.711920502492118"><ele>5.0</ele><time>2026-04-26T10:01:20Z</time></trkpt><trkpt lat="43.964800909693516" lon="12.711814074997063"><ele>5.333333333333334</ele><time>2026-04-26T10:01:22Z</time></trkpt><trkpt lat="43.96477212975038" lon="12.71171276092639"><ele>5.666666666666667</ele><time>2026-04-26T10:01:24Z</time></trkpt><trkpt lat="43.96473795772275" lon="12.711607578020432"><ele>6.0</ele><time>2026-04-26T10:01:26Z</time></trkpt><trkpt lat="43.964709038561516" lon="12.711505681354044"><ele>6.333333333333334</ele><time>2026-04-26T10:01:28Z</time></trkpt><trkpt lat="43.964676590185995" lon="12.711429737231015"><ele>6.666666666666667</ele><time>2026-04-26T10:01:31Z</time></trkpt><trkpt lat="43.96465006164882" lon="12.711324864647713"><ele>7.0</ele><time>2026-04-26T10:01:32Z</time></trkpt><trkpt lat="43.96461242733026" lon="12.711217780579052"><ele>7.000000000000001</ele><time>2026-04-26T10:01:34Z</time></trkpt><trkpt lat="43.96457712954155" lon="12.711106176062188"><ele>7.0</ele><time>2026-04-26T10:01:36Z</time></trkpt><trkpt lat="43.96454413232564" lon="12.710997013644231"><ele>7.0</ele><time>2026-04-26T10:01:38Z</time></trkpt><trkpt lat="43.96451440906724" lon="12.710889519336357"><ele>7.0</ele><time>2026-04-26T10:01:40Z</time></trkpt><trkpt lat="43.96448554456718" lon="12.71078097296574"><ele>7.000000000000001</ele><time>2026-04-26T10:01:42Z</time></trkpt><trkpt lat="43.96445773953585" lon="12.7106770015422"><ele>7.0</ele><time>2026-04-26T10:01:44Z</time></trkpt><trkpt lat="43.96442957105461" lon="12.710565904086137"><ele>7.333333333333334</ele><time>2026-04-26T10:01:46Z</time></trkpt><trkpt lat="43.964400061176036" lon="12.710456919856"><ele>7.666666666666667</ele><time>2026-04-26T10:01:48Z</time></trkpt><trkpt lat="43.96437504811513" lon="12.710346956383125"><ele>8.0</ele><time>2026-04-26T10:01:50Z</time></trkpt><trkpt lat="43.96435870466732" lon="12.710235439333504"><ele>8.333333333333334</ele><time>2026-04-26T10:01:52Z</time></trkpt><trkpt lat="43.96433319704222" lon="12.710132576039255"><ele>8.666666666666666</ele><time>2026-04-26T10:01:54Z</time></trkpt><trkpt lat="43.96431199182393" lon="12.710045086696091"><ele>9.0</ele><time>2026-04-26T10:01:56Z</time></trkpt><trkpt lat="43.96429914905622" lon="12.709956055270675"><ele>9.0</ele><time>2026-04-26T10:01:58Z</time></trkpt><trkpt lat="43.96428629541205" lon="12.709860627663087"><ele>9.0</ele><time>2026-04-26T10:02:00Z</time></trkpt><trkpt lat="43.96428025177588" lon="12.709728780411712"><ele>9.0</ele><time>2026-04-26T10:02:03Z</time></trkpt><trkpt lat="43.964270124973815" lon="12.709593148430036"><ele>9.0</ele><time>2026-04-26T10:02:06Z</time></trkpt><trkpt lat="43.964246546459044" lon="12.709491693929204"><ele>9.0</ele><time>2026-04-26T10:02:08Z</time></trkpt><trkpt lat="43.9642165552293" lon="12.709388355978467"><ele>9.0</ele><time>2026-04-26T10:02:10Z</time></trkpt><trkpt lat="43.96418584255633" lon="12.709280300695218"><ele>8.5</ele><time>2026-04-26T10:02:12Z</time></trkpt><trkpt lat="43.96414911525874" lon="12.709173186060235"><ele>8.0</ele><time>2026-04-26T10:02:14Z</time></trkpt><trkpt lat="43.96411586880564" lon="12.709061897638927"><ele>7.5</ele><time>2026-04-26T10:02:16Z</time></trkpt><trkpt lat="43.964079907937645" lon="12.708953301629041"><ele>7.0</ele><time>2026-04-26T10:02:18Z</time></trkpt><trkpt lat="43.96404497062112" lon="12.708843085050919"><ele>6.5</ele><time>2026-04-26T10:02:20Z</time></trkpt><trkpt lat="43.96401597476224" lon="12.708724147707986"><ele>6.0</ele><time>2026-04-26T10:02:22Z</time></trkpt><trkpt lat="43.963982847491174" lon="12.708598180818427"><ele>6.199999999999999</ele><time>2026-04-26T10:02:24Z</time></trkpt><trkpt lat="43.9639494868683" lon="12.708472113401848"><ele>6.3999999999999995</ele><time>2026-04-26T10:02:26Z</time></trkpt><trkpt lat="43.963911904101884" lon="12.708344181739"><ele>6.6</ele><time>2026-04-26T10:02:28Z</time></trkpt><trkpt lat="43.96387187261909" lon="12.708215317403855"><ele>6.8</ele><time>2026-04-26T10:02:30Z</time></trkpt><trkpt lat="43.96384168240618" lon="12.708082738151683"><ele>7.0</ele><time>2026-04-26T10:02:32Z</time></trkpt><trkpt lat="43.96380545207898" lon="12.707948947793307"><ele>7.0</ele><time>2026-04-26T10:02:34Z</time></trkpt><trkpt lat="43.96376677741335" lon="12.707808212597191"><ele>6.999999999999999</ele><time>2026-04-26T10:02:36Z</time></trkpt><trkpt lat="43.96373264028339" lon="12.707670321866228"><ele>6.999999999999999</ele><time>2026-04-26T10:02:38Z</time></trkpt><trkpt lat="43.96370928120457" lon="12.707531759061402"><ele>7.0</ele><time>2026-04-26T10:02:40Z</time></trkpt><trkpt lat="43.96369232976349" lon="12.707401167793096"><ele>7.0</ele><time>2026-04-26T10:02:42Z</time></trkpt><trkpt lat="43.96367978168418" lon="12.707294620216626"><ele>7.500000000000001</ele><time>2026-04-26T10:02:44Z</time></trkpt><trkpt lat="43.963664721711375" lon="12.707173373377085"><ele>8.0</ele><time>2026-04-26T10:02:47Z</time></trkpt><trkpt lat="43.96363770439191" lon="12.707050980061227"><ele>8.5</ele><time>2026-04-26T10:02:50Z</time></trkpt><trkpt lat="43.96364468289971" lon="12.70695165176244"><ele>9.0</ele><time>2026-04-26T10:02:52Z</time></trkpt><trkpt lat="43.96363453128457" lon="12.706841852312174"><ele>9.5</ele><time>2026-04-26T10:02:54Z</time></trkpt><trkpt lat="43.963631889192534" lon="12.706726874700047"><ele>10.0</ele><time>2026-04-26T10:02:56Z</time></trkpt><trkpt lat="43.963623820715675" lon="12.706613464023533"><ele>10.0</ele><time>2026-04-26T10:02:58Z</time></trkpt><trkpt lat="43.96361693332261" lon="12.706499222179305"><ele>10.0</ele><time>2026-04-26T10:03:00Z</time></trkpt><trkpt lat="43.96359293454179" lon="12.706391198649467"><ele>10.0</ele><time>2026-04-26T10:03:02Z</time></trkpt><trkpt lat="43.96354069533236" lon="12.70629813731962"><ele>10.0</ele><time>2026-04-26T10:03:04Z</time></trkpt><trkpt lat="43.9634868201658" lon="12.7062028199728"><ele>10.0</ele><time>2026-04-26T10:03:06Z</time></trkpt><trkpt lat="43.96343586607699" lon="12.7061128665184"><ele>10.0</ele><time>2026-04-26T10:03:08Z</time></trkpt><trkpt lat="43.96338708512476" lon="12.706026119848572"><ele>9.666666666666668</ele><time>2026-04-26T10:03:10Z</time></trkpt><trkpt lat="43.96333455315053" lon="12.70593522517778"><ele>9.333333333333334</ele><time>2026-04-26T10:03:12Z</time></trkpt><trkpt lat="43.9632894787879" lon="12.70583887142609"><ele>9.0</ele><time>2026-04-26T10:03:14Z</time></trkpt><trkpt lat="43.963242928703046" lon="12.70575349442494"><ele>8.666666666666666</ele><time>2026-04-26T10:03:16Z</time></trkpt><trkpt lat="43.96321494768077" lon="12.705657104297567"><ele>8.333333333333332</ele><time>2026-04-26T10:03:18Z</time></trkpt><trkpt lat="43.96317282992213" lon="12.70556465486603"><ele>8.0</ele><time>2026-04-26T10:03:20Z</time></trkpt><trkpt lat="43.963130636528945" lon="12.705462101356746"><ele>8.0</ele><time>2026-04-26T10:03:22Z</time></trkpt><trkpt lat="43.9630858659473" lon="12.705352939815361"><ele>8.0</ele><time>2026-04-26T10:03:24Z</time></trkpt><trkpt lat="43.963039623437766" lon="12.705240115216894"><ele>8.0</ele><time>2026-04-26T10:03:26Z</time></trkpt><trkpt lat="43.962984223297575" lon="12.7051335825284"><ele>8.0</ele><time>2026-04-26T10:03:28Z</time></trkpt><trkpt lat="43.96293241647695" lon="12.705016517183976"><ele>8.0</ele><time>2026-04-26T10:03:30Z</time></trkpt><trkpt lat="43.96288402299619" lon="12.704887585894058"><ele>8.0</ele><time>2026-04-26T10:03:32Z</time></trkpt><trkpt lat="43.96282346830267" lon="12.70476756016455"><ele>8.0</ele><time>2026-04-26T10:03:34Z</time></trkpt><trkpt lat="43.96276485924579" lon="12.704636172361763"><ele>8.0</ele><time>2026-04-26T10:03:36Z</time></trkpt><trkpt lat="43.96270336883545" lon="12.704506262346438"><ele>8.0</ele><time>2026-04-26T10:03:38Z</time></trkpt><trkpt lat="43.96264333170724" lon="12.704377674908129"><ele>8.0</ele><time>2026-04-26T10:03:40Z</time></trkpt><trkpt lat="43.96256739703982" lon="12.70426256987429"><ele>8.200000000000001</ele><time>2026-04-26T10:03:42Z</time></trkpt><trkpt lat="43.96250093602388" lon="12.704140171617034"><ele>8.4</ele><time>2026-04-26T10:03:44Z</time></trkpt><trkpt lat="43.96242800319341" lon="12.704023877286811"><ele>8.600000000000001</ele><time>2026-04-26T10:03:46Z</time></trkpt><trkpt lat="43.96235412794396" lon="12.70391147231281"><ele>8.8</ele><time>2026-04-26T10:03:48Z</time></trkpt><trkpt lat="43.96228003371503" lon="12.70379546875624"><ele>9.0</ele><time>2026-04-26T10:03:50Z</time></trkpt><trkpt lat="43.962204800430825" lon="12.703678412907792"><ele>8.75</ele><time>2026-04-26T10:03:52Z</time></trkpt><trkpt lat="43.962131626311795" lon="12.70355995956238"><ele>8.5</ele><time>2026-04-26T10:03:54Z</time></trkpt><trkpt lat="43.96205061761956" lon="12.703444486075153"><ele>8.25</ele><time>2026-04-26T10:03:56Z</time></trkpt><trkpt lat="43.96197226426353" lon="12.70333014246061"><ele>8.0</ele><time>2026-04-26T10:03:58Z</time></trkpt><trkpt lat="43.961898766267225" lon="12.703216303323664"><ele>8.0</ele><time>2026-04-26T10:04:00Z</time></trkpt><trkpt lat="43.96182462139695" lon="12.703104189635358"><ele>8.0</ele><time>2026-04-26T10:04:02Z</time></trkpt><trkpt lat="43.96175061992878" lon="12.702996306125037"><ele>8.0</ele><time>2026-04-26T10:04:04Z</time></trkpt><trkpt lat="43.96167503447422" lon="12.702887116310313"><ele>8.0</ele><time>2026-04-26T10:04:06Z</time></trkpt><trkpt lat="43.96158440126242" lon="12.702798657172606"><ele>8.0</ele><time>2026-04-26T10:04:08Z</time></trkpt><trkpt lat="43.96151057518592" lon="12.702699262424614"><ele>7.800000000000001</ele><time>2026-04-26T10:04:10Z</time></trkpt><trkpt lat="43.96142890477225" lon="12.702599397854051"><ele>7.6000000000000005</ele><time>2026-04-26T10:04:12Z</time></trkpt><trkpt lat="43.961361958227414" lon="12.702486567142875"><ele>7.3999999999999995</ele><time>2026-04-26T10:04:14Z</time></trkpt><trkpt lat="43.96127719924963" lon="12.702395755981932"><ele>7.199999999999999</ele><time>2026-04-26T10:04:16Z</time></trkpt><trkpt lat="43.961200042825226" lon="12.702295937929792"><ele>7.0</ele><time>2026-04-26T10:04:18Z</time></trkpt><trkpt lat="43.961119594404636" lon="12.702202386779206"><ele>7.0</ele><time>2026-04-26T10:04:20Z</time></trkpt><trkpt lat="43.96103973811665" lon="12.702111966318933"><ele>6.999999999999999</ele><time>2026-04-26T10:04:22Z</time></trkpt><trkpt lat="43.96096589109969" lon="12.702031602148994"><ele>6.999999999999999</ele><time>2026-04-26T10:04:24Z</time></trkpt><trkpt lat="43.960900751214346" lon="12.701925092551305"><ele>7.0</ele><time>2026-04-26T10:04:26Z</time></trkpt><trkpt lat="43.96082391925052" lon="12.701827982097964"><ele>7.0</ele><time>2026-04-26T10:04:28Z</time></trkpt><trkpt lat="43.96075169287218" lon="12.70172704956958"><ele>7.6</ele><time>2026-04-26T10:04:30Z</time></trkpt><trkpt lat="43.96067901393242" lon="12.701617073788933"><ele>8.2</ele><time>2026-04-26T10:04:32Z</time></trkpt><trkpt lat="43.96060027638748" lon="12.70151635550969"><ele>8.8</ele><time>2026-04-26T10:04:34Z</time></trkpt><trkpt lat="43.960526558190665" lon="12.70141675671595"><ele>9.4</ele><time>2026-04-26T10:04:36Z</time></trkpt><trkpt lat="43.960454352587924" lon="12.701318586940458"><ele>10.0</ele><time>2026-04-26T10:04:38Z</time></trkpt><trkpt lat="43.960381837331" lon="12.70123393830624"><ele>10.0</ele><time>2026-04-26T10:04:40Z</time></trkpt><trkpt lat="43.9603123229319" lon="12.701137437170125"><ele>10.0</ele><time>2026-04-26T10:04:42Z</time></trkpt><trkpt lat="43.9602330738613" lon="12.701048593000461"><ele>10.0</ele><time>2026-04-26T10:04:44Z</time></trkpt><trkpt lat="43.96016276631712" lon="12.700951497409601"><ele>10.0</ele><time>2026-04-26T10:04:46Z</time></trkpt><trkpt lat="43.96009394843963" lon="12.700846414864214"><ele>10.0</ele><time>2026-04-26T10:04:48Z</time></trkpt><trkpt lat="43.96002562846531" lon="12.700756666483803"><ele>10.166666666666668</ele><time>2026-04-26T10:04:50Z</time></trkpt><trkpt lat="43.95995641893914" lon="12.700675870605126"><ele>10.333333333333334</ele><time>2026-04-26T10:04:52Z</time></trkpt><trkpt lat="43.95989126110204" lon="12.700587108830122"><ele>10.5</ele><time>2026-04-26T10:04:54Z</time></trkpt><trkpt lat="43.959829118502775" lon="12.700497356016225"><ele>10.666666666666666</ele><time>2026-04-26T10:04:56Z</time></trkpt><trkpt lat="43.95976485380381" lon="12.70041480454095"><ele>10.833333333333332</ele><time>2026-04-26T10:04:58Z</time></trkpt><trkpt lat="43.95970890231034" lon="12.70032949821229"><ele>11.0</ele><time>2026-04-26T10:05:00Z</time></trkpt><trkpt lat="43.95965818013702" lon="12.700248814730628"><ele>11.285714285714286</ele><time>2026-04-26T10:05:02Z</time></trkpt><trkpt lat="43.95959860634484" lon="12.700180288835778"><ele>11.571428571428571</ele><time>2026-04-26T10:05:05Z</time></trkpt><trkpt lat="43.95953587519455" lon="12.700107815301854"><ele>11.857142857142858</ele><time>2026-04-26T10:05:08Z</time></trkpt><trkpt lat="43.959535636579155" lon="12.700007960573819"><ele>12.142857142857142</ele><time>2026-04-26T10:05:10Z</time></trkpt><trkpt lat="43.9595896055517" lon="12.699923861151772"><ele>12.428571428571429</ele><time>2026-04-26T10:05:12Z</time></trkpt><trkpt lat="43.95963154194438" lon="12.699846367302058"><ele>12.714285714285714</ele><time>2026-04-26T10:05:14Z</time></trkpt><trkpt lat="43.959666358687386" lon="12.6997698937567"><ele>13.0</ele><time>2026-04-26T10:05:16Z</time></trkpt><trkpt lat="43.95970258453457" lon="12.699694469746456"><ele>12.999999999999998</ele><time>2026-04-26T10:05:18Z</time></trkpt><trkpt lat="43.959744504857646" lon="12.699578380258059"><ele>13.0</ele><time>2026-04-26T10:05:21Z</time></trkpt><trkpt lat="43.959717284892015" lon="12.699490161504555"><ele>13.0</ele><time>2026-04-26T10:05:23Z</time></trkpt><trkpt lat="43.95965165557494" lon="12.699418563015863"><ele>13.0</ele><time>2026-04-26T10:05:26Z</time></trkpt><trkpt lat="43.9596050760965" lon="12.699356896246071"><ele>12.999999999999998</ele><time>2026-04-26T10:05:27Z</time></trkpt><trkpt lat="43.9595434060351" lon="12.699261871378752"><ele>13.0</ele><time>2026-04-26T10:05:29Z</time></trkpt><trkpt lat="43.959501006608356" lon="12.69915193934489"><ele>13.333333333333332</ele><time>2026-04-26T10:05:31Z</time></trkpt><trkpt lat="43.95944006602961" lon="12.699114123148592"><ele>13.666666666666666</ele><time>2026-04-26T10:05:35Z</time></trkpt><trkpt lat="43.95940015746387" lon="12.699009298947388"><ele>14.0</ele><time>2026-04-26T10:05:39Z</time></trkpt><trkpt lat="43.95937983666995" lon="12.698917335869817"><ele>14.333333333333332</ele><time>2026-04-26T10:05:42Z</time></trkpt><trkpt lat="43.95937278484354" lon="12.698826110341134"><ele>14.666666666666666</ele><time>2026-04-26T10:05:45Z</time></trkpt><trkpt lat="43.95939017222502" lon="12.698720924124686"><ele>15.0</ele><time>2026-04-26T10:05:48Z</time></trkpt><trkpt lat="43.959439475240444" lon="12.698623151502291"><ele>14.833333333333334</ele><time>2026-04-26T10:05:51Z</time></trkpt><trkpt lat="43.95949477387703" lon="12.698520081859227"><ele>14.666666666666668</ele><time>2026-04-26T10:05:54Z</time></trkpt><trkpt lat="43.95953691755771" lon="12.698448947390897"><ele>14.5</ele><time>2026-04-26T10:05:56Z</time></trkpt><trkpt lat="43.959581179302134" lon="12.698374596165879"><ele>14.333333333333334</ele><time>2026-04-26T10:05:58Z</time></trkpt><trkpt lat="43.959631943227556" lon="12.698304094454224"><ele>14.166666666666668</ele><time>2026-04-26T10:06:00Z</time></trkpt><trkpt lat="43.95967851602004" lon="12.69821338344224"><ele>14.0</ele><time>2026-04-26T10:06:02Z</time></trkpt><trkpt lat="43.95972997321725" lon="12.698140475048207"><ele>14.000000000000002</ele><time>2026-04-26T10:06:04Z</time></trkpt><trkpt lat="43.959783744762944" lon="12.698048193011793"><ele>14.0</ele><time>2026-04-26T10:06:06Z</time></trkpt><trkpt lat="43.959836572268884" lon="12.697960982491"><ele>14.0</ele><time>2026-04-26T10:06:08Z</time></trkpt><trkpt lat="43.95988533076075" lon="12.69787113352036"><ele>14.0</ele><time>2026-04-26T10:06:10Z</time></trkpt><trkpt lat="43.95994111455124" lon="12.697786164587752"><ele>14.000000000000002</ele><time>2026-04-26T10:06:12Z</time></trkpt><trkpt lat="43.95999081908838" lon="12.697693668889848"><ele>14.0</ele><time>2026-04-26T10:06:14Z</time></trkpt><trkpt lat="43.960045839282564" lon="12.697606272149747"><ele>14.000000000000002</ele><time>2026-04-26T10:06:16Z</time></trkpt><trkpt lat="43.96009721124399" lon="12.69751772269922"><ele>14.0</ele><time>2026-04-26T10:06:18Z</time></trkpt><trkpt lat="43.96015630004431" lon="12.697435005890604"><ele>14.0</ele><time>2026-04-26T10:06:20Z</time></trkpt><trkpt lat="43.96021321782813" lon="12.69733740440607"><ele>14.0</ele><time>2026-04-26T10:06:22Z</time></trkpt><trkpt lat="43.96025703805267" lon="12.697242064455205"><ele>14.000000000000002</ele><time>2026-04-26T10:06:24Z</time></trkpt><trkpt lat="43.96026446364126" lon="12.697123905418195"><ele>14.0</ele><time>2026-04-26T10:06:26Z</time></trkpt><trkpt lat="43.960263105536804" lon="12.69699485029747"><ele>14.166666666666668</ele><time>2026-04-26T10:06:28Z</time></trkpt><trkpt lat="43.960294449039445" lon="12.69688471040032"><ele>14.333333333333334</ele><time>2026-04-26T10:06:30Z</time></trkpt><trkpt lat="43.96033572532426" lon="12.69678273089774"><ele>14.5</ele><time>2026-04-26T10:06:32Z</time></trkpt><trkpt lat="43.96038399851749" lon="12.696691407934926"><ele>14.666666666666668</ele><time>2026-04-26T10:06:34Z</time></trkpt><trkpt lat="43.960432008112605" lon="12.696598900692859"><ele>14.833333333333334</ele><time>2026-04-26T10:06:36Z</time></trkpt><trkpt lat="43.9604491898976" lon="12.696490184502427"><ele>15.0</ele><time>2026-04-26T10:06:38Z</time></trkpt><trkpt lat="43.960409315415994" lon="12.696391588131657"><ele>15.0</ele><time>2026-04-26T10:06:40Z</time></trkpt><trkpt lat="43.96035718091717" lon="12.696301268022323"><ele>15.0</ele><time>2026-04-26T10:06:42Z</time></trkpt><trkpt lat="43.96030378650253" lon="12.69621195917045"><ele>15.0</ele><time>2026-04-26T10:06:44Z</time></trkpt><trkpt lat="43.960244291244734" lon="12.696126651261109"><ele>15.0</ele><time>2026-04-26T10:06:46Z</time></trkpt><trkpt lat="43.96019054196923" lon="12.696027708647586"><ele>15.0</ele><time>2026-04-26T10:06:48Z</time></trkpt><trkpt lat="43.960128710383174" lon="12.695931970123706"><ele>15.0</ele><time>2026-04-26T10:06:50Z</time></trkpt><trkpt lat="43.96006304529502" lon="12.695832019847348"><ele>14.8</ele><time>2026-04-26T10:06:52Z</time></trkpt><trkpt lat="43.95999040542569" lon="12.695728865479618"><ele>14.6</ele><time>2026-04-26T10:06:54Z</time></trkpt><trkpt lat="43.95991872398569" lon="12.695614635243125"><ele>14.399999999999999</ele><time>2026-04-26T10:06:56Z</time></trkpt><trkpt lat="43.95990269796517" lon="12.695456724314358"><ele>14.2</ele><time>2026-04-26T10:06:58Z</time></trkpt><trkpt lat="43.959923735540755" lon="12.695291384140567"><ele>14.0</ele><time>2026-04-26T10:07:00Z</time></trkpt><trkpt lat="43.95997349288068" lon="12.69514985714096"><ele>14.0</ele><time>2026-04-26T10:07:02Z</time></trkpt><trkpt lat="43.9600141820232" lon="12.695021878465774"><ele>13.999999999999998</ele><time>2026-04-26T10:07:04Z</time></trkpt><trkpt lat="43.96004774574287" lon="12.69488568500944"><ele>13.999999999999998</ele><time>2026-04-26T10:07:06Z</time></trkpt><trkpt lat="43.96008613869266" lon="12.694761278968874"><ele>14.0</ele><time>2026-04-26T10:07:08Z</time></trkpt><trkpt lat="43.96012982019321" lon="12.694629845568771"><ele>14.0</ele><time>2026-04-26T10:07:10Z</time></trkpt><trkpt lat="43.96017607739747" lon="12.694506378906816"><ele>14.799999999999999</ele><time>2026-04-26T10:07:12Z</time></trkpt><trkpt lat="43.96023232439035" lon="12.694379544847779"><ele>15.599999999999998</ele><time>2026-04-26T10:07:14Z</time></trkpt><trkpt lat="43.96028938228461" lon="12.694265699318654"><ele>16.4</ele><time>2026-04-26T10:07:16Z</time></trkpt><trkpt lat="43.96035360021878" lon="12.694152247048029"><ele>17.2</ele><time>2026-04-26T10:07:18Z</time></trkpt><trkpt lat="43.96042899873761" lon="12.694055675813486"><ele>18.0</ele><time>2026-04-26T10:07:20Z</time></trkpt><trkpt lat="43.96051386833241" lon="12.693961307119684"><ele>18.0</ele><time>2026-04-26T10:07:22Z</time></trkpt><trkpt lat="43.96060267231585" lon="12.69387243615742"><ele>18.0</ele><time>2026-04-26T10:07:24Z</time></trkpt><trkpt lat="43.96069935073233" lon="12.693812681710275"><ele>18.0</ele><time>2026-04-26T10:07:26Z</time></trkpt><trkpt lat="43.9608036687673" lon="12.6937797804188"><ele>18.0</ele><time>2026-04-26T10:07:28Z</time></trkpt><trkpt lat="43.960911825888736" lon="12.693769325647215"><ele>18.0</ele><time>2026-04-26T10:07:30Z</time></trkpt><trkpt lat="43.961020644840076" lon="12.69375770585025"><ele>18.4</ele><time>2026-04-26T10:07:32Z</time></trkpt><trkpt lat="43.96112674745901" lon="12.693737871349535"><ele>18.8</ele><time>2026-04-26T10:07:34Z</time></trkpt><trkpt lat="43.9612296640387" lon="12.69374193240094"><ele>19.2</ele><time>2026-04-26T10:07:36Z</time></trkpt><trkpt lat="43.9613325635936" lon="12.693742126861935"><ele>19.6</ele><time>2026-04-26T10:07:38Z</time></trkpt><trkpt lat="43.961443745624074" lon="12.69374134437188"><ele>20.0</ele><time>2026-04-26T10:07:40Z</time></trkpt><trkpt lat="43.96154975564743" lon="12.693744791208761"><ele>20.0</ele><time>2026-04-26T10:07:42Z</time></trkpt><trkpt lat="43.96165700678921" lon="12.69375141672644"><ele>20.0</ele><time>2026-04-26T10:07:44Z</time></trkpt><trkpt lat="43.961768208248124" lon="12.693751933115768"><ele>20.0</ele><time>2026-04-26T10:07:46Z</time></trkpt><trkpt lat="43.9618736983339" lon="12.69371992484883"><ele>20.0</ele><time>2026-04-26T10:07:48Z</time></trkpt><trkpt lat="43.961975891280844" lon="12.693675671880538"><ele>20.0</ele><time>2026-04-26T10:07:50Z</time></trkpt><trkpt lat="43.96205600821036" lon="12.693578357241103"><ele>19.4</ele><time>2026-04-26T10:07:52Z</time></trkpt><trkpt lat="43.96213427022715" lon="12.693475471184897"><ele>18.8</ele><time>2026-04-26T10:07:54Z</time></trkpt><trkpt lat="43.96221325060462" lon="12.693369370943229"><ele>18.2</ele><time>2026-04-26T10:07:56Z</time></trkpt><trkpt lat="43.9622945198451" lon="12.693271458337946"><ele>17.6</ele><time>2026-04-26T10:07:58Z</time></trkpt><trkpt lat="43.96237344839343" lon="12.693165708893716"><ele>17.0</ele><time>2026-04-26T10:08:00Z</time></trkpt><trkpt lat="43.96244980373426" lon="12.693059888459796"><ele>17.0</ele><time>2026-04-26T10:08:02Z</time></trkpt><trkpt lat="43.962521998354966" lon="12.692947393222282"><ele>17.0</ele><time>2026-04-26T10:08:04Z</time></trkpt><trkpt lat="43.96256967150738" lon="12.692810103508002"><ele>17.0</ele><time>2026-04-26T10:08:06Z</time></trkpt><trkpt lat="43.962606871906615" lon="12.692658256236056"><ele>17.0</ele><time>2026-04-26T10:08:08Z</time></trkpt><trkpt lat="43.962603263916726" lon="12.692494877627249"><ele>17.25</ele><time>2026-04-26T10:08:10Z</time></trkpt><trkpt lat="43.9625502836494" lon="12.692349333993295"><ele>17.5</ele><time>2026-04-26T10:08:12Z</time></trkpt><trkpt lat="43.9624727931611" lon="12.69223421647166"><ele>17.75</ele><time>2026-04-26T10:08:14Z</time></trkpt><trkpt lat="43.96237518166267" lon="12.692144329116898"><ele>18.0</ele><time>2026-04-26T10:08:16Z</time></trkpt><trkpt lat="43.962270042656215" lon="12.692073476884756"><ele>17.6</ele><time>2026-04-26T10:08:18Z</time></trkpt><trkpt lat="43.96216675772312" lon="12.692027797805352"><ele>17.200000000000003</ele><time>2026-04-26T10:08:20Z</time></trkpt><trkpt lat="43.962061659592834" lon="12.691970097654314"><ele>16.8</ele><time>2026-04-26T10:08:22Z</time></trkpt><trkpt lat="43.96195652580487" lon="12.691934385811113"><ele>16.400000000000002</ele><time>2026-04-26T10:08:24Z</time></trkpt><trkpt lat="43.96185264088945" lon="12.69189552289056"><ele>16.0</ele><time>2026-04-26T10:08:26Z</time></trkpt><trkpt lat="43.96173930735881" lon="12.691884048701413"><ele>17.0</ele><time>2026-04-26T10:08:28Z</time></trkpt><trkpt lat="43.961628553393325" lon="12.691881397523307"><ele>18.0</ele><time>2026-04-26T10:08:30Z</time></trkpt><trkpt lat="43.96151898816922" lon="12.691903187986167"><ele>19.0</ele><time>2026-04-26T10:08:32Z</time></trkpt><trkpt lat="43.961404947946214" lon="12.691903203857906"><ele>20.0</ele><time>2026-04-26T10:08:34Z</time></trkpt><trkpt lat="43.9612885168467" lon="12.691912423756607"><ele>20.0</ele><time>2026-04-26T10:08:36Z</time></trkpt><trkpt lat="43.961210593396565" lon="12.69166729463414"><ele>20.0</ele><time>2026-04-26T10:08:37Z</time></trkpt><trkpt lat="43.961102640496684" lon="12.691669564870201"><ele>20.0</ele><time>2026-04-26T10:08:40Z</time></trkpt><trkpt lat="43.96100567898283" lon="12.691628037315127"><ele>20.0</ele><time>2026-04-26T10:08:42Z</time></trkpt><trkpt lat="43.9609715241315" lon="12.691549574692853"><ele>20.0</ele><time>2026-04-26T10:08:44Z</time></trkpt><trkpt lat="43.96091179394529" lon="12.691430140947"><ele>20.0</ele><time>2026-04-26T10:08:47Z</time></trkpt><trkpt lat="43.96084280574527" lon="12.691346335085402"><ele>20.0</ele><time>2026-04-26T10:08:49Z</time></trkpt><trkpt lat="43.96077277050422" lon="12.691261257331034"><ele>20.0</ele><time>2026-04-26T10:08:51Z</time></trkpt><trkpt lat="43.96069692821472" lon="12.691191837215133"><ele>20.0</ele><time>2026-04-26T10:08:53Z</time></trkpt><trkpt lat="43.96060951521798" lon="12.691139673127285"><ele>19.0</ele><time>2026-04-26T10:08:55Z</time></trkpt><trkpt lat="43.96021348180061" lon="12.691672296201926"><ele>19.0</ele><time>2026-04-26T10:08:56Z</time></trkpt><trkpt lat="43.96010094042716" lon="12.691661134260897"><ele>19.0</ele><time>2026-04-26T10:08:58Z</time></trkpt><trkpt lat="43.959990508650755" lon="12.691675242408987"><ele>19.0</ele><time>2026-04-26T10:09:00Z</time></trkpt><trkpt lat="43.95987833537993" lon="12.691692678696628"><ele>19.0</ele><time>2026-04-26T10:09:02Z</time></trkpt><trkpt lat="43.95976877619385" lon="12.691711525173138"><ele>19.0</ele><time>2026-04-26T10:09:04Z</time></trkpt><trkpt lat="43.959655845330964" lon="12.69172349391468"><ele>18.8</ele><time>2026-04-26T10:09:06Z</time></trkpt><trkpt lat="43.95954557340421" lon="12.691741032774909"><ele>18.599999999999998</ele><time>2026-04-26T10:09:08Z</time></trkpt><trkpt lat="43.95943524287255" lon="12.69176237640725"><ele>18.4</ele><time>2026-04-26T10:09:10Z</time></trkpt><trkpt lat="43.95933271832985" lon="12.691773236210347"><ele>18.2</ele><time>2026-04-26T10:09:12Z</time></trkpt><trkpt lat="43.95922980910565" lon="12.6917891185766"><ele>18.0</ele><time>2026-04-26T10:09:14Z</time></trkpt><trkpt lat="43.95912729007669" lon="12.691815839301398"><ele>18.8</ele><time>2026-04-26T10:09:16Z</time></trkpt><trkpt lat="43.95902520518579" lon="12.691834903816295"><ele>19.6</ele><time>2026-04-26T10:09:18Z</time></trkpt><trkpt lat="43.95892108226677" lon="12.691847245735927"><ele>20.400000000000002</ele><time>2026-04-26T10:09:20Z</time></trkpt><trkpt lat="43.95882358496133" lon="12.691867915391027"><ele>21.200000000000003</ele><time>2026-04-26T10:09:22Z</time></trkpt><trkpt lat="43.958729906676766" lon="12.691910797091484"><ele>22.0</ele><time>2026-04-26T10:09:24Z</time></trkpt><trkpt lat="43.95866866002753" lon="12.692010596727481"><ele>20.400000000000002</ele><time>2026-04-26T10:09:26Z</time></trkpt><trkpt lat="43.95858667256009" lon="12.692108772216564"><ele>18.8</ele><time>2026-04-26T10:09:28Z</time></trkpt><trkpt lat="43.95857945279266" lon="12.692263195901566"><ele>17.2</ele><time>2026-04-26T10:09:30Z</time></trkpt><trkpt lat="43.9585787501058" lon="12.69240915314376"><ele>15.6</ele><time>2026-04-26T10:09:32Z</time></trkpt><trkpt lat="43.95858678534615" lon="12.69255706540179"><ele>14.0</ele><time>2026-04-26T10:09:34Z</time></trkpt><trkpt lat="43.958597789439864" lon="12.692693952351355"><ele>13.6</ele><time>2026-04-26T10:09:36Z</time></trkpt><trkpt lat="43.958608104871885" lon="12.692828916298467"><ele>13.2</ele><time>2026-04-26T10:09:38Z</time></trkpt><trkpt lat="43.95861798449722" lon="12.692958176183097"><ele>12.799999999999999</ele><time>2026-04-26T10:09:40Z</time></trkpt><trkpt lat="43.958627835305535" lon="12.693087059046057"><ele>12.399999999999999</ele><time>2026-04-26T10:09:41.999Z</time></trkpt><trkpt lat="43.95863630657889" lon="12.69321496020285"><ele>12.0</ele><time>2026-04-26T10:09:43.999Z</time></trkpt><trkpt lat="43.95861856371492" lon="12.693343105384184"><ele>12.0</ele><time>2026-04-26T10:09:45.999Z</time></trkpt><trkpt lat="43.95860047309563" lon="12.693477307643207"><ele>12.0</ele><time>2026-04-26T10:09:47.999Z</time></trkpt><trkpt lat="43.95858820191611" lon="12.693614871889203"><ele>12.0</ele><time>2026-04-26T10:09:49.999Z</time></trkpt><trkpt lat="43.95856279886058" lon="12.693752289268327"><ele>12.0</ele><time>2026-04-26T10:09:51.999Z</time></trkpt><trkpt lat="43.95855456817908" lon="12.693891216209748"><ele>12.0</ele><time>2026-04-26T10:09:53.999Z</time></trkpt><trkpt lat="43.958526030127196" lon="12.69402340212472"><ele>11.8</ele><time>2026-04-26T10:09:55.999Z</time></trkpt><trkpt lat="43.95843818886658" lon="12.69410111773134"><ele>11.6</ele><time>2026-04-26T10:09:58Z</time></trkpt><trkpt lat="43.958336309076444" lon="12.69408447788528"><ele>11.4</ele><time>2026-04-26T10:10:00Z</time></trkpt><trkpt lat="43.95824248651915" lon="12.694072062724983"><ele>11.200000000000001</ele><time>2026-04-26T10:10:02Z</time></trkpt><trkpt lat="43.9581576753829" lon="12.69406934234451"><ele>11.0</ele><time>2026-04-26T10:10:04Z</time></trkpt><trkpt lat="43.95807396210408" lon="12.694076326683355"><ele>11.5</ele><time>2026-04-26T10:10:06Z</time></trkpt><trkpt lat="43.957994276038704" lon="12.694060307983136"><ele>12.0</ele><time>2026-04-26T10:10:08Z</time></trkpt><trkpt lat="43.95792228449357" lon="12.694039756983313"><ele>12.5</ele><time>2026-04-26T10:10:10Z</time></trkpt><trkpt lat="43.95784803416937" lon="12.694002531513181"><ele>13.0</ele><time>2026-04-26T10:10:12Z</time></trkpt><trkpt lat="43.95777685739886" lon="12.693948160586462"><ele>13.500000000000002</ele><time>2026-04-26T10:10:14Z</time></trkpt><trkpt lat="43.957709679551996" lon="12.693875153654929"><ele>14.0</ele><time>2026-04-26T10:10:16Z</time></trkpt><trkpt lat="43.95763776726425" lon="12.693812680819429"><ele>14.000000000000002</ele><time>2026-04-26T10:10:18Z</time></trkpt><trkpt lat="43.95756496447984" lon="12.693755575255512"><ele>14.0</ele><time>2026-04-26T10:10:20Z</time></trkpt><trkpt lat="43.957494239930945" lon="12.69368472018988"><ele>14.0</ele><time>2026-04-26T10:10:22Z</time></trkpt><trkpt lat="43.957421635872734" lon="12.69361824085097"><ele>14.0</ele><time>2026-04-26T10:10:24Z</time></trkpt><trkpt lat="43.95735024752718" lon="12.693560329344749"><ele>14.000000000000002</ele><time>2026-04-26T10:10:26Z</time></trkpt><trkpt lat="43.95728235818736" lon="12.6935015610171"><ele>14.0</ele><time>2026-04-26T10:10:28Z</time></trkpt><trkpt lat="43.957214846311665" lon="12.693442070150025"><ele>14.333333333333334</ele><time>2026-04-26T10:10:30Z</time></trkpt><trkpt lat="43.957150879707044" lon="12.693373310546463"><ele>14.666666666666668</ele><time>2026-04-26T10:10:32Z</time></trkpt><trkpt lat="43.957081981668274" lon="12.693304109367014"><ele>15.0</ele><time>2026-04-26T10:10:34Z</time></trkpt><trkpt lat="43.957009795278346" lon="12.693240858133885"><ele>15.333333333333332</ele><time>2026-04-26T10:10:36Z</time></trkpt><trkpt lat="43.95694339977953" lon="12.69317291603011"><ele>15.666666666666666</ele><time>2026-04-26T10:10:38Z</time></trkpt><trkpt lat="43.95687822061678" lon="12.69309307361901"><ele>16.0</ele><time>2026-04-26T10:10:40Z</time></trkpt><trkpt lat="43.95682093472386" lon="12.692998670538037"><ele>15.999999999999998</ele><time>2026-04-26T10:10:42Z</time></trkpt><trkpt lat="43.95679082891886" lon="12.692883675597079"><ele>16.0</ele><time>2026-04-26T10:10:44Z</time></trkpt><trkpt lat="43.9567496514142" lon="12.692776412026486"><ele>16.0</ele><time>2026-04-26T10:10:46Z</time></trkpt><trkpt lat="43.9567144611334" lon="12.692671153859427"><ele>16.0</ele><time>2026-04-26T10:10:48Z</time></trkpt><trkpt lat="43.95667676561362" lon="12.69257412269984"><ele>15.999999999999998</ele><time>2026-04-26T10:10:50Z</time></trkpt><trkpt lat="43.95664172200058" lon="12.692470223934858"><ele>16.0</ele><time>2026-04-26T10:10:52Z</time></trkpt><trkpt lat="43.956608759526695" lon="12.692370112369163"><ele>16.2</ele><time>2026-04-26T10:10:54Z</time></trkpt><trkpt lat="43.956567655948014" lon="12.692263789640283"><ele>16.400000000000002</ele><time>2026-04-26T10:10:56Z</time></trkpt><trkpt lat="43.95651727684051" lon="12.69215196839815"><ele>16.6</ele><time>2026-04-26T10:10:58Z</time></trkpt><trkpt lat="43.95645400157472" lon="12.692052512923079"><ele>16.8</ele><time>2026-04-26T10:11:00Z</time></trkpt><trkpt lat="43.95635603396431" lon="12.691972478870474"><ele>17.0</ele><time>2026-04-26T10:11:02Z</time></trkpt><trkpt lat="43.95626149838479" lon="12.691919723068334"><ele>17.0</ele><time>2026-04-26T10:11:04Z</time></trkpt><trkpt lat="43.95616166815482" lon="12.6918803792868"><ele>17.0</ele><time>2026-04-26T10:11:06Z</time></trkpt><trkpt lat="43.95608091629215" lon="12.691803547972976"><ele>17.0</ele><time>2026-04-26T10:11:08Z</time></trkpt><trkpt lat="43.95599228441868" lon="12.691757679025557"><ele>17.0</ele><time>2026-04-26T10:11:10Z</time></trkpt><trkpt lat="43.95591210795153" lon="12.69169441021564"><ele>17.0</ele><time>2026-04-26T10:11:12Z</time></trkpt><trkpt lat="43.955837986166586" lon="12.69162395854584"><ele>17.0</ele><time>2026-04-26T10:11:14Z</time></trkpt><trkpt lat="43.95576920565251" lon="12.691560817971748"><ele>17.0</ele><time>2026-04-26T10:11:16Z</time></trkpt><trkpt lat="43.955693239933474" lon="12.691459251243254"><ele>17.0</ele><time>2026-04-26T10:11:18Z</time></trkpt><trkpt lat="43.955610974335976" lon="12.6913916638636"><ele>17.0</ele><time>2026-04-26T10:11:20Z</time></trkpt><trkpt lat="43.955532453022904" lon="12.691331064467683"><ele>17.0</ele><time>2026-04-26T10:11:22Z</time></trkpt><trkpt lat="43.95544472051883" lon="12.691285085435425"><ele>17.0</ele><time>2026-04-26T10:11:24Z</time></trkpt><trkpt lat="43.9553528853595" lon="12.691220517591278"><ele>17.0</ele><time>2026-04-26T10:11:26Z</time></trkpt><trkpt lat="43.95525222875608" lon="12.691162899674213"><ele>17.0</ele><time>2026-04-26T10:11:28Z</time></trkpt><trkpt lat="43.955183828809616" lon="12.691092732759202"><ele>17.0</ele><time>2026-04-26T10:11:30Z</time></trkpt><trkpt lat="43.9551758102967" lon="12.690990276149748"><ele>17.0</ele><time>2026-04-26T10:11:32Z</time></trkpt><trkpt lat="43.9552032884315" lon="12.690904592500782"><ele>17.0</ele><time>2026-04-26T10:11:35Z</time></trkpt><trkpt lat="43.955228770718456" lon="12.690824146165184"><ele>16.999999999999996</ele><time>2026-04-26T10:11:38Z</time></trkpt><trkpt lat="43.95521601472012" lon="12.690736450754944"><ele>17.0</ele><time>2026-04-26T10:11:41Z</time></trkpt><trkpt lat="43.955166523843836" lon="12.690639584738081"><ele>17.0</ele><time>2026-04-26T10:11:45Z</time></trkpt><trkpt lat="43.95511454398038" lon="12.69058004310454"><ele>17.0</ele><time>2026-04-26T10:11:48Z</time></trkpt><trkpt lat="43.955052217052085" lon="12.690539238679703"><ele>17.0</ele><time>2026-04-26T10:11:51Z</time></trkpt><trkpt lat="43.95497709586337" lon="12.690478713106733"><ele>16.999999999999996</ele><time>2026-04-26T10:11:54Z</time></trkpt><trkpt lat="43.95494078250048" lon="12.690398605944468"><ele>17.0</ele><time>2026-04-26T10:11:56Z</time></trkpt><trkpt lat="43.95491875970194" lon="12.69030502563576"><ele>18.0</ele><time>2026-04-26T10:11:58Z</time></trkpt><trkpt lat="43.954879894315525" lon="12.690225800106141"><ele>19.0</ele><time>2026-04-26T10:12:00Z</time></trkpt><trkpt lat="43.955018854346434" lon="12.68992356382221"><ele>20.0</ele><time>2026-04-26T10:12:02Z</time></trkpt><trkpt lat="43.95497179842373" lon="12.689858251685122"><ele>21.0</ele><time>2026-04-26T10:12:05Z</time></trkpt><trkpt lat="43.95492547495861" lon="12.689780439827228"><ele>21.0</ele><time>2026-04-26T10:12:07Z</time></trkpt><trkpt lat="43.954881353514175" lon="12.689706325631482"><ele>21.0</ele><time>2026-04-26T10:12:09Z</time></trkpt><trkpt lat="43.954835016391044" lon="12.689628489741716"><ele>21.0</ele><time>2026-04-26T10:12:11Z</time></trkpt><trkpt lat="43.95477300485536" lon="12.689524327081573"><ele>21.0</ele><time>2026-04-26T10:12:14Z</time></trkpt><trkpt lat="43.954730368223046" lon="12.689452709332302"><ele>21.0</ele><time>2026-04-26T10:12:16Z</time></trkpt><trkpt lat="43.9545980273934" lon="12.68944335182649"><ele>21.0</ele><time>2026-04-26T10:12:19Z</time></trkpt><trkpt lat="43.95457588116564" lon="12.689335067910335"><ele>21.333333333333332</ele><time>2026-04-26T10:12:21Z</time></trkpt><trkpt lat="43.95455692947659" lon="12.689208066227899"><ele>21.666666666666668</ele><time>2026-04-26T10:12:23Z</time></trkpt><trkpt lat="43.954535574885874" lon="12.689081052657228"><ele>22.0</ele><time>2026-04-26T10:12:25Z</time></trkpt><trkpt lat="43.954510597893176" lon="12.688966606347327"><ele>22.333333333333336</ele><time>2026-04-26T10:12:27Z</time></trkpt><trkpt lat="43.95447379238901" lon="12.68886021591568"><ele>22.666666666666668</ele><time>2026-04-26T10:12:29Z</time></trkpt><trkpt lat="43.954430700190464" lon="12.688765084707907"><ele>23.0</ele><time>2026-04-26T10:12:31Z</time></trkpt><trkpt lat="43.95437834616973" lon="12.688691793321306"><ele>23.0</ele><time>2026-04-26T10:12:33Z</time></trkpt><trkpt lat="43.95431754244891" lon="12.688643325811032"><ele>23.0</ele><time>2026-04-26T10:12:35Z</time></trkpt><trkpt lat="43.95424814385864" lon="12.688604250995384"><ele>23.0</ele><time>2026-04-26T10:12:37Z</time></trkpt><trkpt lat="43.954171483025675" lon="12.688568901376177"><ele>23.0</ele><time>2026-04-26T10:12:39Z</time></trkpt><trkpt lat="43.95408489886855" lon="12.688563163474733"><ele>23.0</ele><time>2026-04-26T10:12:41Z</time></trkpt><trkpt lat="43.95400085577933" lon="12.688536856226918"><ele>23.0</ele><time>2026-04-26T10:12:43Z</time></trkpt><trkpt lat="43.95390931675735" lon="12.68849885606166"><ele>23.0</ele><time>2026-04-26T10:12:45Z</time></trkpt><trkpt lat="43.953829949575564" lon="12.688458724779194"><ele>23.0</ele><time>2026-04-26T10:12:47Z</time></trkpt><trkpt lat="43.95374645563952" lon="12.688468084948891"><ele>23.0</ele><time>2026-04-26T10:12:49Z</time></trkpt><trkpt lat="43.95366666578796" lon="12.688502084966476"><ele>23.0</ele><time>2026-04-26T10:12:51Z</time></trkpt><trkpt lat="43.953585159910524" lon="12.688538286985514"><ele>23.0</ele><time>2026-04-26T10:12:53Z</time></trkpt><trkpt lat="43.95349909731168" lon="12.688564419052575"><ele>23.0</ele><time>2026-04-26T10:12:55Z</time></trkpt><trkpt lat="43.953408477725944" lon="12.688575200496823"><ele>22.799999999999997</ele><time>2026-04-26T10:12:57Z</time></trkpt><trkpt lat="43.953331704779764" lon="12.68857685554327"><ele>22.6</ele><time>2026-04-26T10:12:59Z</time></trkpt><trkpt lat="43.953237188626595" lon="12.688610759607627"><ele>22.4</ele><time>2026-04-26T10:13:01Z</time></trkpt><trkpt lat="43.9531485102767" lon="12.688646910082468"><ele>22.200000000000003</ele><time>2026-04-26T10:13:03Z</time></trkpt><trkpt lat="43.953023679556765" lon="12.688676644662229"><ele>22.0</ele><time>2026-04-26T10:13:05Z</time></trkpt><trkpt lat="43.95296261055144" lon="12.688708055316381"><ele>20.833333333333332</ele><time>2026-04-26T10:13:06Z</time></trkpt><trkpt lat="43.95290063414631" lon="12.688737991362188"><ele>19.666666666666664</ele><time>2026-04-26T10:13:07Z</time></trkpt><trkpt lat="43.95283767365884" lon="12.688767046849934"><ele>18.5</ele><time>2026-04-26T10:13:08Z</time></trkpt><trkpt lat="43.95273330678773" lon="12.688833660609992"><ele>17.333333333333332</ele><time>2026-04-26T10:13:10Z</time></trkpt><trkpt lat="43.95267022473829" lon="12.688879056594748"><ele>16.166666666666668</ele><time>2026-04-26T10:13:11Z</time></trkpt><trkpt lat="43.95260869690998" lon="12.688919211863878"><ele>15.0</ele><time>2026-04-26T10:13:12Z</time></trkpt><trkpt lat="43.95254703161736" lon="12.688962079679007"><ele>15.2</ele><time>2026-04-26T10:13:13Z</time></trkpt><trkpt lat="43.952437228938805" lon="12.68902971268646"><ele>15.4</ele><time>2026-04-26T10:13:15Z</time></trkpt><trkpt lat="43.95238638295489" lon="12.68909344426849"><ele>15.600000000000001</ele><time>2026-04-26T10:13:16Z</time></trkpt><trkpt lat="43.95230215806457" lon="12.689220798747177"><ele>15.8</ele><time>2026-04-26T10:13:18Z</time></trkpt><trkpt lat="43.952216699912704" lon="12.689340909923422"><ele>16.0</ele><time>2026-04-26T10:13:20Z</time></trkpt><trkpt lat="43.95212143439056" lon="12.689438461958899"><ele>15.8</ele><time>2026-04-26T10:13:22Z</time></trkpt><trkpt lat="43.952018753764165" lon="12.689508635951151"><ele>15.600000000000001</ele><time>2026-04-26T10:13:24Z</time></trkpt><trkpt lat="43.951912903956085" lon="12.68953615356612"><ele>15.4</ele><time>2026-04-26T10:13:26Z</time></trkpt><trkpt lat="43.95180875904554" lon="12.689556141873068"><ele>15.2</ele><time>2026-04-26T10:13:28Z</time></trkpt><trkpt lat="43.951706941251636" lon="12.689552408172437"><ele>15.0</ele><time>2026-04-26T10:13:30Z</time></trkpt><trkpt lat="43.95160901080215" lon="12.689532311968087"><ele>15.0</ele><time>2026-04-26T10:13:32Z</time></trkpt><trkpt lat="43.9515216826169" lon="12.689523573915668"><ele>15.0</ele><time>2026-04-26T10:13:34Z</time></trkpt><trkpt lat="43.95143023954261" lon="12.689504052049983"><ele>15.0</ele><time>2026-04-26T10:13:36Z</time></trkpt><trkpt lat="43.95133336310014" lon="12.68950013769575"><ele>15.0</ele><time>2026-04-26T10:13:38Z</time></trkpt><trkpt lat="43.95123180407668" lon="12.689470936788325"><ele>15.0</ele><time>2026-04-26T10:13:40Z</time></trkpt><trkpt lat="43.95113650628773" lon="12.68943642949963"><ele>15.0</ele><time>2026-04-26T10:13:42Z</time></trkpt><trkpt lat="43.951044718975325" lon="12.689369893866296"><ele>15.0</ele><time>2026-04-26T10:13:44Z</time></trkpt><trkpt lat="43.95095613020932" lon="12.689293056095334"><ele>15.0</ele><time>2026-04-26T10:13:46Z</time></trkpt><trkpt lat="43.950872892298925" lon="12.689223234264164"><ele>15.0</ele><time>2026-04-26T10:13:48Z</time></trkpt><trkpt lat="43.950807664237765" lon="12.689120418696188"><ele>15.0</ele><time>2026-04-26T10:13:50Z</time></trkpt><trkpt lat="43.950735777228374" lon="12.689024967305393"><ele>15.6</ele><time>2026-04-26T10:13:52Z</time></trkpt><trkpt lat="43.95066914260569" lon="12.688920941318507"><ele>16.2</ele><time>2026-04-26T10:13:54Z</time></trkpt><trkpt lat="43.95060707677503" lon="12.688806423207227"><ele>16.8</ele><time>2026-04-26T10:13:56Z</time></trkpt><trkpt lat="43.950548180570244" lon="12.688699202489838"><ele>17.4</ele><time>2026-04-26T10:13:58Z</time></trkpt><trkpt lat="43.95049329201051" lon="12.688588861528933"><ele>18.0</ele><time>2026-04-26T10:14:00Z</time></trkpt><trkpt lat="43.950447040401706" lon="12.688476416284589"><ele>18.5</ele><time>2026-04-26T10:14:02Z</time></trkpt><trkpt lat="43.95040107743492" lon="12.688366933986142"><ele>19.0</ele><time>2026-04-26T10:14:04Z</time></trkpt><trkpt lat="43.95035762665639" lon="12.688261402269656"><ele>19.5</ele><time>2026-04-26T10:14:06Z</time></trkpt><trkpt lat="43.95031619051129" lon="12.688152984586235"><ele>20.0</ele><time>2026-04-26T10:14:08Z</time></trkpt><trkpt lat="43.95027276529959" lon="12.688049185192654"><ele>20.5</ele><time>2026-04-26T10:14:10Z</time></trkpt><trkpt lat="43.95022890419969" lon="12.687942869842486"><ele>21.0</ele><time>2026-04-26T10:14:12Z</time></trkpt><trkpt lat="43.95017959166259" lon="12.687828794583469"><ele>21.200000000000003</ele><time>2026-04-26T10:14:14Z</time></trkpt><trkpt lat="43.950167429507175" lon="12.687703740435929"><ele>21.400000000000002</ele><time>2026-04-26T10:14:16Z</time></trkpt><trkpt lat="43.950136272943446" lon="12.687588637144607"><ele>21.6</ele><time>2026-04-26T10:14:18Z</time></trkpt><trkpt lat="43.95010007745124" lon="12.687473735417552"><ele>21.8</ele><time>2026-04-26T10:14:20Z</time></trkpt><trkpt lat="43.95006737917011" lon="12.68735240609002"><ele>22.0</ele><time>2026-04-26T10:14:22Z</time></trkpt><trkpt lat="43.95002659365187" lon="12.687220230408677"><ele>21.6</ele><time>2026-04-26T10:14:24Z</time></trkpt><trkpt lat="43.949988227360805" lon="12.687072549883366"><ele>21.200000000000003</ele><time>2026-04-26T10:14:26Z</time></trkpt><trkpt lat="43.94998945508673" lon="12.686902630014725"><ele>20.8</ele><time>2026-04-26T10:14:28Z</time></trkpt><trkpt lat="43.950013537211255" lon="12.686771612095201"><ele>20.4</ele><time>2026-04-26T10:14:30Z</time></trkpt><trkpt lat="43.950024034382686" lon="12.686666679296064"><ele>20.0</ele><time>2026-04-26T10:14:32Z</time></trkpt><trkpt lat="43.950030234660275" lon="12.686554311751575"><ele>19.857142857142858</ele><time>2026-04-26T10:14:35Z</time></trkpt><trkpt lat="43.95003615202841" lon="12.68646114057371"><ele>19.714285714285715</ele><time>2026-04-26T10:14:38Z</time></trkpt><trkpt lat="43.95005062609664" lon="12.686346460613269"><ele>19.57142857142857</ele><time>2026-04-26T10:14:42Z</time></trkpt><trkpt lat="43.950066741337366" lon="12.686261560964256"><ele>19.42857142857143</ele><time>2026-04-26T10:14:45Z</time></trkpt><trkpt lat="43.9501023881373" lon="12.686179217230302"><ele>19.28571428571429</ele><time>2026-04-26T10:14:48Z</time></trkpt><trkpt lat="43.95012742617584" lon="12.686083389383901"><ele>19.142857142857142</ele><time>2026-04-26T10:14:52Z</time></trkpt><trkpt lat="43.95009685826859" lon="12.685978710924951"><ele>19.0</ele><time>2026-04-26T10:14:56Z</time></trkpt><trkpt lat="43.95006206705023" lon="12.685886041253191"><ele>20.0</ele><time>2026-04-26T10:15:00Z</time></trkpt><trkpt lat="43.95006383777115" lon="12.685783767912989"><ele>21.0</ele><time>2026-04-26T10:15:03Z</time></trkpt><trkpt lat="43.95007733438869" lon="12.685677744316111"><ele>22.0</ele><time>2026-04-26T10:15:06Z</time></trkpt><trkpt lat="43.950095901493874" lon="12.685568405186906"><ele>23.0</ele><time>2026-04-26T10:15:09Z</time></trkpt><trkpt lat="43.95012480959903" lon="12.68545568299681"><ele>24.000000000000004</ele><time>2026-04-26T10:15:12Z</time></trkpt><trkpt lat="43.95014684705821" lon="12.68534610965992"><ele>25.0</ele><time>2026-04-26T10:15:15Z</time></trkpt><trkpt lat="43.950166899590705" lon="12.685230321141816"><ele>25.000000000000004</ele><time>2026-04-26T10:15:18Z</time></trkpt><trkpt lat="43.950181931289706" lon="12.685117214268782"><ele>25.0</ele><time>2026-04-26T10:15:21Z</time></trkpt><trkpt lat="43.950181107183205" lon="12.684994252012082"><ele>25.0</ele><time>2026-04-26T10:15:24Z</time></trkpt><trkpt lat="43.95017591168965" lon="12.684904154177751"><ele>25.0</ele><time>2026-04-26T10:15:26Z</time></trkpt><trkpt lat="43.95016270928844" lon="12.684812023120278"><ele>25.000000000000004</ele><time>2026-04-26T10:15:28Z</time></trkpt><trkpt lat="43.95015392566499" lon="12.684711157727277"><ele>25.0</ele><time>2026-04-26T10:15:30Z</time></trkpt><trkpt lat="43.95014241032778" lon="12.6845995971424"><ele>25.0</ele><time>2026-04-26T10:15:32Z</time></trkpt><trkpt lat="43.95012555809976" lon="12.684484880747675"><ele>25.0</ele><time>2026-04-26T10:15:34Z</time></trkpt><trkpt lat="43.95011336472938" lon="12.684357859662196"><ele>25.0</ele><time>2026-04-26T10:15:36Z</time></trkpt><trkpt lat="43.950100860048785" lon="12.68422143950299"><ele>25.0</ele><time>2026-04-26T10:15:38Z</time></trkpt><trkpt lat="43.950077840059244" lon="12.684074779015226"><ele>25.0</ele><time>2026-04-26T10:15:40Z</time></trkpt><trkpt lat="43.95005888071237" lon="12.683923173666432"><ele>24.6</ele><time>2026-04-26T10:15:42Z</time></trkpt><trkpt lat="43.950030652817354" lon="12.683771607127806"><ele>24.2</ele><time>2026-04-26T10:15:44Z</time></trkpt><trkpt lat="43.94997811268063" lon="12.683630463298648"><ele>23.799999999999997</ele><time>2026-04-26T10:15:46Z</time></trkpt><trkpt lat="43.94990994590319" lon="12.683502374873944"><ele>23.4</ele><time>2026-04-26T10:15:48Z</time></trkpt><trkpt lat="43.949851282643834" lon="12.683387085503199"><ele>23.0</ele><time>2026-04-26T10:15:50Z</time></trkpt><trkpt lat="43.94981660463469" lon="12.683254998587227"><ele>23.0</ele><time>2026-04-26T10:15:52Z</time></trkpt><trkpt lat="43.949776290909504" lon="12.68312723112863"><ele>23.0</ele><time>2026-04-26T10:15:54Z</time></trkpt><trkpt lat="43.94973386534575" lon="12.682982364587103"><ele>23.0</ele><time>2026-04-26T10:15:56Z</time></trkpt><trkpt lat="43.949696150074196" lon="12.682838404554584"><ele>23.0</ele><time>2026-04-26T10:15:58Z</time></trkpt><trkpt lat="43.94964536234578" lon="12.682719314701925"><ele>23.0</ele><time>2026-04-26T10:16:00Z</time></trkpt><trkpt lat="43.94958089594126" lon="12.682611872545484"><ele>23.2</ele><time>2026-04-26T10:16:02Z</time></trkpt><trkpt lat="43.949515735578366" lon="12.68251062871019"><ele>23.4</ele><time>2026-04-26T10:16:04Z</time></trkpt><trkpt lat="43.949447266846526" lon="12.682420461941803"><ele>23.599999999999998</ele><time>2026-04-26T10:16:06Z</time></trkpt><trkpt lat="43.94937093966047" lon="12.682313428865495"><ele>23.799999999999997</ele><time>2026-04-26T10:16:08Z</time></trkpt><trkpt lat="43.94929756543099" lon="12.68220597288278"><ele>24.0</ele><time>2026-04-26T10:16:10Z</time></trkpt><trkpt lat="43.94922135215217" lon="12.682092500116184"><ele>23.799999999999997</ele><time>2026-04-26T10:16:12Z</time></trkpt><trkpt lat="43.94915534153953" lon="12.681971110486664"><ele>23.599999999999998</ele><time>2026-04-26T10:16:14Z</time></trkpt><trkpt lat="43.949085210531756" lon="12.681856480150067"><ele>23.4</ele><time>2026-04-26T10:16:16Z</time></trkpt><trkpt lat="43.94902847074801" lon="12.681728135828234"><ele>23.2</ele><time>2026-04-26T10:16:18Z</time></trkpt><trkpt lat="43.94896338740503" lon="12.68161394013172"><ele>23.0</ele><time>2026-04-26T10:16:20Z</time></trkpt><trkpt lat="43.94890241903185" lon="12.681500249348314"><ele>23.0</ele><time>2026-04-26T10:16:22Z</time></trkpt><trkpt lat="43.948828961909335" lon="12.681391507570313"><ele>23.0</ele><time>2026-04-26T10:16:24Z</time></trkpt><trkpt lat="43.948725855043406" lon="12.681350721170357"><ele>23.0</ele><time>2026-04-26T10:16:26Z</time></trkpt><trkpt lat="43.948632501335844" lon="12.681289752043527"><ele>23.0</ele><time>2026-04-26T10:16:28Z</time></trkpt><trkpt lat="43.948600442203265" lon="12.681152805342505"><ele>23.0</ele><time>2026-04-26T10:16:30Z</time></trkpt><trkpt lat="43.94857792022655" lon="12.681045765024967"><ele>23.166666666666668</ele><time>2026-04-26T10:16:32Z</time></trkpt><trkpt lat="43.948516918627185" lon="12.680936720042363"><ele>23.333333333333336</ele><time>2026-04-26T10:16:34Z</time></trkpt><trkpt lat="43.9484340571374" lon="12.68087001315041"><ele>23.5</ele><time>2026-04-26T10:16:36Z</time></trkpt><trkpt lat="43.94834630771575" lon="12.680841791567499"><ele>23.666666666666668</ele><time>2026-04-26T10:16:38Z</time></trkpt><trkpt lat="43.94827777982432" lon="12.680822494704415"><ele>23.833333333333332</ele><time>2026-04-26T10:16:40Z</time></trkpt><trkpt lat="43.94819970659309" lon="12.680773713468067"><ele>24.0</ele><time>2026-04-26T10:16:43Z</time></trkpt><trkpt lat="43.9481344672343" lon="12.680741499439403"><ele>24.142857142857142</ele><time>2026-04-26T10:16:45Z</time></trkpt><trkpt lat="43.94806505560027" lon="12.680709416854778"><ele>24.285714285714285</ele><time>2026-04-26T10:16:47Z</time></trkpt><trkpt lat="43.948000243983735" lon="12.680671145129944"><ele>24.42857142857143</ele><time>2026-04-26T10:16:49Z</time></trkpt><trkpt lat="43.947939056458175" lon="12.680628872125396"><ele>24.57142857142857</ele><time>2026-04-26T10:16:51Z</time></trkpt><trkpt lat="43.94788387602603" lon="12.680577614520208"><ele>24.714285714285715</ele><time>2026-04-26T10:16:53Z</time></trkpt><trkpt lat="43.9478197054112" lon="12.680550975773723"><ele>24.857142857142858</ele><time>2026-04-26T10:16:55Z</time></trkpt><trkpt lat="43.94775328805604" lon="12.680574042441615"><ele>25.0</ele><time>2026-04-26T10:16:57Z</time></trkpt><trkpt lat="43.94768149392498" lon="12.680634271935368"><ele>25.0</ele><time>2026-04-26T10:16:59Z</time></trkpt><trkpt lat="43.94760914731075" lon="12.680687064352488"><ele>25.0</ele><time>2026-04-26T10:17:01Z</time></trkpt><trkpt lat="43.94750873359352" lon="12.680734988255741"><ele>25.0</ele><time>2026-04-26T10:17:03Z</time></trkpt><trkpt lat="43.94742844828546" lon="12.680781233448464"><ele>25.0</ele><time>2026-04-26T10:17:05Z</time></trkpt><trkpt lat="43.947338497295625" lon="12.680808678956868"><ele>25.0</ele><time>2026-04-26T10:17:07Z</time></trkpt><trkpt lat="43.94725517886632" lon="12.68081730630284"><ele>25.000000000000004</ele><time>2026-04-26T10:17:09Z</time></trkpt><trkpt lat="43.94715752433182" lon="12.680813245936909"><ele>25.0</ele><time>2026-04-26T10:17:12Z</time></trkpt><trkpt lat="43.94708426866233" lon="12.680807909220125"><ele>25.0</ele><time>2026-04-26T10:17:14Z</time></trkpt><trkpt lat="43.94700657923573" lon="12.68079108857333"><ele>25.0</ele><time>2026-04-26T10:17:16Z</time></trkpt><trkpt lat="43.94691486833347" lon="12.680765309148251"><ele>25.000000000000004</ele><time>2026-04-26T10:17:19Z</time></trkpt><trkpt lat="43.94684341039805" lon="12.68075356321172"><ele>25.0</ele><time>2026-04-26T10:17:21Z</time></trkpt><trkpt lat="43.94676765899511" lon="12.680750641347556"><ele>24.833333333333336</ele><time>2026-04-26T10:17:23Z</time></trkpt><trkpt lat="43.946700006511605" lon="12.680710624255664"><ele>24.666666666666668</ele><time>2026-04-26T10:17:25Z</time></trkpt><trkpt lat="43.94664975765765" lon="12.680652330598145"><ele>24.5</ele><time>2026-04-26T10:17:27Z</time></trkpt><trkpt lat="43.94657196624991" lon="12.680577190888828"><ele>24.333333333333336</ele><time>2026-04-26T10:17:30Z</time></trkpt><trkpt lat="43.94648711530781" lon="12.680551055178002"><ele>24.166666666666668</ele><time>2026-04-26T10:17:33Z</time></trkpt><trkpt lat="43.94640546440963" lon="12.680546456100453"><ele>24.0</ele><time>2026-04-26T10:17:35Z</time></trkpt><trkpt lat="43.94632544049235" lon="12.68048818468569"><ele>24.0</ele><time>2026-04-26T10:17:38Z</time></trkpt><trkpt lat="43.94628112390935" lon="12.68042255215163"><ele>24.0</ele><time>2026-04-26T10:17:40Z</time></trkpt><trkpt lat="43.94620858473901" lon="12.680369810861855"><ele>24.0</ele><time>2026-04-26T10:17:43Z</time></trkpt><trkpt lat="43.9461248223915" lon="12.680330875749506"><ele>24.0</ele><time>2026-04-26T10:17:46Z</time></trkpt><trkpt lat="43.94605080806794" lon="12.680312412321223"><ele>24.0</ele><time>2026-04-26T10:17:48Z</time></trkpt><trkpt lat="43.946006312875994" lon="12.680236957424938"><ele>24.0</ele><time>2026-04-26T10:17:50Z</time></trkpt><trkpt lat="43.945976462888396" lon="12.680150221028603"><ele>24.333333333333332</ele><time>2026-04-26T10:17:52Z</time></trkpt><trkpt lat="43.94591804810066" lon="12.680087966913948"><ele>24.666666666666664</ele><time>2026-04-26T10:17:54Z</time></trkpt><trkpt lat="43.945857780342315" lon="12.679988665425915"><ele>25.0</ele><time>2026-04-26T10:17:57Z</time></trkpt><trkpt lat="43.945789415163325" lon="12.679906451416183"><ele>25.333333333333332</ele><time>2026-04-26T10:18:00Z</time></trkpt><trkpt lat="43.94572042427753" lon="12.67982498939611"><ele>25.666666666666664</ele><time>2026-04-26T10:18:03Z</time></trkpt><trkpt lat="43.94567050721544" lon="12.679768114788608"><ele>26.0</ele><time>2026-04-26T10:18:05Z</time></trkpt><trkpt lat="43.945620427168635" lon="12.679704919097382"><ele>26.0</ele><time>2026-04-26T10:18:07Z</time></trkpt><trkpt lat="43.945574586329684" lon="12.679635526896064"><ele>26.0</ele><time>2026-04-26T10:18:09Z</time></trkpt><trkpt lat="43.94553240333476" lon="12.679568771879598"><ele>26.0</ele><time>2026-04-26T10:18:11Z</time></trkpt><trkpt lat="43.945496710195755" lon="12.679495114785244"><ele>26.0</ele><time>2026-04-26T10:18:13Z</time></trkpt><trkpt lat="43.94547476964808" lon="12.679406431545802"><ele>26.0</ele><time>2026-04-26T10:18:15Z</time></trkpt><trkpt lat="43.94545188683581" lon="12.67928357829254"><ele>26.0</ele><time>2026-04-26T10:18:18Z</time></trkpt><trkpt lat="43.94544070328139" lon="12.679164794232165"><ele>26.0</ele><time>2026-04-26T10:18:21Z</time></trkpt><trkpt lat="43.945427611273146" lon="12.679072326614074"><ele>26.428571428571427</ele><time>2026-04-26T10:18:24Z</time></trkpt><trkpt lat="43.945373705284986" lon="12.678986855360913"><ele>26.85714285714286</ele><time>2026-04-26T10:18:28Z</time></trkpt><trkpt lat="43.94533693446852" lon="12.67891292936563"><ele>27.28571428571429</ele><time>2026-04-26T10:18:31Z</time></trkpt><trkpt lat="43.945266046311694" lon="12.678887046490408"><ele>27.714285714285715</ele><time>2026-04-26T10:18:35Z</time></trkpt><trkpt lat="43.94519818441154" lon="12.678855305214599"><ele>28.142857142857146</ele><time>2026-04-26T10:18:39Z</time></trkpt><trkpt lat="43.94513907759004" lon="12.678823833883119"><ele>28.571428571428577</ele><time>2026-04-26T10:18:42Z</time></trkpt><trkpt lat="43.945070116487116" lon="12.678784516949078"><ele>29.000000000000004</ele><time>2026-04-26T10:18:45Z</time></trkpt><trkpt lat="43.94499925425671" lon="12.678741495870414"><ele>28.999999999999996</ele><time>2026-04-26T10:18:48Z</time></trkpt><trkpt lat="43.94493357468849" lon="12.678698221530034"><ele>29.0</ele><time>2026-04-26T10:18:51Z</time></trkpt><trkpt lat="43.94486889284725" lon="12.678648482538506"><ele>29.0</ele><time>2026-04-26T10:18:54Z</time></trkpt><trkpt lat="43.94479199459344" lon="12.678591651470926"><ele>29.0</ele><time>2026-04-26T10:18:57Z</time></trkpt><trkpt lat="43.944730238496994" lon="12.678557108848242"><ele>28.999999999999996</ele><time>2026-04-26T10:18:59Z</time></trkpt><trkpt lat="43.94464566036195" lon="12.678511402376456"><ele>29.0</ele><time>2026-04-26T10:19:02Z</time></trkpt><trkpt lat="43.944571485087934" lon="12.678510755569356"><ele>28.999999999999996</ele><time>2026-04-26T10:19:04Z</time></trkpt><trkpt lat="43.944483859917874" lon="12.678532082806344"><ele>29.0</ele><time>2026-04-26T10:19:07Z</time></trkpt><trkpt lat="43.94439896947092" lon="12.678586762540487"><ele>29.0</ele><time>2026-04-26T10:19:10Z</time></trkpt><trkpt lat="43.94434142182675" lon="12.678638180034298"><ele>29.0</ele><time>2026-04-26T10:19:12Z</time></trkpt><trkpt lat="43.94428495200105" lon="12.678693549356316"><ele>28.999999999999996</ele><time>2026-04-26T10:19:14Z</time></trkpt><trkpt lat="43.94421928309214" lon="12.678748237520917"><ele>29.0</ele><time>2026-04-26T10:19:16Z</time></trkpt><trkpt lat="43.9441462789888" lon="12.678801934205197"><ele>29.0</ele><time>2026-04-26T10:19:18Z</time></trkpt><trkpt lat="43.94406887774573" lon="12.678853102786283"><ele>29.0</ele><time>2026-04-26T10:19:20Z</time></trkpt><trkpt lat="43.94398863472449" lon="12.678902073468889"><ele>29.0</ele><time>2026-04-26T10:19:22Z</time></trkpt><trkpt lat="43.94390466887902" lon="12.678951366035898"><ele>29.0</ele><time>2026-04-26T10:19:24Z</time></trkpt><trkpt lat="43.94381759336236" lon="12.679000441436864"><ele>29.0</ele><time>2026-04-26T10:19:26Z</time></trkpt><trkpt lat="43.94372559123277" lon="12.679052293464409"><ele>29.0</ele><time>2026-04-26T10:19:28Z</time></trkpt><trkpt lat="43.94363425801005" lon="12.679103768489064"><ele>29.0</ele><time>2026-04-26T10:19:30Z</time></trkpt><trkpt lat="43.94354179952474" lon="12.67915587772602"><ele>29.0</ele><time>2026-04-26T10:19:32Z</time></trkpt><trkpt lat="43.94344595257244" lon="12.67920620656603"><ele>29.0</ele><time>2026-04-26T10:19:34Z</time></trkpt><trkpt lat="43.943350020802896" lon="12.679248342694034"><ele>29.0</ele><time>2026-04-26T10:19:36Z</time></trkpt><trkpt lat="43.94326262586198" lon="12.679321495580266"><ele>29.0</ele><time>2026-04-26T10:19:38Z</time></trkpt><trkpt lat="43.94316074298381" lon="12.679357813030759"><ele>29.0</ele><time>2026-04-26T10:19:40Z</time></trkpt><trkpt lat="43.94306388877372" lon="12.679386749514517"><ele>29.0</ele><time>2026-04-26T10:19:42Z</time></trkpt><trkpt lat="43.9429655415698" lon="12.67941082808795"><ele>29.0</ele><time>2026-04-26T10:19:44Z</time></trkpt><trkpt lat="43.94287291757687" lon="12.679435145992183"><ele>29.0</ele><time>2026-04-26T10:19:46Z</time></trkpt><trkpt lat="43.94277797873364" lon="12.679434037718323"><ele>28.999999999999996</ele><time>2026-04-26T10:19:48Z</time></trkpt><trkpt lat="43.94269216081967" lon="12.679464697287141"><ele>29.0</ele><time>2026-04-26T10:19:50Z</time></trkpt><trkpt lat="43.94261800958178" lon="12.679540014438013"><ele>29.0</ele><time>2026-04-26T10:19:52Z</time></trkpt><trkpt lat="43.94253280089995" lon="12.679579954445419"><ele>29.0</ele><time>2026-04-26T10:19:54Z</time></trkpt><trkpt lat="43.94247374701537" lon="12.679661787465452"><ele>28.999999999999996</ele><time>2026-04-26T10:19:56Z</time></trkpt><trkpt lat="43.94239673692644" lon="12.679722343277064"><ele>29.0</ele><time>2026-04-26T10:19:58Z</time></trkpt><trkpt lat="43.9423204938453" lon="12.679781987186313"><ele>29.2</ele><time>2026-04-26T10:20:00Z</time></trkpt><trkpt lat="43.94223723630926" lon="12.679824037522659"><ele>29.4</ele><time>2026-04-26T10:20:02Z</time></trkpt><trkpt lat="43.94215632816636" lon="12.679877444461319"><ele>29.6</ele><time>2026-04-26T10:20:04Z</time></trkpt><trkpt lat="43.94207647020668" lon="12.679932988642348"><ele>29.8</ele><time>2026-04-26T10:20:06Z</time></trkpt><trkpt lat="43.941991579909434" lon="12.679983127022403"><ele>30.0</ele><time>2026-04-26T10:20:08Z</time></trkpt><trkpt lat="43.941895361809564" lon="12.67999685482025"><ele>30.0</ele><time>2026-04-26T10:20:10Z</time></trkpt><trkpt lat="43.9418092616809" lon="12.68003769698586"><ele>30.0</ele><time>2026-04-26T10:20:12Z</time></trkpt><trkpt lat="43.94172079905704" lon="12.680076638380314"><ele>30.0</ele><time>2026-04-26T10:20:14Z</time></trkpt><trkpt lat="43.94163558865708" lon="12.680127815584413"><ele>30.0</ele><time>2026-04-26T10:20:16Z</time></trkpt><trkpt lat="43.94153783475843" lon="12.680155507447335"><ele>30.0</ele><time>2026-04-26T10:20:18Z</time></trkpt><trkpt lat="43.94144910092659" lon="12.680191980099229"><ele>30.166666666666668</ele><time>2026-04-26T10:20:20Z</time></trkpt><trkpt lat="43.94135896971478" lon="12.680211749205716"><ele>30.333333333333336</ele><time>2026-04-26T10:20:22Z</time></trkpt><trkpt lat="43.941272491367066" lon="12.680236767060434"><ele>30.5</ele><time>2026-04-26T10:20:24Z</time></trkpt><trkpt lat="43.94118299774853" lon="12.68024689057765"><ele>30.666666666666668</ele><time>2026-04-26T10:20:26Z</time></trkpt><trkpt lat="43.941097546972145" lon="12.680287897063371"><ele>30.833333333333336</ele><time>2026-04-26T10:20:28Z</time></trkpt><trkpt lat="43.94101942323982" lon="12.680339713579514"><ele>31.0</ele><time>2026-04-26T10:20:30Z</time></trkpt><trkpt lat="43.9410683511967" lon="12.680599004162993"><ele>30.6</ele><time>2026-04-26T10:20:33Z</time></trkpt><trkpt lat="43.94105444062877" lon="12.680724817310832"><ele>30.200000000000003</ele><time>2026-04-26T10:20:35Z</time></trkpt><trkpt lat="43.94104557514231" lon="12.680861494152575"><ele>29.799999999999997</ele><time>2026-04-26T10:20:37Z</time></trkpt><trkpt lat="43.94103886616622" lon="12.681001467722737"><ele>29.4</ele><time>2026-04-26T10:20:39Z</time></trkpt><trkpt lat="43.94103360841821" lon="12.681143330895372"><ele>29.0</ele><time>2026-04-26T10:20:41Z</time></trkpt><trkpt lat="43.941029611966066" lon="12.681285114249222"><ele>29.2</ele><time>2026-04-26T10:20:43Z</time></trkpt><trkpt lat="43.941025096571565" lon="12.681420994101888"><ele>29.4</ele><time>2026-04-26T10:20:45Z</time></trkpt><trkpt lat="43.94099558520993" lon="12.681552381448205"><ele>29.6</ele><time>2026-04-26T10:20:47Z</time></trkpt><trkpt lat="43.94091931339745" lon="12.68163264017179"><ele>29.8</ele><time>2026-04-26T10:20:49Z</time></trkpt><trkpt lat="43.9408250485699" lon="12.681668527997644"><ele>30.0</ele><time>2026-04-26T10:20:51Z</time></trkpt><trkpt lat="43.94073637137805" lon="12.681720835754732"><ele>30.0</ele><time>2026-04-26T10:20:53Z</time></trkpt><trkpt lat="43.94065112965569" lon="12.6817709972316"><ele>30.0</ele><time>2026-04-26T10:20:55Z</time></trkpt><trkpt lat="43.940564729868974" lon="12.681812727249802"><ele>30.0</ele><time>2026-04-26T10:20:56.999Z</time></trkpt><trkpt lat="43.94048749876233" lon="12.681847950170997"><ele>30.0</ele><time>2026-04-26T10:20:58.999Z</time></trkpt><trkpt lat="43.9404142524811" lon="12.681875784790412"><ele>30.0</ele><time>2026-04-26T10:21:00.999Z</time></trkpt><trkpt lat="43.940344065825855" lon="12.68189808671019"><ele>30.0</ele><time>2026-04-26T10:21:02.999Z</time></trkpt><trkpt lat="43.940269179809256" lon="12.681927633983541"><ele>29.833333333333332</ele><time>2026-04-26T10:21:04.999Z</time></trkpt><trkpt lat="43.94018850988544" lon="12.681952581911919"><ele>29.666666666666664</ele><time>2026-04-26T10:21:06.999Z</time></trkpt><trkpt lat="43.940107560362364" lon="12.681973517228565"><ele>29.5</ele><time>2026-04-26T10:21:08.999Z</time></trkpt><trkpt lat="43.94002366729594" lon="12.682009931744364"><ele>29.333333333333332</ele><time>2026-04-26T10:21:10.999Z</time></trkpt><trkpt lat="43.93994070698339" lon="12.68204796313676"><ele>29.166666666666664</ele><time>2026-04-26T10:21:12.999Z</time></trkpt><trkpt lat="43.93985515010191" lon="12.682087733480786"><ele>29.0</ele><time>2026-04-26T10:21:14.999Z</time></trkpt><trkpt lat="43.93977360073597" lon="12.68212527638123"><ele>28.999999999999996</ele><time>2026-04-26T10:21:16.999Z</time></trkpt><trkpt lat="43.93968579555226" lon="12.682153023428617"><ele>29.0</ele><time>2026-04-26T10:21:18.999Z</time></trkpt><trkpt lat="43.93960192159019" lon="12.682186795942487"><ele>29.0</ele><time>2026-04-26T10:21:20.999Z</time></trkpt><trkpt lat="43.93951838618616" lon="12.682220301348188"><ele>29.0</ele><time>2026-04-26T10:21:22.999Z</time></trkpt><trkpt lat="43.9394285038492" lon="12.68222232170684"><ele>28.999999999999996</ele><time>2026-04-26T10:21:24.999Z</time></trkpt><trkpt lat="43.93933849743478" lon="12.682205436041894"><ele>29.0</ele><time>2026-04-26T10:21:26.999Z</time></trkpt><trkpt lat="43.939244420813274" lon="12.6821954446465"><ele>28.833333333333332</ele><time>2026-04-26T10:21:28.999Z</time></trkpt><trkpt lat="43.93915520713641" lon="12.682181677529062"><ele>28.666666666666664</ele><time>2026-04-26T10:21:30.999Z</time></trkpt><trkpt lat="43.93906702523766" lon="12.682168259474906"><ele>28.5</ele><time>2026-04-26T10:21:32.999Z</time></trkpt><trkpt lat="43.938980146700416" lon="12.682148540158202"><ele>28.333333333333336</ele><time>2026-04-26T10:21:34.999Z</time></trkpt><trkpt lat="43.93889483891484" lon="12.682145590266899"><ele>28.166666666666668</ele><time>2026-04-26T10:21:36.999Z</time></trkpt><trkpt lat="43.93881008307343" lon="12.682128551339208"><ele>28.0</ele><time>2026-04-26T10:21:38.999Z</time></trkpt><trkpt lat="43.93872407147639" lon="12.682105482667872"><ele>28.000000000000004</ele><time>2026-04-26T10:21:40.999Z</time></trkpt><trkpt lat="43.938633885697534" lon="12.682082361810883"><ele>28.0</ele><time>2026-04-26T10:21:42.999Z</time></trkpt><trkpt lat="43.938543062016194" lon="12.682060450031189"><ele>28.0</ele><time>2026-04-26T10:21:44.999Z</time></trkpt><trkpt lat="43.938454809388915" lon="12.68202927681277"><ele>28.0</ele><time>2026-04-26T10:21:46.999Z</time></trkpt><trkpt lat="43.93837187612757" lon="12.682003368401002"><ele>28.000000000000004</ele><time>2026-04-26T10:21:48.999Z</time></trkpt><trkpt lat="43.93829612101374" lon="12.681984548570277"><ele>28.0</ele><time>2026-04-26T10:21:50.999Z</time></trkpt><trkpt lat="43.938212210138595" lon="12.681956697627987"><ele>28.666666666666668</ele><time>2026-04-26T10:21:52.999Z</time></trkpt><trkpt lat="43.938123673713484" lon="12.68192940628083"><ele>29.333333333333336</ele><time>2026-04-26T10:21:54.999Z</time></trkpt><trkpt lat="43.938041579543864" lon="12.68190682196964"><ele>30.0</ele><time>2026-04-26T10:21:56.999Z</time></trkpt><trkpt lat="43.93796514279269" lon="12.681887087499573"><ele>30.666666666666664</ele><time>2026-04-26T10:21:58.999Z</time></trkpt><trkpt lat="43.93789009479538" lon="12.68186853450739"><ele>31.333333333333332</ele><time>2026-04-26T10:22:00.999Z</time></trkpt><trkpt lat="43.937813551843504" lon="12.681842945770123"><ele>32.0</ele><time>2026-04-26T10:22:02.999Z</time></trkpt><trkpt lat="43.93773278615164" lon="12.681819954689272"><ele>31.999999999999996</ele><time>2026-04-26T10:22:04.999Z</time></trkpt><trkpt lat="43.937654702666705" lon="12.681800010017982"><ele>32.0</ele><time>2026-04-26T10:22:06.999Z</time></trkpt><trkpt lat="43.93757348159415" lon="12.681773371261462"><ele>32.0</ele><time>2026-04-26T10:22:08.999Z</time></trkpt><trkpt lat="43.937496963597155" lon="12.68175417508616"><ele>32.0</ele><time>2026-04-26T10:22:10.999Z</time></trkpt><trkpt lat="43.937413807169804" lon="12.68173276837674"><ele>31.999999999999996</ele><time>2026-04-26T10:22:12.999Z</time></trkpt><trkpt lat="43.93733218400598" lon="12.681712213865099"><ele>32.0</ele><time>2026-04-26T10:22:14.999Z</time></trkpt><trkpt lat="43.937246547132744" lon="12.681694359031415"><ele>31.999999999999996</ele><time>2026-04-26T10:22:16.999Z</time></trkpt><trkpt lat="43.93716094887267" lon="12.681665683436306"><ele>32.0</ele><time>2026-04-26T10:22:18.999Z</time></trkpt><trkpt lat="43.93707106253563" lon="12.681623336795397"><ele>32.0</ele><time>2026-04-26T10:22:20.999Z</time></trkpt><trkpt lat="43.93698627251274" lon="12.681581780252685"><ele>32.0</ele><time>2026-04-26T10:22:22.999Z</time></trkpt><trkpt lat="43.93690127403676" lon="12.681555521007846"><ele>31.999999999999996</ele><time>2026-04-26T10:22:24.999Z</time></trkpt><trkpt lat="43.93681495706136" lon="12.681531425205343"><ele>32.0</ele><time>2026-04-26T10:22:26.999Z</time></trkpt><trkpt lat="43.93672515339516" lon="12.68149932670206"><ele>32.2</ele><time>2026-04-26T10:22:28.999Z</time></trkpt><trkpt lat="43.9366324596749" lon="12.681474748520628"><ele>32.400000000000006</ele><time>2026-04-26T10:22:30.999Z</time></trkpt><trkpt lat="43.93654039976636" lon="12.68146122236087"><ele>32.599999999999994</ele><time>2026-04-26T10:22:32.999Z</time></trkpt><trkpt lat="43.9364549064474" lon="12.681425070266307"><ele>32.8</ele><time>2026-04-26T10:22:34.999Z</time></trkpt><trkpt lat="43.93636871034647" lon="12.681397096828004"><ele>33.0</ele><time>2026-04-26T10:22:36.999Z</time></trkpt><trkpt lat="43.936279834485745" lon="12.681371969494776"><ele>33.0</ele><time>2026-04-26T10:22:38.999Z</time></trkpt><trkpt lat="43.93619360900328" lon="12.681341597716024"><ele>33.0</ele><time>2026-04-26T10:22:40.999Z</time></trkpt><trkpt lat="43.93610152122367" lon="12.681320989739302"><ele>33.0</ele><time>2026-04-26T10:22:42.999Z</time></trkpt><trkpt lat="43.93602600543008" lon="12.681291564328651"><ele>33.0</ele><time>2026-04-26T10:22:44.999Z</time></trkpt><trkpt lat="43.93594932864024" lon="12.681270889144049"><ele>33.0</ele><time>2026-04-26T10:22:46.999Z</time></trkpt><trkpt lat="43.935880248027765" lon="12.681245913021204"><ele>33.0</ele><time>2026-04-26T10:22:48.999Z</time></trkpt><trkpt lat="43.935801471742806" lon="12.68121042845929"><ele>33.0</ele><time>2026-04-26T10:22:51.999Z</time></trkpt><trkpt lat="43.935737908897536" lon="12.68116369066997"><ele>33.0</ele><time>2026-04-26T10:22:54.999Z</time></trkpt><trkpt lat="43.93567176185378" lon="12.6810963287231"><ele>33.0</ele><time>2026-04-26T10:22:57.999Z</time></trkpt><trkpt lat="43.935616660696105" lon="12.681050951493127"><ele>33.0</ele><time>2026-04-26T10:22:59.999Z</time></trkpt><trkpt lat="43.935556335489395" lon="12.680999053022148"><ele>33.0</ele><time>2026-04-26T10:23:01.999Z</time></trkpt><trkpt lat="43.935473933495516" lon="12.680987633689371"><ele>33.0</ele><time>2026-04-26T10:23:03.999Z</time></trkpt><trkpt lat="43.93538972164526" lon="12.68100496100616"><ele>33.166666666666664</ele><time>2026-04-26T10:23:05.999Z</time></trkpt><trkpt lat="43.935306191150204" lon="12.68102423576769"><ele>33.333333333333336</ele><time>2026-04-26T10:23:07.999Z</time></trkpt><trkpt lat="43.935220347787876" lon="12.681024764900231"><ele>33.5</ele><time>2026-04-26T10:23:09.999Z</time></trkpt><trkpt lat="43.93514281751119" lon="12.681028530523488"><ele>33.66666666666667</ele><time>2026-04-26T10:23:11.999Z</time></trkpt><trkpt lat="43.935060079795754" lon="12.681023293671027"><ele>33.833333333333336</ele><time>2026-04-26T10:23:13.999Z</time></trkpt><trkpt lat="43.93497712424471" lon="12.680993774392844"><ele>34.0</ele><time>2026-04-26T10:23:15.999Z</time></trkpt><trkpt lat="43.9348887596584" lon="12.6809795773149"><ele>34.0</ele><time>2026-04-26T10:23:17.999Z</time></trkpt><trkpt lat="43.934810992185184" lon="12.68095353422779"><ele>34.0</ele><time>2026-04-26T10:23:19.999Z</time></trkpt><trkpt lat="43.93472584653487" lon="12.68092501415999"><ele>34.0</ele><time>2026-04-26T10:23:21.999Z</time></trkpt><trkpt lat="43.934647307694995" lon="12.680887279056169"><ele>34.0</ele><time>2026-04-26T10:23:23.999Z</time></trkpt><trkpt lat="43.93459129718848" lon="12.680797042320824"><ele>34.0</ele><time>2026-04-26T10:23:25.999Z</time></trkpt><trkpt lat="43.93458012863454" lon="12.680665170025968"><ele>34.0</ele><time>2026-04-26T10:23:27.999Z</time></trkpt><trkpt lat="43.934536686592786" lon="12.680553834543515"><ele>34.0</ele><time>2026-04-26T10:23:29.999Z</time></trkpt><trkpt lat="43.93447409671446" lon="12.680455072890362"><ele>34.0</ele><time>2026-04-26T10:23:31.999Z</time></trkpt><trkpt lat="43.93441033898424" lon="12.680356486614938"><ele>34.0</ele><time>2026-04-26T10:23:33.999Z</time></trkpt><trkpt lat="43.9343517029092" lon="12.680260316629353"><ele>34.0</ele><time>2026-04-26T10:23:35.999Z</time></trkpt><trkpt lat="43.9342940986858" lon="12.680157559064716"><ele>34.0</ele><time>2026-04-26T10:23:37.999Z</time></trkpt><trkpt lat="43.93424103432203" lon="12.6800678760194"><ele>33.833333333333336</ele><time>2026-04-26T10:23:39.999Z</time></trkpt><trkpt lat="43.934185660315805" lon="12.679970021806394"><ele>33.66666666666667</ele><time>2026-04-26T10:23:41.999Z</time></trkpt><trkpt lat="43.93413255671039" lon="12.679883527311777"><ele>33.5</ele><time>2026-04-26T10:23:43.999Z</time></trkpt><trkpt lat="43.93406095765373" lon="12.679812976472792"><ele>33.333333333333336</ele><time>2026-04-26T10:23:45.999Z</time></trkpt><trkpt lat="43.93398046359192" lon="12.679784833955095"><ele>33.166666666666664</ele><time>2026-04-26T10:23:47.999Z</time></trkpt><trkpt lat="43.93390340970012" lon="12.679763181288436"><ele>33.0</ele><time>2026-04-26T10:23:49.999Z</time></trkpt><trkpt lat="43.93385525594147" lon="12.679654847792008"><ele>33.0</ele><time>2026-04-26T10:23:51.999Z</time></trkpt><trkpt lat="43.933827054208564" lon="12.679538058281791"><ele>33.0</ele><time>2026-04-26T10:23:53.999Z</time></trkpt><trkpt lat="43.93380567303478" lon="12.6794216258679"><ele>33.0</ele><time>2026-04-26T10:23:55.999Z</time></trkpt><trkpt lat="43.93376950887801" lon="12.67932035323761"><ele>33.0</ele><time>2026-04-26T10:23:57.999Z</time></trkpt><trkpt lat="43.93373908347485" lon="12.679216403759067"><ele>33.0</ele><time>2026-04-26T10:23:59.999Z</time></trkpt><trkpt lat="43.93370561815528" lon="12.679114924863569"><ele>33.0</ele><time>2026-04-26T10:24:01.999Z</time></trkpt><trkpt lat="43.933671214460446" lon="12.67900689975977"><ele>33.166666666666664</ele><time>2026-04-26T10:24:03.999Z</time></trkpt><trkpt lat="43.93363484150143" lon="12.678907667033954"><ele>33.333333333333336</ele><time>2026-04-26T10:24:05.999Z</time></trkpt><trkpt lat="43.93359782990542" lon="12.678811683175866"><ele>33.5</ele><time>2026-04-26T10:24:07.999Z</time></trkpt><trkpt lat="43.933566297737556" lon="12.678709375338778"><ele>33.66666666666667</ele><time>2026-04-26T10:24:09.999Z</time></trkpt><trkpt lat="43.93353008403757" lon="12.678612232404527"><ele>33.833333333333336</ele><time>2026-04-26T10:24:11.999Z</time></trkpt><trkpt lat="43.933486084219496" lon="12.678523296203014"><ele>34.0</ele><time>2026-04-26T10:24:13.999Z</time></trkpt><trkpt lat="43.9334277184505" lon="12.678445656326046"><ele>34.5</ele><time>2026-04-26T10:24:15.999Z</time></trkpt><trkpt lat="43.93335838079609" lon="12.678388883274955"><ele>35.0</ele><time>2026-04-26T10:24:17.999Z</time></trkpt><trkpt lat="43.9332778267391" lon="12.67835692630384"><ele>35.5</ele><time>2026-04-26T10:24:19.999Z</time></trkpt><trkpt lat="43.93319544641576" lon="12.678336436711273"><ele>36.0</ele><time>2026-04-26T10:24:21.999Z</time></trkpt><trkpt lat="43.93311495727321" lon="12.678310393311142"><ele>36.5</ele><time>2026-04-26T10:24:23.999Z</time></trkpt><trkpt lat="43.93303691788056" lon="12.67824581180345"><ele>37.0</ele><time>2026-04-26T10:24:25.999Z</time></trkpt><trkpt lat="43.9329770797886" lon="12.678156744450856"><ele>37.0</ele><time>2026-04-26T10:24:27.999Z</time></trkpt><trkpt lat="43.93292013766937" lon="12.678063448877246"><ele>37.0</ele><time>2026-04-26T10:24:29.999Z</time></trkpt><trkpt lat="43.932866232222885" lon="12.677969531918261"><ele>37.0</ele><time>2026-04-26T10:24:31.999Z</time></trkpt><trkpt lat="43.93279939870863" lon="12.677887796550262"><ele>37.0</ele><time>2026-04-26T10:24:33.999Z</time></trkpt><trkpt lat="43.93272786316868" lon="12.677818399493832"><ele>37.0</ele><time>2026-04-26T10:24:35.999Z</time></trkpt><trkpt lat="43.93266358209205" lon="12.677750203693355"><ele>37.0</ele><time>2026-04-26T10:24:37.999Z</time></trkpt><trkpt lat="43.9325978085408" lon="12.677690389869548"><ele>37.0</ele><time>2026-04-26T10:24:39.999Z</time></trkpt><trkpt lat="43.93253237334982" lon="12.677635405127209"><ele>37.0</ele><time>2026-04-26T10:24:41.999Z</time></trkpt><trkpt lat="43.93247525311384" lon="12.677576835902977"><ele>37.0</ele><time>2026-04-26T10:24:43.999Z</time></trkpt><trkpt lat="43.932424437292276" lon="12.677502759214194"><ele>37.0</ele><time>2026-04-26T10:24:45.999Z</time></trkpt><trkpt lat="43.932370103651785" lon="12.677426526168754"><ele>37.0</ele><time>2026-04-26T10:24:47.999Z</time></trkpt><trkpt lat="43.93231285558926" lon="12.677360437679893"><ele>37.0</ele><time>2026-04-26T10:24:50Z</time></trkpt><trkpt lat="43.932239922328996" lon="12.677369812232813"><ele>37.0</ele><time>2026-04-26T10:24:52Z</time></trkpt><trkpt lat="43.93218505872801" lon="12.677307384725804"><ele>37.0</ele><time>2026-04-26T10:24:54Z</time></trkpt><trkpt lat="43.93219956018695" lon="12.677192837296554"><ele>37.0</ele><time>2026-04-26T10:24:56Z</time></trkpt><trkpt lat="43.93224654395751" lon="12.677123914062095"><ele>37.0</ele><time>2026-04-26T10:24:58Z</time></trkpt><trkpt lat="43.932268327927005" lon="12.677016773543665"><ele>37.0</ele><time>2026-04-26T10:25:01Z</time></trkpt><trkpt lat="43.932167516423235" lon="12.677024337000663"><ele>37.0</ele><time>2026-04-26T10:25:07Z</time></trkpt><trkpt lat="43.93212748457551" lon="12.676955929620735"><ele>37.0</ele><time>2026-04-26T10:25:10Z</time></trkpt><trkpt lat="43.93205524113937" lon="12.676930570902263"><ele>37.16666666666667</ele><time>2026-04-26T10:25:13Z</time></trkpt><trkpt lat="43.931965737470804" lon="12.676917861805553"><ele>37.333333333333336</ele><time>2026-04-26T10:25:16Z</time></trkpt><trkpt lat="43.9318804950547" lon="12.676891709709007"><ele>37.5</ele><time>2026-04-26T10:25:19Z</time></trkpt><trkpt lat="43.931794363630914" lon="12.676846873881807"><ele>37.666666666666664</ele><time>2026-04-26T10:25:22Z</time></trkpt><trkpt lat="43.93173713573234" lon="12.676800484199179"><ele>37.83333333333333</ele><time>2026-04-26T10:25:24Z</time></trkpt><trkpt lat="43.9316813179485" lon="12.67674651973268"><ele>38.0</ele><time>2026-04-26T10:25:26Z</time></trkpt><trkpt lat="43.931625188065965" lon="12.676681255757858"><ele>38.14285714285714</ele><time>2026-04-26T10:25:28Z</time></trkpt><trkpt lat="43.93156886357759" lon="12.676617982008658"><ele>38.28571428571429</ele><time>2026-04-26T10:25:30Z</time></trkpt><trkpt lat="43.93151415853574" lon="12.67655309831446"><ele>38.42857142857143</ele><time>2026-04-26T10:25:32Z</time></trkpt><trkpt lat="43.93145963938661" lon="12.676480923028564"><ele>38.57142857142857</ele><time>2026-04-26T10:25:34Z</time></trkpt><trkpt lat="43.931404086538485" lon="12.676414466784161"><ele>38.71428571428571</ele><time>2026-04-26T10:25:36Z</time></trkpt><trkpt lat="43.93135804085572" lon="12.676337253560055"><ele>38.85714285714286</ele><time>2026-04-26T10:25:38Z</time></trkpt><trkpt lat="43.9312974520871" lon="12.676283878961577"><ele>39.0</ele><time>2026-04-26T10:25:40Z</time></trkpt><trkpt lat="43.93123424414264" lon="12.67622981905535"><ele>39.0</ele><time>2026-04-26T10:25:42Z</time></trkpt><trkpt lat="43.93115738105798" lon="12.676203233276457"><ele>39.0</ele><time>2026-04-26T10:25:44Z</time></trkpt><trkpt lat="43.93106332738219" lon="12.676141123916791"><ele>39.0</ele><time>2026-04-26T10:25:46Z</time></trkpt><trkpt lat="43.930986799198045" lon="12.676052514265233"><ele>39.0</ele><time>2026-04-26T10:25:48Z</time></trkpt><trkpt lat="43.93091052839332" lon="12.675983805773484"><ele>39.0</ele><time>2026-04-26T10:25:50Z</time></trkpt><trkpt lat="43.93082978629651" lon="12.675910362358275"><ele>39.2</ele><time>2026-04-26T10:25:52Z</time></trkpt><trkpt lat="43.93073869536653" lon="12.675838774289858"><ele>39.4</ele><time>2026-04-26T10:25:54Z</time></trkpt><trkpt lat="43.93065792055719" lon="12.675749503624047"><ele>39.6</ele><time>2026-04-26T10:25:56Z</time></trkpt><trkpt lat="43.93058326885117" lon="12.67566240490596"><ele>39.8</ele><time>2026-04-26T10:25:58Z</time></trkpt><trkpt lat="43.93052752030161" lon="12.675552085458502"><ele>40.0</ele><time>2026-04-26T10:26:00Z</time></trkpt><trkpt lat="43.93048997429245" lon="12.67545162614619"><ele>40.0</ele><time>2026-04-26T10:26:02Z</time></trkpt><trkpt lat="43.93042447267625" lon="12.675355830608776"><ele>40.0</ele><time>2026-04-26T10:26:04Z</time></trkpt><trkpt lat="43.9303589307182" lon="12.67526464322616"><ele>40.0</ele><time>2026-04-26T10:26:06Z</time></trkpt><trkpt lat="43.93029051344344" lon="12.675183100170212"><ele>40.0</ele><time>2026-04-26T10:26:08Z</time></trkpt><trkpt lat="43.93024387052194" lon="12.675095751367282"><ele>40.0</ele><time>2026-04-26T10:26:10Z</time></trkpt><trkpt lat="43.93018348213331" lon="12.67502388182316"><ele>40.0</ele><time>2026-04-26T10:26:12Z</time></trkpt><trkpt lat="43.93013685954978" lon="12.674960034699318"><ele>39.857142857142854</ele><time>2026-04-26T10:26:14Z</time></trkpt><trkpt lat="43.930095695528735" lon="12.674892913277938"><ele>39.714285714285715</ele><time>2026-04-26T10:26:16Z</time></trkpt><trkpt lat="43.93004891217837" lon="12.674825754271998"><ele>39.57142857142857</ele><time>2026-04-26T10:26:18Z</time></trkpt><trkpt lat="43.93000637902412" lon="12.674731350396366"><ele>39.42857142857143</ele><time>2026-04-26T10:26:20Z</time></trkpt><trkpt lat="43.929982301231504" lon="12.674629774406629"><ele>39.285714285714285</ele><time>2026-04-26T10:26:22Z</time></trkpt><trkpt lat="43.92993335239104" lon="12.674561742253195"><ele>39.142857142857146</ele><time>2026-04-26T10:26:24Z</time></trkpt><trkpt lat="43.92987431438789" lon="12.674521278974805"><ele>39.0</ele><time>2026-04-26T10:26:26Z</time></trkpt><trkpt lat="43.929825234622506" lon="12.674446651572106"><ele>39.142857142857146</ele><time>2026-04-26T10:26:28Z</time></trkpt><trkpt lat="43.92977408702587" lon="12.674378926506565"><ele>39.285714285714285</ele><time>2026-04-26T10:26:30Z</time></trkpt><trkpt lat="43.92971647233502" lon="12.674311138447742"><ele>39.42857142857143</ele><time>2026-04-26T10:26:32Z</time></trkpt><trkpt lat="43.92965602873175" lon="12.674240528376517"><ele>39.57142857142857</ele><time>2026-04-26T10:26:34Z</time></trkpt><trkpt lat="43.92959536992524" lon="12.674186652336521"><ele>39.714285714285715</ele><time>2026-04-26T10:26:36Z</time></trkpt><trkpt lat="43.929539496202764" lon="12.67413150705355"><ele>39.857142857142854</ele><time>2026-04-26T10:26:38Z</time></trkpt><trkpt lat="43.92947555587085" lon="12.674084612326581"><ele>40.0</ele><time>2026-04-26T10:26:40Z</time></trkpt><trkpt lat="43.92940313898627" lon="12.674056177033172"><ele>40.0</ele><time>2026-04-26T10:26:42Z</time></trkpt><trkpt lat="43.9293289214295" lon="12.674030090036991"><ele>40.0</ele><time>2026-04-26T10:26:44Z</time></trkpt><trkpt lat="43.92924891173083" lon="12.674014249599178"><ele>40.0</ele><time>2026-04-26T10:26:46Z</time></trkpt><trkpt lat="43.92916868525972" lon="12.67401561521411"><ele>40.0</ele><time>2026-04-26T10:26:48Z</time></trkpt><trkpt lat="43.92908911574532" lon="12.674005705518539"><ele>40.0</ele><time>2026-04-26T10:26:50Z</time></trkpt><trkpt lat="43.92900588504273" lon="12.674006339027509"><ele>40.0</ele><time>2026-04-26T10:26:52Z</time></trkpt><trkpt lat="43.928921486729685" lon="12.674027954175969"><ele>39.8</ele><time>2026-04-26T10:26:54Z</time></trkpt><trkpt lat="43.92882993112075" lon="12.674030642344144"><ele>39.6</ele><time>2026-04-26T10:26:56Z</time></trkpt><trkpt lat="43.92873346415127" lon="12.674031248759686"><ele>39.4</ele><time>2026-04-26T10:26:58Z</time></trkpt><trkpt lat="43.928643246484675" lon="12.674029353766246"><ele>39.2</ele><time>2026-04-26T10:27:00Z</time></trkpt><trkpt lat="43.928560204516415" lon="12.674016826402596"><ele>39.0</ele><time>2026-04-26T10:27:02Z</time></trkpt><trkpt lat="43.928475020479205" lon="12.673985202869128"><ele>39.333333333333336</ele><time>2026-04-26T10:27:04Z</time></trkpt><trkpt lat="43.92839112315431" lon="12.673967795520985"><ele>39.666666666666664</ele><time>2026-04-26T10:27:06Z</time></trkpt><trkpt lat="43.928307686340744" lon="12.67395488086329"><ele>40.0</ele><time>2026-04-26T10:27:08Z</time></trkpt><trkpt lat="43.92822869677875" lon="12.673917737621723"><ele>40.33333333333333</ele><time>2026-04-26T10:27:10Z</time></trkpt><trkpt lat="43.92816524849061" lon="12.673860596587073"><ele>40.666666666666664</ele><time>2026-04-26T10:27:12Z</time></trkpt><trkpt lat="43.928135367974456" lon="12.673754783859241"><ele>41.0</ele><time>2026-04-26T10:27:15Z</time></trkpt><trkpt lat="43.928132538338744" lon="12.673655944287738"><ele>41.166666666666664</ele><time>2026-04-26T10:27:18Z</time></trkpt><trkpt lat="43.92811680812257" lon="12.67354663599191"><ele>41.33333333333333</ele><time>2026-04-26T10:27:21Z</time></trkpt><trkpt lat="43.9280859862951" lon="12.673469416183297"><ele>41.5</ele><time>2026-04-26T10:27:23Z</time></trkpt><trkpt lat="43.92802660652239" lon="12.673367217733386"><ele>41.666666666666664</ele><time>2026-04-26T10:27:26Z</time></trkpt><trkpt lat="43.92796470157743" lon="12.673309749608462"><ele>41.833333333333336</ele><time>2026-04-26T10:27:28Z</time></trkpt><trkpt lat="43.92789930449787" lon="12.673256527053034"><ele>42.0</ele><time>2026-04-26T10:27:30Z</time></trkpt><trkpt lat="43.92783486011615" lon="12.673199247121431"><ele>42.0</ele><time>2026-04-26T10:27:32Z</time></trkpt><trkpt lat="43.92776950322346" lon="12.673149754281681"><ele>42.0</ele><time>2026-04-26T10:27:34Z</time></trkpt><trkpt lat="43.92771555100374" lon="12.673100015806002"><ele>42.0</ele><time>2026-04-26T10:27:36Z</time></trkpt><trkpt lat="43.92765650618918" lon="12.67303849337863"><ele>42.0</ele><time>2026-04-26T10:27:39Z</time></trkpt><trkpt lat="43.92758407087814" lon="12.672992796786813"><ele>42.0</ele><time>2026-04-26T10:27:42Z</time></trkpt><trkpt lat="43.927525561731116" lon="12.672925783879336"><ele>42.0</ele><time>2026-04-26T10:27:45Z</time></trkpt><trkpt lat="43.927464506185196" lon="12.672880465617803"><ele>42.0</ele><time>2026-04-26T10:27:47Z</time></trkpt><trkpt lat="43.92738702555329" lon="12.672833543276731"><ele>41.833333333333336</ele><time>2026-04-26T10:27:49Z</time></trkpt><trkpt lat="43.927312904609494" lon="12.672800321742733"><ele>41.666666666666664</ele><time>2026-04-26T10:27:51Z</time></trkpt><trkpt lat="43.92723516542302" lon="12.672759502287969"><ele>41.5</ele><time>2026-04-26T10:27:53Z</time></trkpt><trkpt lat="43.92715920019411" lon="12.672698287588581"><ele>41.33333333333333</ele><time>2026-04-26T10:27:55Z</time></trkpt><trkpt lat="43.92708741431548" lon="12.672643214975862"><ele>41.166666666666664</ele><time>2026-04-26T10:27:57Z</time></trkpt><trkpt lat="43.9270184981909" lon="12.672583123644955"><ele>41.0</ele><time>2026-04-26T10:27:59Z</time></trkpt><trkpt lat="43.92695385379072" lon="12.672503735357251"><ele>41.0</ele><time>2026-04-26T10:28:01Z</time></trkpt><trkpt lat="43.926888060614324" lon="12.672415820469535"><ele>41.0</ele><time>2026-04-26T10:28:03Z</time></trkpt><trkpt lat="43.92682029534456" lon="12.67232381540873"><ele>41.0</ele><time>2026-04-26T10:28:05Z</time></trkpt><trkpt lat="43.92675693620035" lon="12.672225282510226"><ele>41.0</ele><time>2026-04-26T10:28:07Z</time></trkpt><trkpt lat="43.92669904990698" lon="12.672124717065884"><ele>41.0</ele><time>2026-04-26T10:28:09Z</time></trkpt><trkpt lat="43.92664121597618" lon="12.672013378478054"><ele>41.199999999999996</ele><time>2026-04-26T10:28:11Z</time></trkpt><trkpt lat="43.926590380131245" lon="12.671900389668593"><ele>41.4</ele><time>2026-04-26T10:28:13Z</time></trkpt><trkpt lat="43.926545564260714" lon="12.671778596202266"><ele>41.6</ele><time>2026-04-26T10:28:15Z</time></trkpt><trkpt lat="43.92649793833636" lon="12.671674550162015"><ele>41.8</ele><time>2026-04-26T10:28:17Z</time></trkpt><trkpt lat="43.92646028889777" lon="12.671563049412159"><ele>42.0</ele><time>2026-04-26T10:28:19Z</time></trkpt><trkpt lat="43.926415322399805" lon="12.671460996746461"><ele>42.0</ele><time>2026-04-26T10:28:21Z</time></trkpt><trkpt lat="43.926369113879204" lon="12.671358204783575"><ele>42.0</ele><time>2026-04-26T10:28:23Z</time></trkpt><trkpt lat="43.926307042712104" lon="12.671283898845605"><ele>42.0</ele><time>2026-04-26T10:28:25Z</time></trkpt><trkpt lat="43.926257524196274" lon="12.671178440764974"><ele>42.0</ele><time>2026-04-26T10:28:27Z</time></trkpt><trkpt lat="43.92622504392197" lon="12.671067909971816"><ele>42.0</ele><time>2026-04-26T10:28:29Z</time></trkpt><trkpt lat="43.92618940700793" lon="12.670967038892314"><ele>42.0</ele><time>2026-04-26T10:28:31Z</time></trkpt><trkpt lat="43.92615751220901" lon="12.670875196192533"><ele>42.2</ele><time>2026-04-26T10:28:33Z</time></trkpt><trkpt lat="43.92618389575549" lon="12.670787792031462"><ele>42.400000000000006</ele><time>2026-04-26T10:28:35Z</time></trkpt><trkpt lat="43.92610748190201" lon="12.670570201937846"><ele>42.599999999999994</ele><time>2026-04-26T10:28:37Z</time></trkpt><trkpt lat="43.92621507922635" lon="12.670651677801276"><ele>42.8</ele><time>2026-04-26T10:28:46Z</time></trkpt><trkpt lat="43.9262402910677" lon="12.670570396144468"><ele>43.0</ele><time>2026-04-26T10:29:04Z</time></trkpt><trkpt lat="43.926246390022925" lon="12.670476701512046"><ele>43.00000000000001</ele><time>2026-04-26T10:29:09Z</time></trkpt><trkpt lat="43.92620374486017" lon="12.670382938253063"><ele>43.0</ele><time>2026-04-26T10:29:13Z</time></trkpt><trkpt lat="43.92615723928813" lon="12.670323746465398"><ele>43.0</ele><time>2026-04-26T10:29:16Z</time></trkpt><trkpt lat="43.92610625762679" lon="12.670239972952709"><ele>43.0</ele><time>2026-04-26T10:29:19Z</time></trkpt><trkpt lat="43.92606297748445" lon="12.6701538441222"><ele>43.0</ele><time>2026-04-26T10:29:22Z</time></trkpt><trkpt lat="43.926018962256805" lon="12.670062088672035"><ele>43.00000000000001</ele><time>2026-04-26T10:29:25Z</time></trkpt><trkpt lat="43.92600451976969" lon="12.669968160900149"><ele>43.0</ele><time>2026-04-26T10:29:27Z</time></trkpt><trkpt lat="43.92603066626049" lon="12.669883353423387"><ele>43.142857142857146</ele><time>2026-04-26T10:29:29Z</time></trkpt><trkpt lat="43.9260091156028" lon="12.66978424392673"><ele>43.285714285714285</ele><time>2026-04-26T10:29:32Z</time></trkpt><trkpt lat="43.925953309246005" lon="12.669696476222729"><ele>43.42857142857143</ele><time>2026-04-26T10:29:35Z</time></trkpt><trkpt lat="43.92591822756976" lon="12.669617436967933"><ele>43.57142857142857</ele><time>2026-04-26T10:29:37Z</time></trkpt><trkpt lat="43.92587750096493" lon="12.669545580775374"><ele>43.714285714285715</ele><time>2026-04-26T10:29:39Z</time></trkpt><trkpt lat="43.92584055838224" lon="12.669463992147302"><ele>43.85714285714286</ele><time>2026-04-26T10:29:41Z</time></trkpt><trkpt lat="43.925800943418956" lon="12.669374808777475"><ele>44.0</ele><time>2026-04-26T10:29:43Z</time></trkpt><trkpt lat="43.92575543988533" lon="12.669290890569007"><ele>44.0</ele><time>2026-04-26T10:29:45Z</time></trkpt><trkpt lat="43.92571627549528" lon="12.669206950118143"><ele>44.0</ele><time>2026-04-26T10:29:47Z</time></trkpt><trkpt lat="43.925666971140245" lon="12.669131038107977"><ele>44.0</ele><time>2026-04-26T10:29:49Z</time></trkpt><trkpt lat="43.92560272811275" lon="12.669072125961986"><ele>44.0</ele><time>2026-04-26T10:29:51Z</time></trkpt><trkpt lat="43.92549602052047" lon="12.66900452171752"><ele>44.0</ele><time>2026-04-26T10:29:53Z</time></trkpt><trkpt lat="43.92541608664793" lon="12.66890521401416"><ele>44.0</ele><time>2026-04-26T10:29:55Z</time></trkpt><trkpt lat="43.92534575709767" lon="12.66877479599725"><ele>44.0</ele><time>2026-04-26T10:29:57Z</time></trkpt><trkpt lat="43.92529337813342" lon="12.668646309247846"><ele>44.0</ele><time>2026-04-26T10:29:59Z</time></trkpt><trkpt lat="43.92525580225792" lon="12.668510292854833"><ele>44.0</ele><time>2026-04-26T10:30:01Z</time></trkpt><trkpt lat="43.92521847028053" lon="12.668395078543172"><ele>44.0</ele><time>2026-04-26T10:30:03Z</time></trkpt><trkpt lat="43.92517868014957" lon="12.66827966764629"><ele>44.0</ele><time>2026-04-26T10:30:05Z</time></trkpt><trkpt lat="43.92514777943445" lon="12.668190375175472"><ele>44.166666666666664</ele><time>2026-04-26T10:30:07Z</time></trkpt><trkpt lat="43.925096601359954" lon="12.668116423678923"><ele>44.33333333333333</ele><time>2026-04-26T10:30:09Z</time></trkpt><trkpt lat="43.925047970735136" lon="12.668031456858662"><ele>44.5</ele><time>2026-04-26T10:30:11Z</time></trkpt><trkpt lat="43.92500127368026" lon="12.6679513202877"><ele>44.666666666666664</ele><time>2026-04-26T10:30:13Z</time></trkpt><trkpt lat="43.9249474986689" lon="12.667869757464866"><ele>44.833333333333336</ele><time>2026-04-26T10:30:15Z</time></trkpt><trkpt lat="43.924897125196885" lon="12.667779405924282"><ele>45.0</ele><time>2026-04-26T10:30:17Z</time></trkpt><trkpt lat="43.92484936822193" lon="12.667689290532135"><ele>45.0</ele><time>2026-04-26T10:30:19Z</time></trkpt><trkpt lat="43.92480431017344" lon="12.667594614147662"><ele>45.0</ele><time>2026-04-26T10:30:21Z</time></trkpt><trkpt lat="43.92475577469421" lon="12.667494298767098"><ele>45.0</ele><time>2026-04-26T10:30:23Z</time></trkpt><trkpt lat="43.924711330414304" lon="12.667396108958176"><ele>45.0</ele><time>2026-04-26T10:30:25Z</time></trkpt><trkpt lat="43.92467092079574" lon="12.66729493544235"><ele>45.0</ele><time>2026-04-26T10:30:27Z</time></trkpt><trkpt lat="43.92463448199334" lon="12.667195182331136"><ele>45.0</ele><time>2026-04-26T10:30:29Z</time></trkpt><trkpt lat="43.92459743137941" lon="12.667096023673745"><ele>45.0</ele><time>2026-04-26T10:30:31Z</time></trkpt><trkpt lat="43.92456068515897" lon="12.666991748129703"><ele>45.0</ele><time>2026-04-26T10:30:33Z</time></trkpt><trkpt lat="43.92452212541961" lon="12.666883145307485"><ele>45.0</ele><time>2026-04-26T10:30:35Z</time></trkpt><trkpt lat="43.924486722281564" lon="12.666774917792313"><ele>45.0</ele><time>2026-04-26T10:30:37Z</time></trkpt><trkpt lat="43.9244527195953" lon="12.666666601063204"><ele>45.0</ele><time>2026-04-26T10:30:39Z</time></trkpt><trkpt lat="43.92441983698672" lon="12.666555607740188"><ele>45.0</ele><time>2026-04-26T10:30:41Z</time></trkpt><trkpt lat="43.92438616511247" lon="12.666447349208019"><ele>45.5</ele><time>2026-04-26T10:30:43Z</time></trkpt><trkpt lat="43.92435706845657" lon="12.666338774887512"><ele>46.0</ele><time>2026-04-26T10:30:45Z</time></trkpt><trkpt lat="43.92432919269863" lon="12.6662373330533"><ele>46.5</ele><time>2026-04-26T10:30:47Z</time></trkpt><trkpt lat="43.92430934670665" lon="12.666137437716497"><ele>47.0</ele><time>2026-04-26T10:30:49Z</time></trkpt><trkpt lat="43.92429317250426" lon="12.666041908197082"><ele>47.5</ele><time>2026-04-26T10:30:51Z</time></trkpt><trkpt lat="43.924265297485015" lon="12.66594320729718"><ele>48.0</ele><time>2026-04-26T10:30:53Z</time></trkpt><trkpt lat="43.924246712147855" lon="12.665853668552476"><ele>47.857142857142854</ele><time>2026-04-26T10:30:55Z</time></trkpt><trkpt lat="43.92422978382503" lon="12.665754500249815"><ele>47.714285714285715</ele><time>2026-04-26T10:30:57Z</time></trkpt><trkpt lat="43.92420863679023" lon="12.665619823463691"><ele>47.57142857142857</ele><time>2026-04-26T10:31:00Z</time></trkpt><trkpt lat="43.92419709938817" lon="12.665528796670822"><ele>47.42857142857143</ele><time>2026-04-26T10:31:02Z</time></trkpt><trkpt lat="43.92418971148724" lon="12.665439317332316"><ele>47.285714285714285</ele><time>2026-04-26T10:31:04Z</time></trkpt><trkpt lat="43.924194143475475" lon="12.665351163787152"><ele>47.14285714285714</ele><time>2026-04-26T10:31:06Z</time></trkpt><trkpt lat="43.92418024410767" lon="12.665253037241023"><ele>47.0</ele><time>2026-04-26T10:31:08Z</time></trkpt><trkpt lat="43.92415655294579" lon="12.665170889888937"><ele>47.0</ele><time>2026-04-26T10:31:10Z</time></trkpt><trkpt lat="43.924147108408135" lon="12.665081767619418"><ele>47.0</ele><time>2026-04-26T10:31:13Z</time></trkpt><trkpt lat="43.9242103915022" lon="12.66507555663103"><ele>47.0</ele><time>2026-04-26T10:31:18Z</time></trkpt><trkpt lat="43.92421534189271" lon="12.6651645269197"><ele>47.0</ele><time>2026-04-26T10:31:25Z</time></trkpt><trkpt lat="43.924169365103424" lon="12.665047426468442"><ele>47.0</ele><time>2026-04-26T10:32:51.999Z</time></trkpt><trkpt lat="43.92416350412621" lon="12.664941109755176"><ele>47.0</ele><time>2026-04-26T10:32:53.999Z</time></trkpt><trkpt lat="43.92414791480551" lon="12.664841408949792"><ele>47.0</ele><time>2026-04-26T10:32:56.999Z</time></trkpt><trkpt lat="43.92413785488775" lon="12.664739060115389"><ele>47.0</ele><time>2026-04-26T10:32:59.999Z</time></trkpt><trkpt lat="43.9241471011595" lon="12.664637251563168"><ele>47.0</ele><time>2026-04-26T10:33:02.999Z</time></trkpt><trkpt lat="43.92415455712373" lon="12.664509309323728"><ele>47.0</ele><time>2026-04-26T10:33:05.999Z</time></trkpt><trkpt lat="43.924174773000075" lon="12.664426462185055"><ele>47.0</ele><time>2026-04-26T10:33:07.999Z</time></trkpt><trkpt lat="43.92419157672746" lon="12.664341480069107"><ele>47.0</ele><time>2026-04-26T10:33:09.999Z</time></trkpt><trkpt lat="43.92423058007834" lon="12.66421488798783"><ele>47.0</ele><time>2026-04-26T10:33:12.999Z</time></trkpt><trkpt lat="43.9242535208931" lon="12.66412701915793"><ele>47.33333333333333</ele><time>2026-04-26T10:33:14.999Z</time></trkpt><trkpt lat="43.92429309984422" lon="12.664016894867245"><ele>47.666666666666664</ele><time>2026-04-26T10:33:17.999Z</time></trkpt><trkpt lat="43.924283095667874" lon="12.66390468195744"><ele>48.0</ele><time>2026-04-26T10:33:20.999Z</time></trkpt><trkpt lat="43.924290937174675" lon="12.66381722156149"><ele>48.33333333333333</ele><time>2026-04-26T10:33:29.999Z</time></trkpt><trkpt lat="43.92428561775188" lon="12.663718117856156"><ele>48.666666666666664</ele><time>2026-04-26T10:33:36.999Z</time></trkpt><trkpt lat="43.92425049602625" lon="12.663644869562347"><ele>49.0</ele><time>2026-04-26T10:33:42.999Z</time></trkpt><trkpt lat="43.92417528863527" lon="12.663587286757735"><ele>49.49999999999999</ele><time>2026-04-26T10:33:58Z</time></trkpt><trkpt lat="43.92414437656833" lon="12.663475991531516"><ele>50.0</ele><time>2026-04-26T10:34:00Z</time></trkpt><trkpt lat="43.924115390465694" lon="12.663373517999522"><ele>50.5</ele><time>2026-04-26T10:34:02Z</time></trkpt><trkpt lat="43.92408515580539" lon="12.663288091977805"><ele>51.0</ele><time>2026-04-26T10:34:04Z</time></trkpt><trkpt lat="43.92405268835924" lon="12.663194682575414"><ele>51.49999999999999</ele><time>2026-04-26T10:34:06Z</time></trkpt><trkpt lat="43.92400411542046" lon="12.663113006496006"><ele>52.0</ele><time>2026-04-26T10:34:08Z</time></trkpt><trkpt lat="43.92394105714916" lon="12.663052217354856"><ele>51.99999999999999</ele><time>2026-04-26T10:34:10Z</time></trkpt><trkpt lat="43.923871145119506" lon="12.662994828052556"><ele>52.0</ele><time>2026-04-26T10:34:12Z</time></trkpt><trkpt lat="43.92379948220891" lon="12.662937813273969"><ele>52.0</ele><time>2026-04-26T10:34:14Z</time></trkpt><trkpt lat="43.92372153574704" lon="12.662912044538402"><ele>52.0</ele><time>2026-04-26T10:34:16Z</time></trkpt><trkpt lat="43.92365213963537" lon="12.662836728650932"><ele>51.99999999999999</ele><time>2026-04-26T10:34:18Z</time></trkpt><trkpt lat="43.92360707500107" lon="12.662759597475002"><ele>52.0</ele><time>2026-04-26T10:34:19Z</time></trkpt><trkpt lat="43.92355603012478" lon="12.662647745191004"><ele>52.0</ele><time>2026-04-26T10:34:20Z</time></trkpt><trkpt lat="43.92352183676999" lon="12.662555596566193"><ele>52.0</ele><time>2026-04-26T10:34:21Z</time></trkpt><trkpt lat="43.9237598499212" lon="12.662471189088283"><ele>52.0</ele><time>2026-04-26T10:34:23Z</time></trkpt><trkpt lat="43.92377606048984" lon="12.662374618693807"><ele>52.0</ele><time>2026-04-26T10:34:25Z</time></trkpt><trkpt lat="43.92381103917668" lon="12.662272616947641"><ele>52.0</ele><time>2026-04-26T10:34:27Z</time></trkpt><trkpt lat="43.92386325170195" lon="12.662206025964778"><ele>52.0</ele><time>2026-04-26T10:34:31Z</time></trkpt><trkpt lat="43.923917383075064" lon="12.66209479125346"><ele>52.0</ele><time>2026-04-26T10:34:34Z</time></trkpt><trkpt lat="43.92397126148383" lon="12.662003443949207"><ele>52.0</ele><time>2026-04-26T10:34:37Z</time></trkpt><trkpt lat="43.92399015012101" lon="12.66191503203887"><ele>52.0</ele><time>2026-04-26T10:34:39Z</time></trkpt><trkpt lat="43.92362330693418" lon="12.661410055460308"><ele>52.0</ele><time>2026-04-26T10:34:41Z</time></trkpt><trkpt lat="43.9236185316016" lon="12.661308593895606"><ele>52.0</ele><time>2026-04-26T10:34:43Z</time></trkpt><trkpt lat="43.92362354689168" lon="12.661205716387316"><ele>52.0</ele><time>2026-04-26T10:34:45Z</time></trkpt><trkpt lat="43.923647638649" lon="12.661110198435521"><ele>52.0</ele><time>2026-04-26T10:34:47Z</time></trkpt><trkpt lat="43.923668986639456" lon="12.66100109962229"><ele>52.0</ele><time>2026-04-26T10:34:50Z</time></trkpt><trkpt lat="43.923679163218075" lon="12.660902318236325"><ele>52.0</ele><time>2026-04-26T10:34:53Z</time></trkpt><trkpt lat="43.923657219779415" lon="12.660805421340454"><ele>52.0</ele><time>2026-04-26T10:34:56Z</time></trkpt><trkpt lat="43.9236296308637" lon="12.660719843866836"><ele>52.0</ele><time>2026-04-26T10:34:58Z</time></trkpt><trkpt lat="43.92364136275481" lon="12.660630634065834"><ele>52.0</ele><time>2026-04-26T10:35:00Z</time></trkpt><trkpt lat="43.92364335275134" lon="12.660507865831978"><ele>52.0</ele><time>2026-04-26T10:35:03Z</time></trkpt><trkpt lat="43.92365280036807" lon="12.660381904707114"><ele>52.0</ele><time>2026-04-26T10:35:06Z</time></trkpt><trkpt lat="43.92366563487982" lon="12.66029421408591"><ele>52.0</ele><time>2026-04-26T10:35:07.999Z</time></trkpt><trkpt lat="43.92367848743197" lon="12.660198950366516"><ele>52.0</ele><time>2026-04-26T10:35:09.999Z</time></trkpt><trkpt lat="43.923685945833604" lon="12.660103811180216"><ele>52.0</ele><time>2026-04-26T10:35:11.999Z</time></trkpt><trkpt lat="43.92369831782392" lon="12.660009556795492"><ele>52.0</ele><time>2026-04-26T10:35:13.999Z</time></trkpt><trkpt lat="43.92370637519842" lon="12.659915144355894"><ele>52.0</ele><time>2026-04-26T10:35:15.999Z</time></trkpt><trkpt lat="43.923712047156314" lon="12.659818955489138"><ele>52.0</ele><time>2026-04-26T10:35:17.999Z</time></trkpt><trkpt lat="43.92371819378105" lon="12.659723604542847"><ele>52.0</ele><time>2026-04-26T10:35:19.999Z</time></trkpt><trkpt lat="43.92373836849291" lon="12.65963119115037"><ele>52.0</ele><time>2026-04-26T10:35:21.999Z</time></trkpt><trkpt lat="43.92373749200002" lon="12.659542021041066"><ele>52.0</ele><time>2026-04-26T10:35:23.999Z</time></trkpt><trkpt lat="43.92371318241748" lon="12.659455516763122"><ele>52.0</ele><time>2026-04-26T10:35:25.999Z</time></trkpt><trkpt lat="43.92367917481043" lon="12.659363292901576"><ele>52.0</ele><time>2026-04-26T10:35:27.999Z</time></trkpt><trkpt lat="43.9236522150633" lon="12.659265189683808"><ele>52.0</ele><time>2026-04-26T10:35:29.999Z</time></trkpt><trkpt lat="43.923632938615526" lon="12.659170546280727"><ele>52.0</ele><time>2026-04-26T10:35:32Z</time></trkpt><trkpt lat="43.923615410080565" lon="12.659076928231759"><ele>52.0</ele><time>2026-04-26T10:35:34Z</time></trkpt><trkpt lat="43.92360058143058" lon="12.658982027165404"><ele>52.0</ele><time>2026-04-26T10:35:36Z</time></trkpt><trkpt lat="43.923584345768575" lon="12.65889750727661"><ele>52.0</ele><time>2026-04-26T10:35:38Z</time></trkpt><trkpt lat="43.92357439763487" lon="12.658797591307012"><ele>52.0</ele><time>2026-04-26T10:35:40Z</time></trkpt><trkpt lat="43.9235685250196" lon="12.65870423429066"><ele>52.166666666666664</ele><time>2026-04-26T10:35:42Z</time></trkpt><trkpt lat="43.92357237807867" lon="12.658590392197208"><ele>52.33333333333333</ele><time>2026-04-26T10:35:45Z</time></trkpt><trkpt lat="43.923583927175116" lon="12.658494123616121"><ele>52.5</ele><time>2026-04-26T10:35:48Z</time></trkpt><trkpt lat="43.92358482311853" lon="12.658382801271278"><ele>52.66666666666667</ele><time>2026-04-26T10:35:52Z</time></trkpt><trkpt lat="43.92357215475032" lon="12.658277053380086"><ele>52.833333333333336</ele><time>2026-04-26T10:35:56Z</time></trkpt><trkpt lat="43.92355619485138" lon="12.658173196875628"><ele>53.0</ele><time>2026-04-26T10:36:00Z</time></trkpt><trkpt lat="43.92354036952379" lon="12.658066327220842"><ele>53.0</ele><time>2026-04-26T10:36:04Z</time></trkpt><trkpt lat="43.92352164965624" lon="12.657965251857775"><ele>53.0</ele><time>2026-04-26T10:36:07Z</time></trkpt><trkpt lat="43.92351066797844" lon="12.65786525005809"><ele>53.0</ele><time>2026-04-26T10:36:09Z</time></trkpt><trkpt lat="43.923512256198876" lon="12.657774353637384"><ele>53.0</ele><time>2026-04-26T10:36:11Z</time></trkpt><trkpt lat="43.92350960243359" lon="12.657685163205334"><ele>53.0</ele><time>2026-04-26T10:36:13Z</time></trkpt><trkpt lat="43.9235343581854" lon="12.65759202667555"><ele>53.0</ele><time>2026-04-26T10:36:15Z</time></trkpt><trkpt lat="43.92355626459469" lon="12.657504161419391"><ele>53.0</ele><time>2026-04-26T10:36:17Z</time></trkpt><trkpt lat="43.92358415200184" lon="12.657415447980268"><ele>53.00000000000001</ele><time>2026-04-26T10:36:19Z</time></trkpt><trkpt lat="43.92361004422754" lon="12.657312054783834"><ele>53.0</ele><time>2026-04-26T10:36:21Z</time></trkpt><trkpt lat="43.92362234514212" lon="12.657201220031569"><ele>53.0</ele><time>2026-04-26T10:36:23Z</time></trkpt><trkpt lat="43.92363325713327" lon="12.657094899123454"><ele>53.0</ele><time>2026-04-26T10:36:25Z</time></trkpt><trkpt lat="43.923645277569925" lon="12.656991150439884"><ele>53.00000000000001</ele><time>2026-04-26T10:36:27Z</time></trkpt><trkpt lat="43.92363499303124" lon="12.656877077343022"><ele>53.0</ele><time>2026-04-26T10:36:29Z</time></trkpt><trkpt lat="43.92360996818395" lon="12.656753598134507"><ele>53.333333333333336</ele><time>2026-04-26T10:36:31Z</time></trkpt><trkpt lat="43.92359291528366" lon="12.6566277620123"><ele>53.66666666666667</ele><time>2026-04-26T10:36:33Z</time></trkpt><trkpt lat="43.923576301890954" lon="12.65649480218494"><ele>54.0</ele><time>2026-04-26T10:36:35Z</time></trkpt><trkpt lat="43.92354587759776" lon="12.656380715814336"><ele>54.33333333333333</ele><time>2026-04-26T10:36:37Z</time></trkpt><trkpt lat="43.92352042440528" lon="12.656263403923722"><ele>54.666666666666664</ele><time>2026-04-26T10:36:39Z</time></trkpt><trkpt lat="43.923498900121885" lon="12.656154671303216"><ele>55.0</ele><time>2026-04-26T10:36:41Z</time></trkpt><trkpt lat="43.92348825558523" lon="12.656038421448772"><ele>55.2</ele><time>2026-04-26T10:36:43Z</time></trkpt><trkpt lat="43.92347640996669" lon="12.655916789164149"><ele>55.4</ele><time>2026-04-26T10:36:45Z</time></trkpt><trkpt lat="43.92345692466435" lon="12.655784707193911"><ele>55.599999999999994</ele><time>2026-04-26T10:36:47Z</time></trkpt><trkpt lat="43.923439724066554" lon="12.65564377378026"><ele>55.8</ele><time>2026-04-26T10:36:49Z</time></trkpt><trkpt lat="43.92342541625039" lon="12.655505386034068"><ele>56.0</ele><time>2026-04-26T10:36:51Z</time></trkpt><trkpt lat="43.923372599095956" lon="12.655381543897198"><ele>55.50000000000001</ele><time>2026-04-26T10:36:53Z</time></trkpt><trkpt lat="43.923279746121544" lon="12.655301615018187"><ele>55.0</ele><time>2026-04-26T10:36:55Z</time></trkpt><trkpt lat="43.923192715539344" lon="12.655238256240855"><ele>54.5</ele><time>2026-04-26T10:36:57Z</time></trkpt><trkpt lat="43.923122756894905" lon="12.655174607498887"><ele>54.0</ele><time>2026-04-26T10:36:59Z</time></trkpt><trkpt lat="43.92304383682866" lon="12.655137512752173"><ele>53.50000000000001</ele><time>2026-04-26T10:37:01Z</time></trkpt><trkpt lat="43.922978111679505" lon="12.655104768517296"><ele>53.0</ele><time>2026-04-26T10:37:03Z</time></trkpt><trkpt lat="43.92293886602718" lon="12.655000289589374"><ele>53.00000000000001</ele><time>2026-04-26T10:37:05Z</time></trkpt><trkpt lat="43.92286688200853" lon="12.654944363803114"><ele>53.0</ele><time>2026-04-26T10:37:07Z</time></trkpt><trkpt lat="43.92280017599024" lon="12.654889843122032"><ele>53.0</ele><time>2026-04-26T10:37:09Z</time></trkpt><trkpt lat="43.92273525156449" lon="12.654838582325347"><ele>53.0</ele><time>2026-04-26T10:37:11Z</time></trkpt><trkpt lat="43.922671284892374" lon="12.654792294865992"><ele>53.00000000000001</ele><time>2026-04-26T10:37:13Z</time></trkpt><trkpt lat="43.922605585030276" lon="12.654739429667924"><ele>53.0</ele><time>2026-04-26T10:37:15Z</time></trkpt><trkpt lat="43.92254608757836" lon="12.654683766577355"><ele>53.142857142857146</ele><time>2026-04-26T10:37:17Z</time></trkpt><trkpt lat="43.922486024849505" lon="12.654640167755584"><ele>53.285714285714285</ele><time>2026-04-26T10:37:19Z</time></trkpt><trkpt lat="43.92242758909472" lon="12.654588786227707"><ele>53.42857142857143</ele><time>2026-04-26T10:37:21Z</time></trkpt><trkpt lat="43.922367931509015" lon="12.654544065435319"><ele>53.57142857142857</ele><time>2026-04-26T10:37:23Z</time></trkpt><trkpt lat="43.922309770860565" lon="12.654493434504811"><ele>53.71428571428571</ele><time>2026-04-26T10:37:25Z</time></trkpt><trkpt lat="43.92224459230741" lon="12.65440577268839"><ele>53.857142857142854</ele><time>2026-04-26T10:37:28Z</time></trkpt><trkpt lat="43.92220802540721" lon="12.654331738907251"><ele>54.0</ele><time>2026-04-26T10:37:30Z</time></trkpt><trkpt lat="43.92216902162102" lon="12.654244629463197"><ele>54.0</ele><time>2026-04-26T10:37:32Z</time></trkpt><trkpt lat="43.92213997748961" lon="12.654145788921909"><ele>54.0</ele><time>2026-04-26T10:37:34Z</time></trkpt><trkpt lat="43.92213579226661" lon="12.654031694575481"><ele>54.0</ele><time>2026-04-26T10:37:36Z</time></trkpt><trkpt lat="43.92212413078749" lon="12.653917540049795"><ele>54.0</ele><time>2026-04-26T10:37:38Z</time></trkpt><trkpt lat="43.922116728046824" lon="12.65381052412779"><ele>54.0</ele><time>2026-04-26T10:37:40Z</time></trkpt><trkpt lat="43.922115334286396" lon="12.653700740706824"><ele>54.0</ele><time>2026-04-26T10:37:42Z</time></trkpt><trkpt lat="43.92211569061901" lon="12.653592254283554"><ele>54.166666666666664</ele><time>2026-04-26T10:37:44Z</time></trkpt><trkpt lat="43.922110585055016" lon="12.653487616351152"><ele>54.33333333333333</ele><time>2026-04-26T10:37:46Z</time></trkpt><trkpt lat="43.9221268080353" lon="12.653395643773177"><ele>54.5</ele><time>2026-04-26T10:37:48Z</time></trkpt><trkpt lat="43.922133212071515" lon="12.653302611206337"><ele>54.666666666666664</ele><time>2026-04-26T10:37:50Z</time></trkpt><trkpt lat="43.92211671276415" lon="12.653173329440055"><ele>54.83333333333333</ele><time>2026-04-26T10:37:53Z</time></trkpt><trkpt lat="43.922120175639805" lon="12.653075942667186"><ele>55.0</ele><time>2026-04-26T10:37:55Z</time></trkpt><trkpt lat="43.92213250039134" lon="12.652970835609446"><ele>54.99999999999999</ele><time>2026-04-26T10:37:57Z</time></trkpt><trkpt lat="43.92213441867982" lon="12.652862081833955"><ele>55.0</ele><time>2026-04-26T10:37:59Z</time></trkpt><trkpt lat="43.92211804374536" lon="12.65275506675542"><ele>55.0</ele><time>2026-04-26T10:38:01Z</time></trkpt><trkpt lat="43.92214048633603" lon="12.652639639600787"><ele>55.0</ele><time>2026-04-26T10:38:03Z</time></trkpt><trkpt lat="43.92215556315208" lon="12.652529082651899"><ele>54.99999999999999</ele><time>2026-04-26T10:38:05Z</time></trkpt><trkpt lat="43.922167870781436" lon="12.652417195819453"><ele>55.0</ele><time>2026-04-26T10:38:07Z</time></trkpt><trkpt lat="43.92218141630201" lon="12.65230229452231"><ele>55.666666666666664</ele><time>2026-04-26T10:38:09Z</time></trkpt><trkpt lat="43.92216813911117" lon="12.652193658632884"><ele>56.33333333333333</ele><time>2026-04-26T10:38:11Z</time></trkpt><trkpt lat="43.922129587895036" lon="12.652076488293446"><ele>57.0</ele><time>2026-04-26T10:38:13Z</time></trkpt><trkpt lat="43.92209332203502" lon="12.65196320362233"><ele>57.66666666666667</ele><time>2026-04-26T10:38:15Z</time></trkpt><trkpt lat="43.92204405948224" lon="12.651863760823602"><ele>58.333333333333336</ele><time>2026-04-26T10:38:17Z</time></trkpt><trkpt lat="43.92197795386096" lon="12.651780106220844"><ele>59.0</ele><time>2026-04-26T10:38:19Z</time></trkpt><trkpt lat="43.92190538589406" lon="12.651687408920317"><ele>59.400000000000006</ele><time>2026-04-26T10:38:21Z</time></trkpt><trkpt lat="43.92180985349344" lon="12.651629069029745"><ele>59.800000000000004</ele><time>2026-04-26T10:38:23Z</time></trkpt><trkpt lat="43.921707484979834" lon="12.651602183808436"><ele>60.199999999999996</ele><time>2026-04-26T10:38:25Z</time></trkpt><trkpt lat="43.92165489603768" lon="12.651488241721836"><ele>60.599999999999994</ele><time>2026-04-26T10:38:27Z</time></trkpt><trkpt lat="43.92161604616833" lon="12.651380966430073"><ele>61.0</ele><time>2026-04-26T10:38:29Z</time></trkpt><trkpt lat="43.92157609973996" lon="12.651283754609985"><ele>60.166666666666664</ele><time>2026-04-26T10:38:31Z</time></trkpt><trkpt lat="43.9215440093076" lon="12.651178903162544"><ele>59.33333333333333</ele><time>2026-04-26T10:38:33Z</time></trkpt><trkpt lat="43.92150905811776" lon="12.65107891240803"><ele>58.5</ele><time>2026-04-26T10:38:35Z</time></trkpt><trkpt lat="43.92146578235373" lon="12.650980041859688"><ele>57.66666666666667</ele><time>2026-04-26T10:38:37Z</time></trkpt><trkpt lat="43.921427042894926" lon="12.650863897481495"><ele>56.833333333333336</ele><time>2026-04-26T10:38:39Z</time></trkpt><trkpt lat="43.92137758885614" lon="12.650749178961364"><ele>56.0</ele><time>2026-04-26T10:38:41Z</time></trkpt><trkpt lat="43.921309019148175" lon="12.650655672062804"><ele>56.0</ele><time>2026-04-26T10:38:43Z</time></trkpt><trkpt lat="43.92125443080537" lon="12.6506111883761"><ele>56.0</ele><time>2026-04-26T10:38:45Z</time></trkpt><trkpt lat="43.9212108468586" lon="12.650530783496292"><ele>56.0</ele><time>2026-04-26T10:38:48Z</time></trkpt><trkpt lat="43.92121145167943" lon="12.6504085347795"><ele>56.0</ele><time>2026-04-26T10:38:51Z</time></trkpt><trkpt lat="43.92122889094183" lon="12.650321877808869"><ele>56.0</ele><time>2026-04-26T10:38:54Z</time></trkpt><trkpt lat="43.92122174216477" lon="12.650198687040751"><ele>56.0</ele><time>2026-04-26T10:38:57Z</time></trkpt><trkpt lat="43.921180830816255" lon="12.650123033320133"><ele>56.0</ele><time>2026-04-26T10:38:59Z</time></trkpt><trkpt lat="43.92115142754207" lon="12.650014591651153"><ele>56.16666666666667</ele><time>2026-04-26T10:39:02Z</time></trkpt><trkpt lat="43.92113912436468" lon="12.649902310898817"><ele>56.333333333333336</ele><time>2026-04-26T10:39:09Z</time></trkpt><trkpt lat="43.92109153168406" lon="12.649813887742006"><ele>56.5</ele><time>2026-04-26T10:39:12Z</time></trkpt><trkpt lat="43.921055000972885" lon="12.649718251663453"><ele>56.66666666666667</ele><time>2026-04-26T10:39:15Z</time></trkpt><trkpt lat="43.92102421479654" lon="12.649612201017526"><ele>56.833333333333336</ele><time>2026-04-26T10:39:18Z</time></trkpt><trkpt lat="43.920988853898834" lon="12.649492834916753"><ele>57.0</ele><time>2026-04-26T10:39:21Z</time></trkpt><trkpt lat="43.920966852199136" lon="12.64937976057716"><ele>57.0</ele><time>2026-04-26T10:39:24Z</time></trkpt><trkpt lat="43.92095734043725" lon="12.649254147889716"><ele>57.0</ele><time>2026-04-26T10:39:27Z</time></trkpt><trkpt lat="43.920962599026986" lon="12.649125511521035"><ele>57.0</ele><time>2026-04-26T10:39:30Z</time></trkpt><trkpt lat="43.920995720722246" lon="12.64900104778264"><ele>57.0</ele><time>2026-04-26T10:39:33Z</time></trkpt><trkpt lat="43.92102254033776" lon="12.648910538351208"><ele>57.0</ele><time>2026-04-26T10:39:35Z</time></trkpt><trkpt lat="43.92103989625851" lon="12.648810771456636"><ele>57.0</ele><time>2026-04-26T10:39:37Z</time></trkpt><trkpt lat="43.921061391874844" lon="12.648718171875858"><ele>57.0</ele><time>2026-04-26T10:39:39Z</time></trkpt><trkpt lat="43.92108486266116" lon="12.648628687805255"><ele>57.0</ele><time>2026-04-26T10:39:41Z</time></trkpt><trkpt lat="43.921105199404806" lon="12.648528916438712"><ele>57.0</ele><time>2026-04-26T10:39:43Z</time></trkpt><trkpt lat="43.92112240911329" lon="12.64842439875475"><ele>57.0</ele><time>2026-04-26T10:39:45Z</time></trkpt><trkpt lat="43.92114364264771" lon="12.648318530553789"><ele>57.0</ele><time>2026-04-26T10:39:47Z</time></trkpt><trkpt lat="43.92115199997336" lon="12.64821068594756"><ele>57.0</ele><time>2026-04-26T10:39:49Z</time></trkpt><trkpt lat="43.92117077753571" lon="12.648105566942855"><ele>57.333333333333336</ele><time>2026-04-26T10:39:51Z</time></trkpt><trkpt lat="43.921181912922016" lon="12.647996488289058"><ele>57.66666666666667</ele><time>2026-04-26T10:39:53Z</time></trkpt><trkpt lat="43.92119792870496" lon="12.647886040284472"><ele>58.0</ele><time>2026-04-26T10:39:55Z</time></trkpt><trkpt lat="43.92121637519413" lon="12.647774720674537"><ele>58.333333333333336</ele><time>2026-04-26T10:39:57Z</time></trkpt><trkpt lat="43.92123168019016" lon="12.647659076951458"><ele>58.66666666666667</ele><time>2026-04-26T10:39:59Z</time></trkpt><trkpt lat="43.92125551821179" lon="12.647549815029391"><ele>59.0</ele><time>2026-04-26T10:40:01Z</time></trkpt><trkpt lat="43.92125498594678" lon="12.647426758859122"><ele>59.50000000000001</ele><time>2026-04-26T10:40:03Z</time></trkpt><trkpt lat="43.921232725001786" lon="12.647316802683088"><ele>60.0</ele><time>2026-04-26T10:40:05Z</time></trkpt><trkpt lat="43.92122205082232" lon="12.647204829363227"><ele>60.5</ele><time>2026-04-26T10:40:07Z</time></trkpt><trkpt lat="43.921217068617004" lon="12.647097745509859"><ele>61.0</ele><time>2026-04-26T10:40:09Z</time></trkpt><trkpt lat="43.92120986453831" lon="12.646989050964773"><ele>61.50000000000001</ele><time>2026-04-26T10:40:11Z</time></trkpt><trkpt lat="43.921190834742355" lon="12.646879374944273"><ele>62.0</ele><time>2026-04-26T10:40:13Z</time></trkpt><trkpt lat="43.9211691340469" lon="12.646762170314997"><ele>62.50000000000001</ele><time>2026-04-26T10:40:15Z</time></trkpt><trkpt lat="43.92114859958383" lon="12.646662845325874"><ele>63.0</ele><time>2026-04-26T10:40:17Z</time></trkpt><trkpt lat="43.92111680836667" lon="12.646571796543583"><ele>63.5</ele><time>2026-04-26T10:40:19Z</time></trkpt><trkpt lat="43.92108096420368" lon="12.646469461802454"><ele>64.0</ele><time>2026-04-26T10:40:21Z</time></trkpt><trkpt lat="43.92103581301928" lon="12.646371015083828"><ele>64.5</ele><time>2026-04-26T10:40:23Z</time></trkpt><trkpt lat="43.92100809410416" lon="12.646271728038142"><ele>65.0</ele><time>2026-04-26T10:40:25Z</time></trkpt><trkpt lat="43.9209540410244" lon="12.646185555221582"><ele>64.42857142857143</ele><time>2026-04-26T10:40:27Z</time></trkpt><trkpt lat="43.92089213202295" lon="12.646136528363218"><ele>63.85714285714286</ele><time>2026-04-26T10:40:29Z</time></trkpt><trkpt lat="43.92081974483863" lon="12.646127728781169"><ele>63.285714285714285</ele><time>2026-04-26T10:40:31Z</time></trkpt><trkpt lat="43.920756779582135" lon="12.646142195054482"><ele>62.714285714285715</ele><time>2026-04-26T10:40:33Z</time></trkpt><trkpt lat="43.920688539899004" lon="12.64614068200521"><ele>62.14285714285714</ele><time>2026-04-26T10:40:36Z</time></trkpt><trkpt lat="43.920606584507674" lon="12.646113899548794"><ele>61.57142857142856</ele><time>2026-04-26T10:40:39Z</time></trkpt><trkpt lat="43.92051876909767" lon="12.646129831637976"><ele>60.99999999999999</ele><time>2026-04-26T10:40:42Z</time></trkpt><trkpt lat="43.920429330298404" lon="12.64615203314225"><ele>60.85714285714285</ele><time>2026-04-26T10:40:45Z</time></trkpt><trkpt lat="43.920367130824765" lon="12.646194079191563"><ele>60.71428571428571</ele><time>2026-04-26T10:40:47Z</time></trkpt><trkpt lat="43.92029490616982" lon="12.646205424076031"><ele>60.57142857142857</ele><time>2026-04-26T10:40:49Z</time></trkpt><trkpt lat="43.9202213559012" lon="12.646215959294265"><ele>60.42857142857142</ele><time>2026-04-26T10:40:51Z</time></trkpt><trkpt lat="43.920143489081056" lon="12.646207454718176"><ele>60.28571428571428</ele><time>2026-04-26T10:40:53Z</time></trkpt><trkpt lat="43.920066134176864" lon="12.646217492306183"><ele>60.142857142857146</ele><time>2026-04-26T10:40:55Z</time></trkpt><trkpt lat="43.919996859439955" lon="12.64624565191478"><ele>60.0</ele><time>2026-04-26T10:40:57Z</time></trkpt><trkpt lat="43.91991973146681" lon="12.646252687812948"><ele>59.666666666666664</ele><time>2026-04-26T10:40:59Z</time></trkpt><trkpt lat="43.91984367102889" lon="12.646265383814253"><ele>59.33333333333333</ele><time>2026-04-26T10:41:01Z</time></trkpt><trkpt lat="43.91977061802735" lon="12.646277385710233"><ele>59.0</ele><time>2026-04-26T10:41:03Z</time></trkpt><trkpt lat="43.91969541601229" lon="12.646287818640376"><ele>58.666666666666664</ele><time>2026-04-26T10:41:05Z</time></trkpt><trkpt lat="43.91960002738823" lon="12.646281000211422"><ele>58.33333333333333</ele><time>2026-04-26T10:41:08Z</time></trkpt><trkpt lat="43.91953109198182" lon="12.646249713249668"><ele>58.0</ele><time>2026-04-26T10:41:10Z</time></trkpt><trkpt lat="43.919471871804085" lon="12.646185399839753"><ele>58.666666666666664</ele><time>2026-04-26T10:41:12Z</time></trkpt><trkpt lat="43.91942678916453" lon="12.646098258313863"><ele>59.33333333333333</ele><time>2026-04-26T10:41:14Z</time></trkpt><trkpt lat="43.919392673674665" lon="12.645999274852764"><ele>60.0</ele><time>2026-04-26T10:41:16Z</time></trkpt><trkpt lat="43.91935236660193" lon="12.645895412137818"><ele>60.66666666666667</ele><time>2026-04-26T10:41:18Z</time></trkpt><trkpt lat="43.91931227613258" lon="12.645803597383338"><ele>61.333333333333336</ele><time>2026-04-26T10:41:20Z</time></trkpt><trkpt lat="43.91927977948331" lon="12.645704397567725"><ele>62.0</ele><time>2026-04-26T10:41:22Z</time></trkpt><trkpt lat="43.91923510443514" lon="12.64562567474348"><ele>62.00000000000001</ele><time>2026-04-26T10:41:24Z</time></trkpt><trkpt lat="43.91919089644486" lon="12.64553307283607"><ele>62.0</ele><time>2026-04-26T10:41:26Z</time></trkpt><trkpt lat="43.91914844828614" lon="12.645443292770894"><ele>62.0</ele><time>2026-04-26T10:41:28Z</time></trkpt><trkpt lat="43.91910239898829" lon="12.645361653560316"><ele>62.0</ele><time>2026-04-26T10:41:30Z</time></trkpt><trkpt lat="43.91905194212965" lon="12.64528100575067"><ele>62.00000000000001</ele><time>2026-04-26T10:41:32Z</time></trkpt><trkpt lat="43.91899773390548" lon="12.645198795918507"><ele>62.0</ele><time>2026-04-26T10:41:34Z</time></trkpt><trkpt lat="43.918946862972454" lon="12.645109474830782"><ele>62.16666666666667</ele><time>2026-04-26T10:41:36Z</time></trkpt><trkpt lat="43.91889474375933" lon="12.645018404060465"><ele>62.333333333333336</ele><time>2026-04-26T10:41:38Z</time></trkpt><trkpt lat="43.91884329154271" lon="12.644930048463133"><ele>62.5</ele><time>2026-04-26T10:41:40Z</time></trkpt><trkpt lat="43.91879451630294" lon="12.644842241595754"><ele>62.66666666666667</ele><time>2026-04-26T10:41:42Z</time></trkpt><trkpt lat="43.91874612870666" lon="12.644759802866282"><ele>62.833333333333336</ele><time>2026-04-26T10:41:44Z</time></trkpt><trkpt lat="43.9187013057999" lon="12.64467828552268"><ele>63.0</ele><time>2026-04-26T10:41:46Z</time></trkpt><trkpt lat="43.9186500626703" lon="12.644599596504236"><ele>63.0</ele><time>2026-04-26T10:41:48Z</time></trkpt><trkpt lat="43.91860432209578" lon="12.644513977784039"><ele>63.0</ele><time>2026-04-26T10:41:50Z</time></trkpt><trkpt lat="43.91855104568701" lon="12.644440433023027"><ele>63.0</ele><time>2026-04-26T10:41:52Z</time></trkpt><trkpt lat="43.91850200602981" lon="12.644359757344173"><ele>63.0</ele><time>2026-04-26T10:41:54Z</time></trkpt><trkpt lat="43.91844803552559" lon="12.644280529560923"><ele>63.0</ele><time>2026-04-26T10:41:56Z</time></trkpt><trkpt lat="43.91839882940207" lon="12.644194609595859"><ele>63.0</ele><time>2026-04-26T10:41:58Z</time></trkpt><trkpt lat="43.91834294145103" lon="12.644115450160704"><ele>62.833333333333336</ele><time>2026-04-26T10:42:00Z</time></trkpt><trkpt lat="43.91828673231244" lon="12.644038645444136"><ele>62.66666666666667</ele><time>2026-04-26T10:42:02Z</time></trkpt><trkpt lat="43.918225014301264" lon="12.643977575756272"><ele>62.5</ele><time>2026-04-26T10:42:04Z</time></trkpt><trkpt lat="43.91816033505125" lon="12.643923207844399"><ele>62.333333333333336</ele><time>2026-04-26T10:42:06Z</time></trkpt><trkpt lat="43.918098280811556" lon="12.643866489267513"><ele>62.16666666666667</ele><time>2026-04-26T10:42:08Z</time></trkpt><trkpt lat="43.91804994166104" lon="12.64378165788592"><ele>62.0</ele><time>2026-04-26T10:42:10Z</time></trkpt><trkpt lat="43.91800192889249" lon="12.643711712626555"><ele>62.00000000000001</ele><time>2026-04-26T10:42:12Z</time></trkpt><trkpt lat="43.917951546688755" lon="12.643633295060024"><ele>62.0</ele><time>2026-04-26T10:42:14Z</time></trkpt><trkpt lat="43.917893557168284" lon="12.643548326372928"><ele>62.0</ele><time>2026-04-26T10:42:16Z</time></trkpt><trkpt lat="43.91783559374249" lon="12.64346799281614"><ele>62.0</ele><time>2026-04-26T10:42:18Z</time></trkpt><trkpt lat="43.91777813854609" lon="12.643392920315796"><ele>62.00000000000001</ele><time>2026-04-26T10:42:20Z</time></trkpt><trkpt lat="43.91772368508411" lon="12.64332397031016"><ele>62.0</ele><time>2026-04-26T10:42:22Z</time></trkpt><trkpt lat="43.91767159984733" lon="12.643250365963302"><ele>62.00000000000001</ele><time>2026-04-26T10:42:24Z</time></trkpt><trkpt lat="43.917613177415426" lon="12.643179367244011"><ele>62.0</ele><time>2026-04-26T10:42:26Z</time></trkpt><trkpt lat="43.91756798807008" lon="12.643096245391883"><ele>62.0</ele><time>2026-04-26T10:42:28Z</time></trkpt><trkpt lat="43.91750822770667" lon="12.643026684170675"><ele>62.0</ele><time>2026-04-26T10:42:30Z</time></trkpt><trkpt lat="43.91744828254127" lon="12.64295971196477"><ele>62.00000000000001</ele><time>2026-04-26T10:42:32Z</time></trkpt><trkpt lat="43.917388215832084" lon="12.642888745317398"><ele>62.0</ele><time>2026-04-26T10:42:34Z</time></trkpt><trkpt lat="43.917325397107625" lon="12.642827857151584"><ele>62.00000000000001</ele><time>2026-04-26T10:42:36Z</time></trkpt><trkpt lat="43.917263013159676" lon="12.642765006244979"><ele>62.0</ele><time>2026-04-26T10:42:38Z</time></trkpt><trkpt lat="43.91719694275307" lon="12.642701478237335"><ele>62.0</ele><time>2026-04-26T10:42:40Z</time></trkpt><trkpt lat="43.917123358400154" lon="12.642644334506578"><ele>62.0</ele><time>2026-04-26T10:42:42Z</time></trkpt><trkpt lat="43.91704438441147" lon="12.64259513235903"><ele>62.00000000000001</ele><time>2026-04-26T10:42:44Z</time></trkpt><trkpt lat="43.91697216311746" lon="12.642530543583833"><ele>62.0</ele><time>2026-04-26T10:42:46Z</time></trkpt><trkpt lat="43.916891611447774" lon="12.642474352085053"><ele>62.00000000000001</ele><time>2026-04-26T10:42:48Z</time></trkpt><trkpt lat="43.9168132705334" lon="12.642426589316463"><ele>62.0</ele><time>2026-04-26T10:42:50Z</time></trkpt><trkpt lat="43.91673683986183" lon="12.642373654453175"><ele>62.0</ele><time>2026-04-26T10:42:52.001Z</time></trkpt><trkpt lat="43.91665953978846" lon="12.642319734332533"><ele>62.0</ele><time>2026-04-26T10:42:54.001Z</time></trkpt><trkpt lat="43.91658685299426" lon="12.642262969097906"><ele>62.00000000000001</ele><time>2026-04-26T10:42:56.001Z</time></trkpt><trkpt lat="43.916512949900074" lon="12.642204511943666"><ele>62.0</ele><time>2026-04-26T10:42:58.001Z</time></trkpt><trkpt lat="43.91643308641477" lon="12.642157632927065"><ele>62.00000000000001</ele><time>2026-04-26T10:43:00.001Z</time></trkpt><trkpt lat="43.91635036989706" lon="12.642121608786434"><ele>62.0</ele><time>2026-04-26T10:43:02.001Z</time></trkpt><trkpt lat="43.916265724999114" lon="12.642103950461417"><ele>62.0</ele><time>2026-04-26T10:43:04.001Z</time></trkpt><trkpt lat="43.91618208985077" lon="12.642075214715971"><ele>62.0</ele><time>2026-04-26T10:43:06.001Z</time></trkpt><trkpt lat="43.916097485913134" lon="12.642061812670063"><ele>62.00000000000001</ele><time>2026-04-26T10:43:08.001Z</time></trkpt><trkpt lat="43.916014276963054" lon="12.642028446428096"><ele>62.0</ele><time>2026-04-26T10:43:10.001Z</time></trkpt><trkpt lat="43.91594483735842" lon="12.641977145721995"><ele>62.333333333333336</ele><time>2026-04-26T10:43:12.001Z</time></trkpt><trkpt lat="43.91588287266955" lon="12.64191125617978"><ele>62.66666666666667</ele><time>2026-04-26T10:43:14.001Z</time></trkpt><trkpt lat="43.91582007058099" lon="12.64184150224796"><ele>63.0</ele><time>2026-04-26T10:43:16.001Z</time></trkpt><trkpt lat="43.91575394764389" lon="12.641784458675154"><ele>63.33333333333333</ele><time>2026-04-26T10:43:18.001Z</time></trkpt><trkpt lat="43.915684142020645" lon="12.641745193025347"><ele>63.666666666666664</ele><time>2026-04-26T10:43:20.001Z</time></trkpt><trkpt lat="43.91562274115344" lon="12.641720872926413"><ele>64.0</ele><time>2026-04-26T10:43:22.001Z</time></trkpt><trkpt lat="43.915540712511365" lon="12.641689920724822"><ele>64.0</ele><time>2026-04-26T10:43:25.001Z</time></trkpt><trkpt lat="43.91547740412167" lon="12.641667334444628"><ele>63.99999999999999</ele><time>2026-04-26T10:43:27.001Z</time></trkpt><trkpt lat="43.91541581429366" lon="12.641643364079968"><ele>64.0</ele><time>2026-04-26T10:43:29.001Z</time></trkpt><trkpt lat="43.915334950164166" lon="12.641626040075831"><ele>64.0</ele><time>2026-04-26T10:43:32Z</time></trkpt><trkpt lat="43.91526981645899" lon="12.641612283428895"><ele>63.99999999999999</ele><time>2026-04-26T10:43:35Z</time></trkpt><trkpt lat="43.915191286742335" lon="12.641594574145609"><ele>64.0</ele><time>2026-04-26T10:43:39Z</time></trkpt><trkpt lat="43.915118882718616" lon="12.64158338877713"><ele>64.0</ele><time>2026-04-26T10:43:42Z</time></trkpt><trkpt lat="43.91505006869239" lon="12.641551898761003"><ele>64.0</ele><time>2026-04-26T10:43:45Z</time></trkpt><trkpt lat="43.91497521538212" lon="12.641538704599263"><ele>63.99999999999999</ele><time>2026-04-26T10:44:01Z</time></trkpt><trkpt lat="43.91491300434723" lon="12.64152327423844"><ele>64.0</ele><time>2026-04-26T10:44:06Z</time></trkpt><trkpt lat="43.91484504902116" lon="12.641508920120884"><ele>64.0</ele><time>2026-04-26T10:44:12Z</time></trkpt><trkpt lat="43.914782908984726" lon="12.641493692920225"><ele>63.99999999999999</ele><time>2026-04-26T10:44:17Z</time></trkpt><trkpt lat="43.91471986352095" lon="12.641483998614667"><ele>64.0</ele><time>2026-04-26T10:44:22Z</time></trkpt><trkpt lat="43.91465629291727" lon="12.641463763752585"><ele>64.0</ele><time>2026-04-26T10:44:27Z</time></trkpt><trkpt lat="43.914591665672624" lon="12.641448653040683"><ele>64.0</ele><time>2026-04-26T10:44:32Z</time></trkpt><trkpt lat="43.914549347247984" lon="12.641382164925497"><ele>63.99999999999999</ele><time>2026-04-26T10:44:37Z</time></trkpt><trkpt lat="43.91456675867966" lon="12.641292712613815"><ele>64.0</ele><time>2026-04-26T10:44:42Z</time></trkpt><trkpt lat="43.91458170030541" lon="12.64120414008368"><ele>64.0</ele><time>2026-04-26T10:44:47Z</time></trkpt><trkpt lat="43.914599470629035" lon="12.641110678465143"><ele>63.99999999999999</ele><time>2026-04-26T10:44:52Z</time></trkpt><trkpt lat="43.91462042747611" lon="12.641026731029267"><ele>64.0</ele><time>2026-04-26T10:44:59Z</time></trkpt><trkpt lat="43.91462569403567" lon="12.640927027919053"><ele>64.0</ele><time>2026-04-26T10:45:06Z</time></trkpt><trkpt lat="43.91464040036842" lon="12.640827981655576"><ele>64.28571428571428</ele><time>2026-04-26T10:45:13Z</time></trkpt><trkpt lat="43.91464962781925" lon="12.640736823995441"><ele>64.57142857142857</ele><time>2026-04-26T10:45:19Z</time></trkpt><trkpt lat="43.914671808480485" lon="12.640650822287597"><ele>64.85714285714286</ele><time>2026-04-26T10:45:27Z</time></trkpt><trkpt lat="43.914628096537406" lon="12.64071926135935"><ele>65.14285714285714</ele><time>2026-04-26T10:45:39Z</time></trkpt><trkpt lat="43.91461625949463" lon="12.640808508763934"><ele>65.42857142857143</ele><time>2026-04-26T10:45:44Z</time></trkpt><trkpt lat="43.91459895079342" lon="12.640909842053258"><ele>65.71428571428571</ele><time>2026-04-26T10:45:50Z</time></trkpt><trkpt lat="43.91458547107447" lon="12.640995671673595"><ele>66.0</ele><time>2026-04-26T10:45:55Z</time></trkpt><trkpt lat="43.9145693852911" lon="12.641093850922957"><ele>65.66666666666667</ele><time>2026-04-26T10:46:01Z</time></trkpt><trkpt lat="43.91454707103387" lon="12.641204937741353"><ele>65.33333333333333</ele><time>2026-04-26T10:46:34Z</time></trkpt><trkpt lat="43.91452998892936" lon="12.641313629978555"><ele>65.0</ele><time>2026-04-26T10:46:37Z</time></trkpt><trkpt lat="43.91451005591999" lon="12.641433005734775"><ele>64.66666666666666</ele><time>2026-04-26T10:46:40Z</time></trkpt><trkpt lat="43.91448493203438" lon="12.641560234101291"><ele>64.33333333333333</ele><time>2026-04-26T10:46:43Z</time></trkpt><trkpt lat="43.91447077372131" lon="12.641648129809706"><ele>64.0</ele><time>2026-04-26T10:46:45Z</time></trkpt><trkpt lat="43.91445665142094" lon="12.641737891507255"><ele>63.99999999999999</ele><time>2026-04-26T10:46:47Z</time></trkpt><trkpt lat="43.91443946754317" lon="12.641829717286225"><ele>64.0</ele><time>2026-04-26T10:46:49Z</time></trkpt><trkpt lat="43.91441977521287" lon="12.641949916027839"><ele>64.0</ele><time>2026-04-26T10:46:52Z</time></trkpt><trkpt lat="43.9144021091584" lon="12.642056725343075"><ele>64.0</ele><time>2026-04-26T10:46:55Z</time></trkpt><trkpt lat="43.91438473110377" lon="12.64216055887759"><ele>63.99999999999999</ele><time>2026-04-26T10:46:58Z</time></trkpt><trkpt lat="43.9143665604915" lon="12.642262377103505"><ele>64.0</ele><time>2026-04-26T10:47:01Z</time></trkpt><trkpt lat="43.914350494298674" lon="12.642352174670663"><ele>64.33333333333333</ele><time>2026-04-26T10:47:04Z</time></trkpt><trkpt lat="43.914328555288755" lon="12.642454709332126"><ele>64.66666666666666</ele><time>2026-04-26T10:47:07Z</time></trkpt><trkpt lat="43.91431364117925" lon="12.642544736569297"><ele>65.0</ele><time>2026-04-26T10:47:10Z</time></trkpt><trkpt lat="43.91429645763066" lon="12.642654851992257"><ele>65.33333333333333</ele><time>2026-04-26T10:47:13Z</time></trkpt><trkpt lat="43.914294426858824" lon="12.642766780486493"><ele>65.66666666666667</ele><time>2026-04-26T10:47:16Z</time></trkpt><trkpt lat="43.91428917321332" lon="12.642876028086022"><ele>66.0</ele><time>2026-04-26T10:47:19Z</time></trkpt><trkpt lat="43.914294543676085" lon="12.642988868855056"><ele>66.57142857142857</ele><time>2026-04-26T10:47:22Z</time></trkpt><trkpt lat="43.91430414034444" lon="12.643084787721653"><ele>67.14285714285714</ele><time>2026-04-26T10:47:25Z</time></trkpt><trkpt lat="43.91431686899749" lon="12.643189938362713"><ele>67.71428571428572</ele><time>2026-04-26T10:47:28Z</time></trkpt><trkpt lat="43.914335406352784" lon="12.643289406390604"><ele>68.28571428571428</ele><time>2026-04-26T10:47:31Z</time></trkpt><trkpt lat="43.914359077020926" lon="12.643393166715223"><ele>68.85714285714286</ele><time>2026-04-26T10:47:34Z</time></trkpt><trkpt lat="43.91437497096937" lon="12.643486303249446"><ele>69.42857142857143</ele><time>2026-04-26T10:47:37Z</time></trkpt><trkpt lat="43.91439103563393" lon="12.643576483052314"><ele>70.0</ele><time>2026-04-26T10:47:40Z</time></trkpt><trkpt lat="43.91441107900123" lon="12.64367411063806"><ele>70.0</ele><time>2026-04-26T10:47:43Z</time></trkpt><trkpt lat="43.914430209360596" lon="12.643768213372825"><ele>70.0</ele><time>2026-04-26T10:47:46Z</time></trkpt><trkpt lat="43.91447559508441" lon="12.643690506750993"><ele>70.0</ele><time>2026-04-26T10:47:52Z</time></trkpt><trkpt lat="43.914452082224614" lon="12.643581217640177"><ele>70.0</ele><time>2026-04-26T10:47:54Z</time></trkpt><trkpt lat="43.91450071044246" lon="12.643481254933068"><ele>70.0</ele><time>2026-04-26T10:47:56Z</time></trkpt><trkpt lat="43.91456463536305" lon="12.643376887241537"><ele>70.0</ele><time>2026-04-26T10:47:58Z</time></trkpt><trkpt lat="43.9146386497587" lon="12.643263016768284"><ele>70.0</ele><time>2026-04-26T10:48:00Z</time></trkpt><trkpt lat="43.9147090785771" lon="12.64313520183531"><ele>70.0</ele><time>2026-04-26T10:48:02Z</time></trkpt><trkpt lat="43.91471560573691" lon="12.642972415059496"><ele>70.0</ele><time>2026-04-26T10:48:04Z</time></trkpt><trkpt lat="43.91472778492723" lon="12.642829429155631"><ele>70.0</ele><time>2026-04-26T10:48:06Z</time></trkpt><trkpt lat="43.914778458268785" lon="12.64272585177456"><ele>70.0</ele><time>2026-04-26T10:48:08Z</time></trkpt><trkpt lat="43.91481253859887" lon="12.642626693505894"><ele>69.33333333333333</ele><time>2026-04-26T10:48:10Z</time></trkpt><trkpt lat="43.91484440142957" lon="12.642544102579508"><ele>68.66666666666666</ele><time>2026-04-26T10:48:14Z</time></trkpt><trkpt lat="43.91485688572888" lon="12.642432967305366"><ele>68.0</ele><time>2026-04-26T10:48:18Z</time></trkpt><trkpt lat="43.914903164431465" lon="12.642336954890936"><ele>67.33333333333333</ele><time>2026-04-26T10:48:21Z</time></trkpt><trkpt lat="43.91502624173137" lon="12.642374596775765"><ele>66.66666666666667</ele><time>2026-04-26T10:48:24Z</time></trkpt><trkpt lat="43.9150962164931" lon="12.642400448946502"><ele>66.0</ele><time>2026-04-26T10:48:26Z</time></trkpt><trkpt lat="43.9151728351301" lon="12.64243953911773"><ele>65.6</ele><time>2026-04-26T10:48:28Z</time></trkpt><trkpt lat="43.915253687023565" lon="12.64247555457427"><ele>65.19999999999999</ele><time>2026-04-26T10:48:30Z</time></trkpt><trkpt lat="43.91533599538842" lon="12.642509062107084"><ele>64.80000000000001</ele><time>2026-04-26T10:48:32Z</time></trkpt><trkpt lat="43.91542652052806" lon="12.642535794534018"><ele>64.4</ele><time>2026-04-26T10:48:34Z</time></trkpt><trkpt lat="43.91552163746788" lon="12.64255513788608"><ele>64.0</ele><time>2026-04-26T10:48:36Z</time></trkpt><trkpt lat="43.91561848896634" lon="12.642582679872918"><ele>64.0</ele><time>2026-04-26T10:48:38Z</time></trkpt><trkpt lat="43.915723191376266" lon="12.642608969525309"><ele>64.0</ele><time>2026-04-26T10:48:40Z</time></trkpt><trkpt lat="43.915829086858565" lon="12.642638168520064"><ele>64.0</ele><time>2026-04-26T10:48:42Z</time></trkpt><trkpt lat="43.91592522195391" lon="12.64267898392792"><ele>64.0</ele><time>2026-04-26T10:48:44Z</time></trkpt><trkpt lat="43.916032684085415" lon="12.64271543659904"><ele>64.0</ele><time>2026-04-26T10:48:46Z</time></trkpt><trkpt lat="43.91613017510612" lon="12.642749900723956"><ele>63.800000000000004</ele><time>2026-04-26T10:48:48Z</time></trkpt><trkpt lat="43.91622949895995" lon="12.642788306883196"><ele>63.60000000000001</ele><time>2026-04-26T10:48:50Z</time></trkpt><trkpt lat="43.91632548224189" lon="12.642845179699254"><ele>63.4</ele><time>2026-04-26T10:48:52Z</time></trkpt><trkpt lat="43.9164188790744" lon="12.642911828986708"><ele>63.2</ele><time>2026-04-26T10:48:54Z</time></trkpt><trkpt lat="43.916510516909234" lon="12.642983757027787"><ele>63.0</ele><time>2026-04-26T10:48:56Z</time></trkpt><trkpt lat="43.9166047057758" lon="12.643048235482137"><ele>63.0</ele><time>2026-04-26T10:48:58Z</time></trkpt><trkpt lat="43.916696848609455" lon="12.64311316103399"><ele>63.0</ele><time>2026-04-26T10:49:00Z</time></trkpt><trkpt lat="43.91678358157798" lon="12.643183695145082"><ele>63.0</ele><time>2026-04-26T10:49:02Z</time></trkpt><trkpt lat="43.916861206564" lon="12.643247460052075"><ele>63.0</ele><time>2026-04-26T10:49:04Z</time></trkpt><trkpt lat="43.916924166896365" lon="12.643301717507006"><ele>63.0</ele><time>2026-04-26T10:49:06Z</time></trkpt><trkpt lat="43.917000483245424" lon="12.643357892788277"><ele>62.85714285714286</ele><time>2026-04-26T10:49:09Z</time></trkpt><trkpt lat="43.91705210889903" lon="12.643412583075683"><ele>62.714285714285715</ele><time>2026-04-26T10:49:12Z</time></trkpt><trkpt lat="43.91712137540764" lon="12.643468676318209"><ele>62.57142857142857</ele><time>2026-04-26T10:49:15Z</time></trkpt><trkpt lat="43.917180056505124" lon="12.643510736381495"><ele>62.42857142857143</ele><time>2026-04-26T10:49:18Z</time></trkpt><trkpt lat="43.91724881090894" lon="12.64358295077885"><ele>62.28571428571429</ele><time>2026-04-26T10:49:22Z</time></trkpt><trkpt lat="43.917303207253966" lon="12.643637796911216"><ele>62.142857142857146</ele><time>2026-04-26T10:49:24Z</time></trkpt><trkpt lat="43.917365877415826" lon="12.643698045916535"><ele>62.0</ele><time>2026-04-26T10:49:26Z</time></trkpt><trkpt lat="43.9174353838291" lon="12.6437749833587"><ele>62.0</ele><time>2026-04-26T10:49:28Z</time></trkpt><trkpt lat="43.91750411890151" lon="12.643847672412237"><ele>62.0</ele><time>2026-04-26T10:49:30Z</time></trkpt><trkpt lat="43.917561418883885" lon="12.6439363698575"><ele>62.0</ele><time>2026-04-26T10:49:32Z</time></trkpt><trkpt lat="43.91761986215582" lon="12.644039308410248"><ele>62.0</ele><time>2026-04-26T10:49:34Z</time></trkpt><trkpt lat="43.917679741578866" lon="12.644157450062114"><ele>62.0</ele><time>2026-04-26T10:49:36Z</time></trkpt><trkpt lat="43.91774853720096" lon="12.644280090857977"><ele>62.0</ele><time>2026-04-26T10:49:38Z</time></trkpt><trkpt lat="43.917818869073244" lon="12.64440630354884"><ele>62.0</ele><time>2026-04-26T10:49:40Z</time></trkpt><trkpt lat="43.9178820728167" lon="12.64452043435082"><ele>62.0</ele><time>2026-04-26T10:49:42Z</time></trkpt><trkpt lat="43.91795335594453" lon="12.644636792997279"><ele>62.0</ele><time>2026-04-26T10:49:44Z</time></trkpt><trkpt lat="43.91801475305257" lon="12.644747442449304"><ele>62.0</ele><time>2026-04-26T10:49:46Z</time></trkpt><trkpt lat="43.918066017384625" lon="12.644859886981"><ele>62.0</ele><time>2026-04-26T10:49:48Z</time></trkpt><trkpt lat="43.91812948998068" lon="12.644962057843387"><ele>62.0</ele><time>2026-04-26T10:49:50Z</time></trkpt><trkpt lat="43.918202193190275" lon="12.64506513788542"><ele>62.0</ele><time>2026-04-26T10:49:52Z</time></trkpt><trkpt lat="43.91827319395546" lon="12.645171712098435"><ele>62.0</ele><time>2026-04-26T10:49:54Z</time></trkpt><trkpt lat="43.91834836517528" lon="12.645271722031392"><ele>62.0</ele><time>2026-04-26T10:49:56Z</time></trkpt><trkpt lat="43.918428170989" lon="12.645374061829187"><ele>62.0</ele><time>2026-04-26T10:49:58Z</time></trkpt><trkpt lat="43.91850673588346" lon="12.645478615999963"><ele>62.0</ele><time>2026-04-26T10:50:00Z</time></trkpt><trkpt lat="43.9185816887294" lon="12.645581294390537"><ele>62.0</ele><time>2026-04-26T10:50:02Z</time></trkpt><trkpt lat="43.91865065815599" lon="12.645684861903424"><ele>62.0</ele><time>2026-04-26T10:50:04Z</time></trkpt><trkpt lat="43.91871397614292" lon="12.645819527982106"><ele>62.0</ele><time>2026-04-26T10:50:06Z</time></trkpt><trkpt lat="43.91876667788665" lon="12.645959214848828"><ele>62.0</ele><time>2026-04-26T10:50:08Z</time></trkpt><trkpt lat="43.91882794504363" lon="12.64609418777122"><ele>62.0</ele><time>2026-04-26T10:50:10Z</time></trkpt><trkpt lat="43.91888947311625" lon="12.64622803508452"><ele>62.0</ele><time>2026-04-26T10:50:12Z</time></trkpt><trkpt lat="43.91892911432445" lon="12.646303881081677"><ele>62.0</ele><time>2026-04-26T10:50:14Z</time></trkpt><trkpt lat="43.91883770025612" lon="12.646321448249212"><ele>62.0</ele><time>2026-04-26T10:50:28Z</time></trkpt><trkpt lat="43.91877217518953" lon="12.646366824898378"><ele>61.85714285714286</ele><time>2026-04-26T10:50:31Z</time></trkpt><trkpt lat="43.91871323733018" lon="12.64641005919905"><ele>61.71428571428572</ele><time>2026-04-26T10:50:33Z</time></trkpt><trkpt lat="43.918661004286164" lon="12.646463413155633"><ele>61.57142857142857</ele><time>2026-04-26T10:50:35Z</time></trkpt><trkpt lat="43.91857352563697" lon="12.646492749078522"><ele>61.42857142857143</ele><time>2026-04-26T10:50:38Z</time></trkpt><trkpt lat="43.91851428553682" lon="12.646533535431253"><ele>61.285714285714285</ele><time>2026-04-26T10:50:40Z</time></trkpt><trkpt lat="43.918458042844335" lon="12.646576941079767"><ele>61.14285714285714</ele><time>2026-04-26T10:50:42Z</time></trkpt><trkpt lat="43.91840132984905" lon="12.646630329236862"><ele>60.99999999999999</ele><time>2026-04-26T10:50:44Z</time></trkpt><trkpt lat="43.918345183787295" lon="12.646679113141255"><ele>60.99999999999999</ele><time>2026-04-26T10:50:46Z</time></trkpt><trkpt lat="43.918288477841394" lon="12.646732213591095"><ele>61.0</ele><time>2026-04-26T10:50:48Z</time></trkpt><trkpt lat="43.91823416970959" lon="12.646793512163299"><ele>61.0</ele><time>2026-04-26T10:50:50Z</time></trkpt><trkpt lat="43.91818178778979" lon="12.64686758987615"><ele>61.0</ele><time>2026-04-26T10:50:52Z</time></trkpt><trkpt lat="43.91812850318518" lon="12.646945621992545"><ele>60.99999999999999</ele><time>2026-04-26T10:50:54Z</time></trkpt><trkpt lat="43.91807213881498" lon="12.647027609886308"><ele>61.0</ele><time>2026-04-26T10:50:56Z</time></trkpt><trkpt lat="43.9180194672047" lon="12.647115604163561"><ele>60.99999999999999</ele><time>2026-04-26T10:50:58Z</time></trkpt><trkpt lat="43.91797373660789" lon="12.647217108253422"><ele>61.0</ele><time>2026-04-26T10:51:00Z</time></trkpt><trkpt lat="43.917940864807235" lon="12.647325415584552"><ele>61.0</ele><time>2026-04-26T10:51:02Z</time></trkpt><trkpt lat="43.917902131018685" lon="12.647415711180765"><ele>61.0</ele><time>2026-04-26T10:51:04Z</time></trkpt><trkpt lat="43.91786678408629" lon="12.6474884339955"><ele>60.99999999999999</ele><time>2026-04-26T10:51:06Z</time></trkpt><trkpt lat="43.91781131468449" lon="12.647584915591981"><ele>61.0</ele><time>2026-04-26T10:51:09Z</time></trkpt><trkpt lat="43.91773617662785" lon="12.64764829407974"><ele>60.99999999999999</ele><time>2026-04-26T10:51:12Z</time></trkpt><trkpt lat="43.91766343795542" lon="12.647709931388526"><ele>61.0</ele><time>2026-04-26T10:51:15Z</time></trkpt><trkpt lat="43.91760744113939" lon="12.647755160390105"><ele>61.0</ele><time>2026-04-26T10:51:19Z</time></trkpt><trkpt lat="43.91756065540913" lon="12.647845683804091"><ele>61.0</ele><time>2026-04-26T10:51:21Z</time></trkpt><trkpt lat="43.917523526622055" lon="12.647933123905888"><ele>60.99999999999999</ele><time>2026-04-26T10:51:23Z</time></trkpt><trkpt lat="43.91748844171823" lon="12.648053106235627"><ele>61.0</ele><time>2026-04-26T10:51:26Z</time></trkpt><trkpt lat="43.917304561144874" lon="12.648040662855978"><ele>61.33333333333333</ele><time>2026-04-26T10:51:27Z</time></trkpt><trkpt lat="43.91729064471557" lon="12.6481375687944"><ele>61.666666666666664</ele><time>2026-04-26T10:51:31Z</time></trkpt><trkpt lat="43.91725605156369" lon="12.648216612403038"><ele>62.0</ele><time>2026-04-26T10:51:34Z</time></trkpt><trkpt lat="43.91730019152448" lon="12.648105309083574"><ele>62.33333333333333</ele><time>2026-04-26T10:51:40Z</time></trkpt><trkpt lat="43.91730577217126" lon="12.647991897753949"><ele>62.666666666666664</ele><time>2026-04-26T10:51:43Z</time></trkpt><trkpt lat="43.91726719421873" lon="12.647920462431355"><ele>63.0</ele><time>2026-04-26T10:51:45Z</time></trkpt><trkpt lat="43.91723965348693" lon="12.647814750798243"><ele>63.0</ele><time>2026-04-26T10:51:48Z</time></trkpt><trkpt lat="43.91721493493525" lon="12.647728941990485"><ele>63.0</ele><time>2026-04-26T10:51:50Z</time></trkpt><trkpt lat="43.91719032553016" lon="12.647606007637133"><ele>63.0</ele><time>2026-04-26T10:51:53Z</time></trkpt><trkpt lat="43.9171700833708" lon="12.647490104602142"><ele>63.0</ele><time>2026-04-26T10:51:56Z</time></trkpt><trkpt lat="43.91716591800896" lon="12.647387468557524"><ele>63.0</ele><time>2026-04-26T10:51:58Z</time></trkpt><trkpt lat="43.91714644528484" lon="12.647293736579273"><ele>63.0</ele><time>2026-04-26T10:52:00Z</time></trkpt><trkpt lat="43.91713573251699" lon="12.647176139323529"><ele>63.0</ele><time>2026-04-26T10:52:03Z</time></trkpt><trkpt lat="43.91707818953062" lon="12.647229362786478"><ele>63.0</ele><time>2026-04-26T10:52:07Z</time></trkpt><trkpt lat="43.917127780786785" lon="12.647308666766158"><ele>63.0</ele><time>2026-04-26T10:52:10Z</time></trkpt><trkpt lat="43.91715301757338" lon="12.647428289719516"><ele>63.0</ele><time>2026-04-26T10:52:13Z</time></trkpt></trkseg></trk></gpx>